Provisional Data: Driftwood Branch Sinnemahoning Creek


Please select a monitoring station.
Please select start date.
Please select start date.

Toggle Unit: C/F Toggle Unit: C/F
Sample Time Temperature (C) Temperature (F) Specific Conductivity (mS/cm) pH   Turbidity (NTU+) DO (mg/L)
5/17/2022 12:00:00 AM 12.69 54.842 0.054 7.09 9.82 9.78
5/17/2022 12:15:00 AM 12.6 54.68 0.054 7.09 9.8 9.8
5/17/2022 12:30:00 AM 12.52 54.536 0.054 7.07 10.39 9.82
5/17/2022 12:45:00 AM 12.43 54.374 0.054 7.08 10.01 9.84
5/17/2022 1:00:00 AM 12.34 54.212 0.054 7.08 9.8 9.87
5/17/2022 1:15:00 AM 12.27 54.086 0.054 6.99 9.39 9.88
5/17/2022 1:30:00 AM 12.21 53.978 0.054 6.99 9.37 9.91
5/17/2022 1:45:00 AM 12.14 53.852 0.055 7.04 9.6 9.92
5/17/2022 2:00:00 AM 12.05 53.69 0.055 7.05 9.53 9.94
5/17/2022 2:15:00 AM 11.98 53.564 0.054 7.05 9.68 9.96
5/17/2022 2:30:00 AM 11.9 53.42 0.055 7.06 9.65 9.98
5/17/2022 2:45:00 AM 11.83 53.294 0.055 7.04 9.61 10
5/17/2022 3:00:00 AM 11.76 53.168 0.055 7.07 9.76 10.02
5/17/2022 3:15:00 AM 11.7 53.06 0.055 7.08 9.53 10.03
5/17/2022 3:30:00 AM 11.64 52.952 0.054 7 9.58 10.05
5/17/2022 3:45:00 AM 11.59 52.862 0.055 6.94 9.52 10.06
5/17/2022 4:00:00 AM 11.54 52.772 0.055 6.97 9.61 10.08
5/17/2022 4:15:00 AM 11.49 52.682 0.055 7.03 9.7 10.1
5/17/2022 4:30:00 AM 11.44 52.592 0.055 7.03 9.54 10.11
5/17/2022 4:45:00 AM 11.39 52.502 0.055 7.08 9.65 10.13
5/17/2022 5:00:00 AM 11.34 52.412 0.055 7.1 9.3 10.14
5/17/2022 5:15:00 AM 11.29 52.322 0.055 7.01 9.61 10.15
5/17/2022 5:30:00 AM 11.25 52.25 0.055 7.05 9.67 10.16
5/17/2022 5:45:00 AM 11.2 52.16 0.055 7.07 9.58 10.18
5/17/2022 6:00:00 AM 11.16 52.088 0.055 6.99 9.65 10.2
5/17/2022 6:15:00 AM 11.11 51.998 0.055 7.03 9.68 10.22
5/17/2022 6:30:00 AM 11.07 51.926 0.055 7.06 9.72 10.25
5/17/2022 6:45:00 AM 11.03 51.854 0.055 7.07 9.63 10.28
5/17/2022 7:00:00 AM 11 51.8 0.055 7.08 9.53 10.34
5/17/2022 7:15:00 AM 10.97 51.746 0.055 7.08 9.44 10.39
5/17/2022 7:30:00 AM 10.95 51.71 0.055 7.1 9.46 10.43
5/17/2022 7:45:00 AM 10.93 51.674 0.055 7.11 9.47 10.49
5/17/2022 8:00:00 AM 10.93 51.674 0.054 7.14 9.39 10.53
5/17/2022 8:15:00 AM 10.98 51.764 0.054 7.12 9.31 10.57
5/17/2022 8:30:00 AM 11 51.8 0.054 7.2 9.23 10.63
5/17/2022 8:45:00 AM 11.1 51.98 0.054 7.24 9.2 10.68
5/17/2022 9:00:00 AM 11.19 52.142 0.054 7.29 9.18 10.71
5/17/2022 9:15:00 AM 11.29 52.322 0.054 7.28 9.24 10.73
5/17/2022 9:30:00 AM 11.38 52.484 0.054 7.23 8.9 10.73
5/17/2022 9:45:00 AM 11.55 52.79 0.054 7.28 9.13 10.73
5/17/2022 10:00:00 AM 11.73 53.114 0.054 7.34 9.08 10.71
5/17/2022 10:15:00 AM 11.93 53.474 0.054 7.35 9.02 10.69
5/17/2022 10:30:00 AM 12.14 53.852 0.054 7.36 9.09 10.66
5/17/2022 10:45:00 AM 12.37 54.266 0.054 7.37 9.03 10.62
5/17/2022 11:00:00 AM 12.62 54.716 0.054 7.39 8.93 10.58
5/17/2022 11:15:00 AM 12.89 55.202 0.054 7.38 8.94 10.54
5/17/2022 11:30:00 AM 13.19 55.742 0.054 7.38 8.57 10.49
5/17/2022 11:45:00 AM 13.45 56.21 0.053 7.35 8.8 10.45
5/17/2022 12:00:00 PM 13.7 56.66 0.053 7.31 8.95 10.4
5/17/2022 12:15:00 PM 13.97 57.146 0.054 7.4 8.63 10.35
5/17/2022 12:30:00 PM 14.16 57.488 0.054 7.33 8.37 10.29
5/17/2022 12:45:00 PM 14.4 57.92 0.054 7.33 8.49 10.24
5/17/2022 1:00:00 PM 14.64 58.352 0.054 7.38 9.15 10.19
5/17/2022 1:15:00 PM 14.95 58.91 0.054 7.42 8.98 10.15
5/17/2022 1:30:00 PM 15.22 59.396 0.054 7.42 9.09 10.09
5/17/2022 1:45:00 PM 15.48 59.864 0.054 7.41 8.63 10.03
5/17/2022 2:00:00 PM 15.76 60.368 0.054 7.4 8.95 9.98
5/17/2022 2:15:00 PM 16 60.8 0.054 7.29 8.97 9.93
5/17/2022 2:30:00 PM 16.27 61.286 0.054 7.4 9.39 9.87
5/17/2022 2:45:00 PM 16.47 61.646 0.054 7.34 9.02 9.82
5/17/2022 3:00:00 PM 16.7 62.06 0.054 7.3 8.82 9.76
5/17/2022 3:15:00 PM 16.9 62.42 0.054 7.37 9.17 9.72
5/17/2022 3:30:00 PM 17.02 62.636 0.054 7.38 9.3 9.67
5/17/2022 3:45:00 PM 17.16 62.888 0.054 7.39 8.98 9.63
5/17/2022 4:00:00 PM 17.24 63.032 0.054 7.37 9.01 9.58
5/17/2022 4:15:00 PM 17.15 62.87 0.054 7.33 9.16 9.53
5/17/2022 4:30:00 PM 17.23 63.014 0.054 7.32 8.98 9.52
5/17/2022 4:45:00 PM 17.3 63.14 0.054 7.29 9.16 9.5
5/17/2022 5:00:00 PM 17.35 63.23 0.054 7.28 9.22 9.48
5/17/2022 5:15:00 PM 17.34 63.212 0.054 7.35 9.15 9.45
5/17/2022 5:30:00 PM 17.28 63.104 0.054 7.33 9.32 9.42
5/17/2022 5:45:00 PM 17.2 62.96 0.054 7.33 9.18 9.4
5/17/2022 6:00:00 PM 17.03 62.654 0.054 7.21 9.56 9.36
5/17/2022 6:15:00 PM 16.93 62.474 0.054 7.28 9.67 9.35
5/17/2022 6:30:00 PM 16.84 62.312 0.054 7.29 9.1 9.35
5/17/2022 6:45:00 PM 16.74 62.132 0.054 7.26 9.5 9.35
5/17/2022 7:00:00 PM 16.59 61.862 0.054 7.26 9.81 9.32
5/17/2022 7:15:00 PM 16.4 61.52 0.055 7.24 8.76 9.31
5/17/2022 7:30:00 PM 16.19 61.142 0.055 7.2 9.99 9.3
5/17/2022 7:45:00 PM 16 60.8 0.055 7.08 9.31 9.3
5/17/2022 8:00:00 PM 15.83 60.494 0.055 7.14 9.17 9.3
5/17/2022 8:15:00 PM 15.64 60.152 0.055 7.14 9.44 9.3
5/17/2022 8:30:00 PM 15.45 59.81 0.055 7.14 10.07 9.3
5/17/2022 8:45:00 PM 15.26 59.468 0.055 7.15 9.43 9.3
5/17/2022 9:00:00 PM 15.07 59.126 0.055 7.15 10.36 9.32
5/17/2022 9:15:00 PM 14.88 58.784 0.055 7.12 10.26 9.34
5/17/2022 9:30:00 PM 14.7 58.46 0.055 7.09 10.67 9.36
5/17/2022 9:45:00 PM 14.51 58.118 0.055 7.08 10.14 9.39
5/17/2022 10:00:00 PM 14.34 57.812 0.055 7.03 10.24 9.43
5/17/2022 10:15:00 PM 14.17 57.506 0.055 7.08 10.3 9.46
5/17/2022 10:30:00 PM 13.99 57.182 0.055 7.07 10.03 9.5
5/17/2022 10:45:00 PM 13.82 56.876 0.055 6.98 10 9.54
5/17/2022 11:00:00 PM 13.65 56.57 0.055 7.02 10.47 9.58
5/17/2022 11:15:00 PM 13.49 56.282 0.055 7.07 10.41 9.61
5/17/2022 11:30:00 PM 13.32 55.976 0.055 7.04 10.61 9.65
5/17/2022 11:45:00 PM 13.16 55.688 0.055 7.04 10.52 9.69
5/18/2022 12:00:00 AM 13 55.4 0.055 7.08 10.99 9.73
5/18/2022 12:15:00 AM 12.84 55.112 0.055 7.03 11.15 9.77
5/18/2022 12:30:00 AM 12.69 54.842 0.055 7 11.05 9.81
5/18/2022 12:45:00 AM 12.54 54.572 0.055 7.03 10.85 9.85
5/18/2022 1:00:00 AM 12.39 54.302 0.055 7.05 11.29 9.89
5/18/2022 1:15:00 AM 12.25 54.05 0.055 7.06 11.41 9.92
5/18/2022 1:30:00 AM 12.11 53.798 0.055 7.05 11.22 9.96
5/18/2022 1:45:00 AM 11.97 53.546 0.055 7.04 12.05 9.99
5/18/2022 2:00:00 AM 11.84 53.312 0.055 7.06 19.94 10.03
5/18/2022 2:15:00 AM 11.71 53.078 0.055 7.05 19.94 10.07
5/18/2022 2:30:00 AM 11.58 52.844 0.055 7.04 19.45 10.1
5/18/2022 2:45:00 AM 11.45 52.61 0.055 7.05 19.13 10.13
5/18/2022 3:00:00 AM 11.34 52.412 0.055 7.04 19.47 10.16
5/18/2022 3:15:00 AM 11.22 52.196 0.055 7.01 17.74 10.2
5/18/2022 3:30:00 AM 11.09 51.962 0.055 7.07 18.08 10.23
5/18/2022 3:45:00 AM 10.98 51.764 0.055 6.98 18.03 10.26
5/18/2022 4:00:00 AM 10.87 51.566 0.055 7.02 17.9 10.29
5/18/2022 4:15:00 AM 10.76 51.368 0.055 7.05 18.18 10.31
5/18/2022 4:30:00 AM 10.67 51.206 0.055 7.06 19.26 10.35
5/18/2022 4:45:00 AM 10.59 51.062 0.055 7.01 18.39 10.37
5/18/2022 5:00:00 AM 10.52 50.936 0.055 7 18.36 10.4
5/18/2022 5:15:00 AM 10.45 50.81 0.055 7.02 18.48 10.42
5/18/2022 5:30:00 AM 10.38 50.684 0.055 7.02 18.55 10.44
5/18/2022 5:45:00 AM 10.31 50.558 0.055 7.05 18.44 10.47
5/18/2022 6:00:00 AM 10.23 50.414 0.055 7.04 18.44 10.49
5/18/2022 6:15:00 AM 10.16 50.288 0.055 7.03 17.83 10.53
5/18/2022 6:30:00 AM 10.1 50.18 0.055 7.05 18.45 10.58
5/18/2022 6:45:00 AM 10.05 50.09 0.055 7.07 17.12 10.63
5/18/2022 7:00:00 AM 10 50 0.055 7.07 17.75 10.68
5/18/2022 7:15:00 AM 9.96 49.928 0.055 7.08 17.14 10.74
5/18/2022 7:30:00 AM 9.93 49.874 0.055 7.07 17.38 10.81
5/18/2022 7:45:00 AM 9.9 49.82 0.055 7.13 20.43 10.86
5/18/2022 8:00:00 AM 9.88 49.784 0.055 7.15 19.25 10.92
5/18/2022 8:15:00 AM 9.87 49.766 0.055 7.16 19.07 10.96
5/18/2022 8:30:00 AM 9.91 49.838 0.055 7.2 21.46 11
5/18/2022 8:45:00 AM 9.98 49.964 0.055 7.23 22.03 11.03
5/18/2022 9:00:00 AM 10.05 50.09 0.055 7.15 20.54 11.05
5/18/2022 9:15:00 AM 10.13 50.234 0.054 7.27 19.23 11.07
5/18/2022 9:30:00 AM 10.25 50.45 0.054 7.3 19.75 11.08
5/18/2022 9:45:00 AM 10.38 50.684 0.054 7.33 19.02 11.07
5/18/2022 10:00:00 AM 10.54 50.972 0.054 7.31 20.28 11.07
5/18/2022 10:15:00 AM 10.72 51.296 0.054 7.35 18.74 11.05
5/18/2022 10:30:00 AM 10.91 51.638 0.054 7.33 19.23 11.04
5/18/2022 10:45:00 AM 11.13 52.034 0.054 7.36 19.55 11.02
5/18/2022 11:00:00 AM 11.36 52.448 0.054 7.4 19.4 10.98
5/18/2022 11:15:00 AM 11.64 52.952 0.054 7.37 18.1 10.94
5/18/2022 11:30:00 AM 11.93 53.474 0.054 7.27 19.58 10.9
5/18/2022 11:45:00 AM 12.2 53.96 0.054 7.38 10.13 10.84
5/18/2022 12:00:00 PM 12.2 53.96 0.054 7.38 19.49 10.79
5/18/2022 12:15:00 PM 12.31 54.158 0.054 7.38 18.9 10.75
5/18/2022 12:30:00 PM 12.7 54.86 0.054 7.44 19.49 10.71
5/18/2022 12:45:00 PM 12.95 55.31 0.054 7.4 19.67 10.66
5/18/2022 1:00:00 PM 13.32 55.976 0.054 7.44 19.49 10.6
5/18/2022 1:15:00 PM 13.53 56.354 0.053 7.43 19.44 10.56
5/18/2022 1:30:00 PM 13.58 56.444 0.054 7.42 19.16 10.5
5/18/2022 1:45:00 PM 13.69 56.642 0.054 7.41 17.65 10.46
5/18/2022 2:00:00 PM 13.73 56.714 0.053 7.45 16.91 10.42
5/18/2022 2:15:00 PM 13.88 56.984 0.053 7.48 15.83 10.38
5/18/2022 2:30:00 PM 14.08 57.344 0.053 7.49 16.78 10.34
5/18/2022 2:45:00 PM 14.12 57.416 0.053 7.38 15.52 10.29
5/18/2022 3:00:00 PM 14.08 57.344 0.053 7.32 15.51 10.23
5/18/2022 3:15:00 PM 14.04 57.272 0.053 7.35 14.21 10.19
5/18/2022 3:30:00 PM 14.06 57.308 0.053 7.36 12.19 10.16
5/18/2022 3:45:00 PM 14.08 57.344 0.053 7.35 13.24 10.11
5/18/2022 4:00:00 PM 14.07 57.326 0.053 7.32 11.48 10.05
5/18/2022 4:15:00 PM 14.03 57.254 0.053 7.26 13.03 9.98
5/18/2022 4:30:00 PM 13.99 57.182 0.053 7.27 12.27 9.92
5/18/2022 4:45:00 PM 13.95 57.11 0.053 7.25 12.04 9.88
5/18/2022 5:00:00 PM 13.92 57.056 0.053 7.27 11.5 9.86
5/18/2022 5:15:00 PM 13.92 57.056 0.053 7.3 13.74 9.88
5/18/2022 5:30:00 PM 13.9 57.02 0.053 7.29 11.97 9.89
5/18/2022 5:45:00 PM 13.87 56.966 0.053 7.29 11.52 9.88
5/18/2022 6:00:00 PM 13.83 56.894 0.054 7.21 14.57 9.86
5/18/2022 6:15:00 PM 13.78 56.804 0.054 7.22 12.06 9.83
5/18/2022 6:30:00 PM 13.73 56.714 0.054 7.22 11.89 9.81
5/18/2022 6:45:00 PM 13.69 56.642 0.054 7.23 13.03 9.8
5/18/2022 7:00:00 PM 13.64 56.552 0.054 7.22 11.93 9.79
5/18/2022 7:15:00 PM 13.58 56.444 0.054 7.19 13.33 9.77
5/18/2022 7:30:00 PM 13.51 56.318 0.054 7.11 11.52 9.74
5/18/2022 7:45:00 PM 13.44 56.192 0.054 7.17 15.26 9.73
5/18/2022 8:00:00 PM 13.36 56.048 0.054 7.17 11.41 9.73
5/18/2022 8:15:00 PM 13.28 55.904 0.054 7.12 9.03 9.72
5/18/2022 8:30:00 PM 13.2 55.76 0.054 7.16 11.37 9.72
5/18/2022 8:45:00 PM 13.13 55.634 0.054 7.1 11.13 9.72
5/18/2022 9:00:00 PM 13.05 55.49 0.054 7.13 11.98 9.73
5/18/2022 9:15:00 PM 12.97 55.346 0.054 7.11 11.44 9.74
5/18/2022 9:30:00 PM 12.89 55.202 0.055 7.03 11.85 9.75
5/18/2022 9:45:00 PM 12.81 55.058 0.055 7.1 11.81 9.76
5/18/2022 10:00:00 PM 12.73 54.914 0.055 7.1 11.98 9.78
5/18/2022 10:15:00 PM 12.65 54.77 0.055 7.06 12.31 9.79
5/18/2022 10:30:00 PM 12.58 54.644 0.055 7.07 13.1 9.8
5/18/2022 10:45:00 PM 12.51 54.518 0.055 7.06 12.24 9.82
5/18/2022 11:00:00 PM 12.43 54.374 0.055 7.02 12.69 9.84
5/18/2022 11:15:00 PM 12.36 54.248 0.055 7.03 12.09 9.85
5/18/2022 11:30:00 PM 12.3 54.14 0.055 6.98 14.05 9.86
5/18/2022 11:45:00 PM 12.24 54.032 0.055 7.03 12.8 9.88
5/19/2022 12:00:00 AM 12.18 53.924 0.055 7.03 14.07 9.89
5/19/2022 12:15:00 AM 12.11 53.798 0.055 7.03 11.99 9.91
5/19/2022 12:30:00 AM 12.05 53.69 0.055 7.03 13.88 9.92
5/19/2022 12:45:00 AM 11.99 53.582 0.055 7.01 11.57 9.94
5/19/2022 1:00:00 AM 11.94 53.492 0.055 7.01 11.83 9.95
5/19/2022 1:15:00 AM 11.89 53.402 0.055 7.05 11.53 9.97
5/19/2022 1:30:00 AM 11.84 53.312 0.055 6.99 12.67 9.98
5/19/2022 1:45:00 AM 11.79 53.222 0.055 7.02 10.62 9.99
5/19/2022 2:00:00 AM 11.75 53.15 0.055 7.07 11.27 10
5/19/2022 2:15:00 AM 11.71 53.078 0.055 7.1 12.49 10.01
5/19/2022 2:30:00 AM 11.67 53.006 0.055 7.07 11.85 10.02
5/19/2022 2:45:00 AM 11.63 52.934 0.055 7.11 10.63 10.04
5/19/2022 3:00:00 AM 11.59 52.862 0.055 7.11 10.05 10.05
5/19/2022 3:15:00 AM 11.56 52.808 0.055 7.1 10.23 10.05
5/19/2022 3:30:00 AM 11.53 52.754 0.055 7.02 11.15 10.06
5/19/2022 3:45:00 AM 11.5 52.7 0.055 7.06 10.91 10.07
5/19/2022 4:00:00 AM 11.47 52.646 0.055 7 9.93 10.08
5/19/2022 4:15:00 AM 11.44 52.592 0.055 7.07 10.78 10.08
5/19/2022 4:30:00 AM 11.41 52.538 0.055 7.1 9.99 10.09
5/19/2022 4:45:00 AM 11.38 52.484 0.055 7.1 9.72 10.09
5/19/2022 5:00:00 AM 11.36 52.448 0.055 7.08 10.12 10.1
5/19/2022 5:15:00 AM 11.33 52.394 0.055 7.11 10.33 10.11
5/19/2022 5:30:00 AM 11.31 52.358 0.055 7.11 11.09 10.11
5/19/2022 5:45:00 AM 11.29 52.322 0.055 7.1 10.94 10.12
5/19/2022 6:00:00 AM 11.27 52.286 0.055 7.1 8.47 10.12
5/19/2022 6:15:00 AM 11.25 52.25 0.055 7.06 10.67 10.13
5/19/2022 6:30:00 AM 11.23 52.214 0.055 7.09 9.42 10.14
5/19/2022 6:45:00 AM 11.22 52.196 0.055 7.01 7.41 10.15
5/19/2022 7:00:00 AM 11.21 52.178 0.055 7.08 7.54 10.17
5/19/2022 7:15:00 AM 11.2 52.16 0.055 7.11 7.2 10.19
5/19/2022 7:30:00 AM 11.19 52.142 0.055 7.11 6.68 10.22
5/19/2022 7:45:00 AM 11.18 52.124 0.055 7.1 6.52 10.23
5/19/2022 8:00:00 AM 11.18 52.124 0.055 7.12 7.05 10.25
5/19/2022 8:15:00 AM 11.18 52.124 0.055 7.11 6.26 10.28
5/19/2022 8:30:00 AM 11.2 52.16 0.055 7.11 7.96 10.32
5/19/2022 8:45:00 AM 11.21 52.178 0.055 7.13 6.65 10.35
5/19/2022 9:00:00 AM 11.23 52.214 0.055 7.15 8.02 10.39
5/19/2022 9:15:00 AM 11.23 52.214 0.055 7.16 8.04 10.4
5/19/2022 9:30:00 AM 11.24 52.232 0.055 7.17 8.92 10.41
5/19/2022 9:45:00 AM 11.26 52.268 0.055 7.15 9.29 10.43
5/19/2022 10:00:00 AM 11.3 52.34 0.055 7.2 9.14 10.46
5/19/2022 10:15:00 AM 11.33 52.394 0.055 7.18 8.73 10.48
5/19/2022 10:30:00 AM 11.38 52.484 0.055 7.21 7.38 10.5
5/19/2022 10:45:00 AM 11.45 52.61 0.055 7.23 12.57 10.53
5/19/2022 11:00:00 AM 11.5 52.7 0.055 7.2 9.21 10.55
5/19/2022 11:15:00 AM 11.53 52.754 0.055 7.24 9.03 10.55
5/19/2022 11:30:00 AM 11.57 52.826 0.055 7.26 8.41 10.54
5/19/2022 11:45:00 AM 11.69 53.042 0.055 7.31 10.65 10.55
5/19/2022 12:00:00 PM 11.88 53.384 0.055 7.34 9.74 10.58
5/19/2022 12:15:00 PM 12.05 53.69 0.055 7.32 9.06 10.57
5/19/2022 12:30:00 PM 12.15 53.87 0.055 7.35 8.35 10.57
5/19/2022 12:45:00 PM 12.31 54.158 0.055 7.39 8.67 10.56
5/19/2022 1:00:00 PM 12.46 54.428 0.055 7.38 8.62 10.53
5/19/2022 1:15:00 PM 12.7 54.86 0.055 7.37 8.65 10.51
5/19/2022 1:30:00 PM 12.96 55.328 0.054 7.42 8.35 10.47
5/19/2022 1:45:00 PM 12.99 55.382 0.055 7.33 7.73 10.4
5/19/2022 2:00:00 PM 13.19 55.742 0.054 7.36 8 10.36
5/19/2022 2:15:00 PM 13.63 56.534 0.054 7.43 8.08 10.33
5/19/2022 2:30:00 PM 14.08 57.344 0.054 7.41 7.58 10.29
5/19/2022 2:45:00 PM 14.43 57.974 0.054 7.41 8.48 10.23
5/19/2022 3:00:00 PM 14.66 58.388 0.054 7.43 8.79 10.17
5/19/2022 3:15:00 PM 14.96 58.928 0.054 7.42 7 10.12
5/19/2022 3:30:00 PM 15.25 59.45 0.054 7.39 7.07 10.06
5/19/2022 3:45:00 PM 15.53 59.954 0.054 7.36 9.24 10
5/19/2022 4:00:00 PM 15.74 60.332 0.054 7.38 8.55 9.94
5/19/2022 4:15:00 PM 15.9 60.62 0.054 7.33 8.6 9.88
5/19/2022 4:30:00 PM 16.04 60.872 0.054 7.38 8.23 9.84
5/19/2022 4:45:00 PM 16.08 60.944 0.054 7.38 9.2 9.78
5/19/2022 5:00:00 PM 16.1 60.98 0.054 7.37 10.07 9.73
5/19/2022 5:15:00 PM 16.1 60.98 0.054 7.36 9.4 9.69
5/19/2022 5:30:00 PM 16.12 61.016 0.054 7.3 7.39 9.66
5/19/2022 5:45:00 PM 16.13 61.034 0.054 7.32 9.44 9.63
5/19/2022 6:00:00 PM 16.14 61.052 0.054 7.32 8.5 9.6
5/19/2022 6:15:00 PM 16.15 61.07 0.054 7.34 8.36 9.58
5/19/2022 6:30:00 PM 16.13 61.034 0.055 7.34 8.73 9.55
5/19/2022 6:45:00 PM 16.11 60.998 0.055 7.31 7.02 9.51
5/19/2022 7:00:00 PM 16.06 60.908 0.055 7.31 7.28 9.47
5/19/2022 7:15:00 PM 15.99 60.782 0.055 7.31 6.95 9.44
5/19/2022 7:30:00 PM 15.91 60.638 0.055 7.28 7.04 9.41
5/19/2022 7:45:00 PM 15.83 60.494 0.055 7.27 7.69 9.38
5/19/2022 8:00:00 PM 15.76 60.368 0.055 7.24 6.92 9.34
5/19/2022 8:15:00 PM 15.68 60.224 0.055 7.18 7.13 9.31
5/19/2022 8:30:00 PM 15.58 60.044 0.055 7.2 6.72 9.27
5/19/2022 8:45:00 PM 15.47 59.846 0.055 7.19 6.85 9.25
5/19/2022 9:00:00 PM 15.36 59.648 0.055 7.1 7.49 9.23
5/19/2022 9:15:00 PM 15.25 59.45 0.055 7.15 7.36 9.22
5/19/2022 9:30:00 PM 15.15 59.27 0.056 7.08 7.81 9.22
5/19/2022 9:45:00 PM 15.05 59.09 0.056 7.14 8.06 9.23
5/19/2022 10:00:00 PM 14.93 58.874 0.056 7.1 8.74 9.25
5/19/2022 10:15:00 PM 14.82 58.676 0.056 7.1 11.9 9.26
5/19/2022 10:30:00 PM 14.71 58.478 0.056 7.13 8.05 9.28
5/19/2022 10:45:00 PM 14.62 58.316 0.056 7.08 7.93 9.3
5/19/2022 11:00:00 PM 14.51 58.118 0.056 7.08 8.44 9.32
5/19/2022 11:15:00 PM 14.4 57.92 0.056 7.04 9 9.34
5/19/2022 11:30:00 PM 14.28 57.704 0.056 7.09 8.67 9.37
5/19/2022 11:45:00 PM 14.18 57.524 0.056 7.1 9.62 9.4
5/20/2022 12:00:00 AM 14.07 57.326 0.056 7.07 9.34 9.42
5/20/2022 12:15:00 AM 13.95 57.11 0.056 7.09 9.66 9.45
5/20/2022 12:30:00 AM 13.84 56.912 0.056 7.06 9.7 9.48
5/20/2022 12:45:00 AM 13.73 56.714 0.057 7.09 9.58 9.51
5/20/2022 1:00:00 AM 13.62 56.516 0.057 7.01 9.29 9.54
5/20/2022 1:15:00 AM 13.52 56.336 0.057 7.05 8.82 9.56
5/20/2022 1:30:00 AM 13.41 56.138 0.057 7.06 8.65 9.59
5/20/2022 1:45:00 AM 13.31 55.958 0.057 7.06 8.35 9.61
5/20/2022 2:00:00 AM 13.21 55.778 0.057 7.09 7.9 9.63
5/20/2022 2:15:00 AM 13.1 55.58 0.057 7.08 8.56 9.66
5/20/2022 2:30:00 AM 13.02 55.436 0.057 7.08 9.22 9.68
5/20/2022 2:45:00 AM 12.94 55.292 0.057 7.08 8.3 9.7
5/20/2022 3:00:00 AM 12.88 55.184 0.057 7.08 8.28 9.72
5/20/2022 3:15:00 AM 12.8 55.04 0.057 7.08 8.31 9.74
5/20/2022 3:30:00 AM 12.72 54.896 0.057 7.08 8.77 9.76
5/20/2022 3:45:00 AM 12.63 54.734 0.057 7.09 8.74 9.78
5/20/2022 4:00:00 AM 12.54 54.572 0.057 7.08 8.64 9.8
5/20/2022 4:15:00 AM 12.47 54.446 0.057 7.09 8.35 9.83
5/20/2022 4:30:00 AM 12.4 54.32 0.057 7.04 8.79 9.84
5/20/2022 4:45:00 AM 12.33 54.194 0.057 7.07 8.12 9.86
5/20/2022 5:00:00 AM 12.28 54.104 0.057 7.08 8.04 9.88
5/20/2022 5:15:00 AM 12.22 53.996 0.057 7.09 8.72 9.89
5/20/2022 5:30:00 AM 12.17 53.906 0.057 7.09 8.68 9.91
5/20/2022 5:45:00 AM 12.12 53.816 0.057 6.95 9.06 9.93
5/20/2022 6:00:00 AM 12.07 53.726 0.057 7.07 8.73 9.94
5/20/2022 6:15:00 AM 12.03 53.654 0.057 7.03 8.63 9.96
5/20/2022 6:30:00 AM 11.99 53.582 0.057 7.11 9.06 10
5/20/2022 6:45:00 AM 11.96 53.528 0.057 7.11 9.67 10.04
5/20/2022 7:00:00 AM 11.93 53.474 0.057 7.11 8.94 10.08
5/20/2022 7:15:00 AM 11.91 53.438 0.057 7.06 9.79 10.12
5/20/2022 7:30:00 AM 11.9 53.42 0.057 7.06 8.71 10.18
5/20/2022 7:45:00 AM 11.91 53.438 0.057 7.14 8.82 10.25
5/20/2022 8:00:00 AM 11.93 53.474 0.057 7.17 9.33 10.31
5/20/2022 8:15:00 AM 11.96 53.528 0.057 7.13 9.2 10.37
5/20/2022 8:30:00 AM 12.02 53.636 0.057 7.23 9.02 10.42
5/20/2022 8:45:00 AM 12.04 53.672 0.057 7.24 8.95 10.44
5/20/2022 9:00:00 AM 12.09 53.762 0.056 7.25 8.68 10.47
5/20/2022 9:15:00 AM 12.1 53.78 0.056 7.23 9.57 10.46
5/20/2022 9:30:00 AM 12.15 53.87 0.056 7.25 8.67 10.47
5/20/2022 9:45:00 AM 12.22 53.996 0.056 7.3 9.41 10.48
5/20/2022 10:00:00 AM 12.29 54.122 0.056 7.28 8.88 10.49
5/20/2022 10:15:00 AM 12.37 54.266 0.056 7.34 9.16 10.51
5/20/2022 10:30:00 AM 12.62 54.716 0.056 7.44 9.06 10.51
5/20/2022 10:45:00 AM 12.76 54.968 0.056 7.46 8.11 10.51
5/20/2022 11:00:00 AM 12.99 55.382 0.056 7.49 8.39 10.51
5/20/2022 11:15:00 AM 13.09 55.562 0.056 7.42 9.99 10.49
5/20/2022 11:30:00 AM 13.38 56.084 0.056 7.49 9.3 10.46
5/20/2022 11:45:00 AM 13.67 56.606 0.056 7.53 9.9 10.43
5/20/2022 12:00:00 PM 13.89 57.002 0.055 7.56 10.97 10.4
5/20/2022 12:15:00 PM 14.09 57.362 0.055 7.52 10.31 10.35
5/20/2022 12:30:00 PM 14.34 57.812 0.055 7.55 9.23 10.32
5/20/2022 12:45:00 PM 14.62 58.316 0.055 7.56 9.61 10.26
5/20/2022 1:00:00 PM 14.82 58.676 0.055 7.55 9.47 10.19
5/20/2022 1:15:00 PM 14.96 58.928 0.055 7.39 9.54 10.12
5/20/2022 1:30:00 PM 14.98 58.964 0.055 7.39 7.51 10.01
5/20/2022 1:45:00 PM 15.04 59.072 0.055 7.45 8.02 9.93
5/20/2022 2:00:00 PM 15.28 59.504 0.055 7.48 9.33 9.92
5/20/2022 2:15:00 PM 15.36 59.648 0.055 7.41 9.59 9.91
5/20/2022 2:30:00 PM 15.45 59.81 0.055 7.42 9.02 9.9
5/20/2022 2:45:00 PM 15.46 59.828 0.055 7.42 8.62 9.86
5/20/2022 3:00:00 PM 15.48 59.864 0.055 7.43 9.52 9.83
5/20/2022 3:15:00 PM 15.48 59.864 0.055 7.41 8.75 9.79
5/20/2022 3:30:00 PM 15.5 59.9 0.055 7.36 8.88 9.77
5/20/2022 3:45:00 PM 15.53 59.954 0.055 7.43 9.09 9.76
5/20/2022 4:00:00 PM 15.66 60.188 0.055 7.45 8.38 9.77
5/20/2022 4:15:00 PM 15.68 60.224 0.055 7.39 9.18 9.72
5/20/2022 4:30:00 PM 15.68 60.224 0.055 7.37 8.46 9.66
5/20/2022 4:45:00 PM 15.65 60.17 0.055 7.36 9.78 9.6
5/20/2022 5:00:00 PM 15.65 60.17 0.055 7.34 9.29 9.58
5/20/2022 5:15:00 PM 15.67 60.206 0.055 7.34 10.22 9.57
5/20/2022 5:30:00 PM 15.66 60.188 0.055 7.25 9.52 9.54
5/20/2022 5:45:00 PM 15.66 60.188 0.055 7.31 9.64 9.53
5/20/2022 6:00:00 PM 15.66 60.188 0.055 7.27 8.29 9.52
5/20/2022 6:15:00 PM 15.65 60.17 0.056 7.27 8.19 9.51
5/20/2022 6:30:00 PM 15.63 60.134 0.056 7.28 8.31 9.5
5/20/2022 6:45:00 PM 15.62 60.116 0.056 7.2 8.12 9.51
5/20/2022 7:00:00 PM 15.6 60.08 0.056 7.26 7.91 9.52
5/20/2022 7:15:00 PM 15.58 60.044 0.056 7.25 8.36 9.51
5/20/2022 7:30:00 PM 15.53 59.954 0.057 7.18 7.76 9.48
5/20/2022 7:45:00 PM 15.47 59.846 0.056 7.22 5.81 9.44
5/20/2022 8:00:00 PM 15.41 59.738 0.056 7.07 6.82 9.41
5/20/2022 8:15:00 PM 15.35 59.63 0.056 7.17 8.02 9.38
5/20/2022 8:30:00 PM 15.28 59.504 0.056 7.1 7.64 9.34
5/20/2022 8:45:00 PM 15.22 59.396 0.056 7.11 8.13 9.31
5/20/2022 9:00:00 PM 15.15 59.27 0.056 7.08 8.26 9.29
5/20/2022 9:15:00 PM 15.08 59.144 0.056 7.08 7.38 9.28
5/20/2022 9:30:00 PM 15.01 59.018 0.057 7.01 8.54 9.27
5/20/2022 9:45:00 PM 14.95 58.91 0.057 7.06 7.73 9.26
5/20/2022 10:00:00 PM 14.88 58.784 0.057 7.05 8.41 9.27
5/20/2022 10:15:00 PM 14.82 58.676 0.057 7.03 8.44 9.27
5/20/2022 10:30:00 PM 14.77 58.586 0.057 6.9 7.79 9.28
5/20/2022 10:45:00 PM 14.71 58.478 0.057 6.98 9.2 9.3
5/20/2022 11:00:00 PM 14.65 58.37 0.057 6.98 9.64 9.31
5/20/2022 11:15:00 PM 14.6 58.28 0.057 7 8.69 9.32
5/20/2022 11:30:00 PM 14.54 58.172 0.057 6.99 9.43 9.33
5/20/2022 11:45:00 PM 14.48 58.064 0.057 6.94 8.02 9.35
5/21/2022 12:00:00 AM 14.42 57.956 0.057 6.99 7.93 9.36
5/21/2022 12:15:00 AM 14.37 57.866 0.057 6.95 7.93 9.38
5/21/2022 12:30:00 AM 14.32 57.776 0.058 6.99 8.47 9.39
5/21/2022 12:45:00 AM 14.27 57.686 0.058 7 7.81 9.41
5/21/2022 1:00:00 AM 14.22 57.596 0.058 7 7.02 9.42
5/21/2022 1:15:00 AM 14.18 57.524 0.058 6.98 7.08 9.43
5/21/2022 1:30:00 AM 14.14 57.452 0.058 6.91 8.19 9.44
5/21/2022 1:45:00 AM 14.1 57.38 0.058 6.97 8.24 9.45
5/21/2022 2:00:00 AM 14.07 57.326 0.058 6.96 8.66 9.47
5/21/2022 2:15:00 AM 14.03 57.254 0.058 6.98 7.97 9.48
5/21/2022 2:30:00 AM 14 57.2 0.058 6.94 7.66 9.49
5/21/2022 2:45:00 AM 13.97 57.146 0.058 6.99 8.15 9.5
5/21/2022 3:00:00 AM 13.94 57.092 0.058 7.01 8.79 9.51
5/21/2022 3:15:00 AM 13.91 57.038 0.058 6.94 8.82 9.52
5/21/2022 3:30:00 AM 13.87 56.966 0.058 7.01 7.83 9.52
5/21/2022 3:45:00 AM 13.84 56.912 0.058 7.01 9 9.53
5/21/2022 4:00:00 AM 13.81 56.858 0.058 6.95 8.42 9.54
5/21/2022 4:15:00 AM 13.78 56.804 0.058 6.99 8.27 9.55
5/21/2022 4:30:00 AM 13.76 56.768 0.058 6.94 8.2 9.55
5/21/2022 4:45:00 AM 13.73 56.714 0.058 6.97 8.5 9.56
5/21/2022 5:00:00 AM 13.71 56.678 0.058 6.96 8.25 9.57
5/21/2022 5:15:00 AM 13.68 56.624 0.058 6.98 7.93 9.58
5/21/2022 5:30:00 AM 13.65 56.57 0.058 6.99 7.95 9.59
5/21/2022 5:45:00 AM 13.63 56.534 0.058 6.99 9.56 9.59
5/21/2022 6:00:00 AM 13.6 56.48 0.058 6.99 5.75 9.61
5/21/2022 6:15:00 AM 13.58 56.444 0.058 7 5.97 9.63
5/21/2022 6:30:00 AM 13.56 56.408 0.058 6.96 5.51 9.65
5/21/2022 6:45:00 AM 13.55 56.39 0.058 7.01 6.28 9.7
5/21/2022 7:00:00 AM 13.54 56.372 0.058 7.04 5.73 9.75
5/21/2022 7:15:00 AM 13.54 56.372 0.058 7.05 5.62 9.8
5/21/2022 7:30:00 AM 13.55 56.39 0.058 7.06 6.29 9.87
5/21/2022 7:45:00 AM 13.57 56.426 0.058 7.11 5.86 9.93
5/21/2022 8:00:00 AM 13.6 56.48 0.058 7.15 5.2 9.99
5/21/2022 8:15:00 AM 13.64 56.552 0.058 7.18 5.26 10.04
5/21/2022 8:30:00 AM 13.73 56.714 0.058 7.16 5.35 10.08
5/21/2022 8:45:00 AM 13.82 56.876 0.058 7.23 5.06 10.1
5/21/2022 9:00:00 AM 13.93 57.074 0.058 7.22 4.99 10.12
5/21/2022 9:15:00 AM 14.06 57.308 0.058 7.3 5.01 10.14
5/21/2022 9:30:00 AM 14.23 57.614 0.058 7.34 5.34 10.14
5/21/2022 9:45:00 AM 14.4 57.92 0.057 7.35 4.79 10.15
5/21/2022 10:00:00 AM 14.59 58.262 0.057 7.37 5.11 10.14
5/21/2022 10:15:00 AM 14.83 58.694 0.057 7.43 4.72 10.13
5/21/2022 10:30:00 AM 15.05 59.09 0.057 7.45 4.73 10.11
5/21/2022 10:45:00 AM 15.33 59.594 0.057 7.48 5.87 10.09
5/21/2022 11:00:00 AM 15.65 60.17 0.057 7.52 4.98 10.06
5/21/2022 11:15:00 AM 15.97 60.746 0.058 7.51 4.83 10.02
5/21/2022 11:30:00 AM 16.1 60.98 0.058 7.52 4.99 9.96
5/21/2022 11:45:00 AM 16.32 61.376 0.058 7.49 5.18 9.92
5/21/2022 12:00:00 PM 16.64 61.952 0.058 7.55 4.71 9.88
5/21/2022 12:15:00 PM 17.07 62.726 0.058 7.58 4.73 9.84
5/21/2022 12:30:00 PM 17.4 63.32 0.058 7.56 4.49 9.79
5/21/2022 12:45:00 PM 17.85 64.13 0.057 7.59 4.64 9.74
5/21/2022 1:00:00 PM 18.27 64.886 0.057 7.61 4.54 9.68
5/21/2022 1:15:00 PM 18.59 65.462 0.057 7.56 4.59 9.61
5/21/2022 1:30:00 PM 18.75 65.75 0.057 7.56 4.72 9.55
5/21/2022 1:45:00 PM 19.11 66.398 0.056 7.58 4.76 9.51
5/21/2022 2:00:00 PM 19.33 66.794 0.056 7.59 4.75 9.44
5/21/2022 2:15:00 PM 19.57 67.226 0.056 7.61 4.67 9.39
5/21/2022 2:30:00 PM 19.9 67.82 0.056 7.56 4.67 9.34
5/21/2022 2:45:00 PM 20.04 68.07201 0.056 7.57 4.74 9.27
5/21/2022 3:00:00 PM 20.23 68.414 0.056 7.56 4.78 9.21
5/21/2022 3:15:00 PM 20.5 68.9 0.056 7.56 4.77 9.17
5/21/2022 3:30:00 PM 20.64 69.152 0.056 7.49 5.34 9.12
5/21/2022 3:45:00 PM 20.82 69.476 0.056 7.52 5.23 9.08
5/21/2022 4:00:00 PM 20.9 69.62 0.056 7.51 5.11 9.03
5/21/2022 4:15:00 PM 20.93 69.674 0.056 7.44 5.52 8.99
5/21/2022 4:30:00 PM 20.9 69.62 0.056 7.45 4.72 8.93
5/21/2022 4:45:00 PM 20.9 69.62 0.056 7.45 4.99 8.9
5/21/2022 5:00:00 PM 20.94 69.692 0.056 7.46 5.51 8.88
5/21/2022 5:15:00 PM 20.99 69.782 0.056 7.45 5.19 8.86
5/21/2022 5:30:00 PM 20.97 69.746 0.056 7.42 5.03 8.8
5/21/2022 5:45:00 PM 20.97 69.746 0.056 7.42 4.9 8.75
5/21/2022 6:00:00 PM 20.91 69.638 0.056 7.36 4.8 8.71
5/21/2022 6:15:00 PM 20.86 69.548 0.056 7.4 5.33 8.7
5/21/2022 6:30:00 PM 20.83 69.494 0.056 7.38 5.1 8.67
5/21/2022 6:45:00 PM 20.79 69.422 0.056 7.35 5.24 8.62
5/21/2022 7:00:00 PM 20.72 69.296 0.056 7.29 5.31 8.55
5/21/2022 7:15:00 PM 20.63 69.134 0.056 7.28 4.78 8.49
5/21/2022 7:30:00 PM 20.52 68.936 0.056 7.25 5.48 8.45
5/21/2022 7:45:00 PM 20.41 68.738 0.057 7.24 5.73 8.42
5/21/2022 8:00:00 PM 20.31 68.558 0.057 7.21 6.31 8.39
5/21/2022 8:15:00 PM 20.2 68.36 0.057 7.15 5.65 8.36
5/21/2022 8:30:00 PM 20.08 68.144 0.057 7.15 5.68 8.32
5/21/2022 8:45:00 PM 19.96 67.92799 0.057 7.15 5.13 8.29
5/21/2022 9:00:00 PM 19.84 67.712 0.057 7.13 5.18 8.28
5/21/2022 9:15:00 PM 19.72 67.496 0.058 7.11 16.88 8.27
5/21/2022 9:30:00 PM 19.6 67.28 0.058 7.1 9.59 8.28
5/21/2022 9:45:00 PM 19.48 67.064 0.058 7.09 9.09 8.29
5/21/2022 10:00:00 PM 19.37 66.866 0.058 7.07 8.38 8.31
5/21/2022 10:15:00 PM 19.25 66.65 0.058 7.07 13.03 8.32
5/21/2022 10:30:00 PM 19.12 66.416 0.058 7.02 15.01 8.33
5/21/2022 10:45:00 PM 18.99 66.182 0.058 7.1 12.03 8.36
5/21/2022 11:00:00 PM 18.86 65.948 0.059 7.1 11.86 8.38
5/21/2022 11:15:00 PM 18.75 65.75 0.058 7.09 7.16 8.4
5/21/2022 11:30:00 PM 18.63 65.534 0.059 7.09 8.04 8.43
5/21/2022 11:45:00 PM 18.51 65.318 0.059 7.03 7.66 8.46
5/22/2022 12:00:00 AM 18.39 65.102 0.059 7.08 7.02 8.48
5/22/2022 12:15:00 AM 18.26 64.868 0.059 7.07 8.26 8.51
5/22/2022 12:30:00 AM 18.13 64.634 0.059 7.05 8.89 8.53
5/22/2022 12:45:00 AM 18.01 64.418 0.059 7.08 8.81 8.56
5/22/2022 1:00:00 AM 17.88 64.184 0.059 7.01 7.81 8.58
5/22/2022 1:15:00 AM 17.76 63.968 0.059 7.06 7.72 8.61
5/22/2022 1:30:00 AM 17.64 63.752 0.059 7.08 8.74 8.64
5/22/2022 1:45:00 AM 17.51 63.518 0.059 7.07 7.32 8.66
5/22/2022 2:00:00 AM 17.39 63.302 0.059 7.08 6.3 8.69
5/22/2022 2:15:00 AM 17.27 63.086 0.059 7.08 6.91 8.72
5/22/2022 2:30:00 AM 17.16 62.888 0.059 7.01 7.43 8.75
5/22/2022 2:45:00 AM 17.05 62.69 0.059 7.06 7.58 8.77
5/22/2022 3:00:00 AM 16.94 62.492 0.059 7.01 7.61 8.8
5/22/2022 3:15:00 AM 16.82 62.276 0.059 7.04 6.98 8.82
5/22/2022 3:30:00 AM 16.7 62.06 0.059 7.03 5.75 8.84
5/22/2022 3:45:00 AM 16.59 61.862 0.059 7.06 6.73 8.87
5/22/2022 4:00:00 AM 16.48 61.664 0.059 7.04 7.87 8.89
5/22/2022 4:15:00 AM 16.38 61.484 0.059 7.06 8.03 8.91
5/22/2022 4:30:00 AM 16.27 61.286 0.059 7.06 6.23 8.94
5/22/2022 4:45:00 AM 16.17 61.106 0.059 7.02 5.43 8.97
5/22/2022 5:00:00 AM 16.06 60.908 0.06 7.07 7.27 9
5/22/2022 5:15:00 AM 15.96 60.728 0.06 7.03 7.03 9.02
5/22/2022 5:30:00 AM 15.86 60.548 0.06 7.03 5.42 9.04
5/22/2022 5:45:00 AM 15.78 60.404 0.06 7.07 7.32 9.06
5/22/2022 6:00:00 AM 15.71 60.278 0.059 7.06 6.12 9.08
5/22/2022 6:15:00 AM 15.64 60.152 0.059 7.07 6.97 9.12
5/22/2022 6:30:00 AM 15.58 60.044 0.059 7.01 5.67 9.17
5/22/2022 6:45:00 AM 15.54 59.972 0.059 7.09 5.35 9.23
5/22/2022 7:00:00 AM 15.51 59.918 0.059 7.12 5.34 9.31
5/22/2022 7:15:00 AM 15.49 59.882 0.059 7.13 5.31 9.37
5/22/2022 7:30:00 AM 15.5 59.9 0.059 7.18 5.34 9.45
5/22/2022 7:45:00 AM 15.53 59.954 0.059 7.2 5.32 9.53
5/22/2022 8:00:00 AM 15.46 59.828 0.059 7.2 5.25 9.55
5/22/2022 8:15:00 AM 15.46 59.828 0.059 7.23 6.06 9.6
5/22/2022 8:30:00 AM 15.52 59.936 0.059 7.25 5.28 9.64
5/22/2022 8:45:00 AM 15.57 60.026 0.059 7.28 5.21 9.69
5/22/2022 9:00:00 AM 15.67 60.206 0.059 7.24 5.77 9.71
5/22/2022 9:15:00 AM 15.75 60.35 0.059 7.35 6.41 9.74
5/22/2022 9:30:00 AM 15.79 60.422 0.059 7.4 6.03 9.76
5/22/2022 9:45:00 AM 15.89 60.602 0.058 7.38 6.19 9.79
5/22/2022 10:00:00 AM 16.14 61.052 0.058 7.5 5.05 9.82
5/22/2022 10:15:00 AM 16.36 61.448 0.058 7.5 5.14 9.82
5/22/2022 10:30:00 AM 16.5 61.7 0.058 7.47 5.82 9.8
5/22/2022 10:45:00 AM 16.74 62.132 0.058 7.54 4.67 9.79
5/22/2022 11:00:00 AM 16.94 62.492 0.058 7.58 4.62 9.78
5/22/2022 11:15:00 AM 17.13 62.834 0.058 7.59 4.97 9.76
5/22/2022 11:30:00 AM 17.39 63.302 0.058 7.61 5.32 9.73
5/22/2022 11:45:00 AM 17.59 63.662 0.058 7.58 5.01 9.7
5/22/2022 12:00:00 PM 17.69 63.842 0.058 7.58 5.54 9.66
5/22/2022 12:15:00 PM 17.77 63.986 0.057 7.52 6.11 9.61
5/22/2022 12:30:00 PM 18.16 64.688 0.057 7.66 5.78 9.59
5/22/2022 12:45:00 PM 18.49 65.282 0.057 7.61 5.2 9.56
5/22/2022 1:00:00 PM 18.65 65.57 0.057 7.65 6.43 9.52
5/22/2022 1:15:00 PM 18.95 66.11 0.057 7.6 5.41 9.47
5/22/2022 1:30:00 PM 19.02 66.236 0.057 7.61 5.65 9.44
5/22/2022 1:45:00 PM 19.18 66.524 0.057 7.62 5.57 9.41
5/22/2022 2:00:00 PM 19.24 66.632 0.057 7.63 5.46 9.38
5/22/2022 2:15:00 PM 19.6 67.28 0.057 7.6 5.57 9.36
5/22/2022 2:30:00 PM 19.81 67.658 0.057 7.63 5.67 9.32
5/22/2022 2:45:00 PM 19.72 67.496 0.057 7.56 5.95 9.25
5/22/2022 3:00:00 PM 19.76 67.568 0.057 7.59 5.45 9.21
5/22/2022 3:15:00 PM 19.84 67.712 0.057 7.61 5.45 9.19
5/22/2022 3:30:00 PM 19.94 67.892 0.057 7.52 5.06 9.17
5/22/2022 3:45:00 PM 19.87 67.766 0.057 7.47 5.87 9.04
5/22/2022 4:00:00 PM 19.77 67.586 0.056 7.42 6.8 8.94
5/22/2022 4:15:00 PM 19.75 67.55 0.056 7.41 5.83 8.94
5/22/2022 4:30:00 PM 19.67 67.406 0.057 7.4 6.28 8.91
5/22/2022 4:45:00 PM 19.57 67.226 0.057 7.37 5.76 8.87
5/22/2022 5:00:00 PM 19.5 67.1 0.057 7.34 5.72 8.84
5/22/2022 5:15:00 PM 19.43 66.974 0.057 7.38 5.49 8.86
5/22/2022 5:30:00 PM 19.38 66.884 0.057 7.36 5.64 8.89
5/22/2022 5:45:00 PM 19.3 66.74 0.057 7.35 5.62 8.88
5/22/2022 6:00:00 PM 19.21 66.578 0.057 7.33 5.61 8.84
5/22/2022 6:15:00 PM 19.12 66.416 0.057 7.25 6.03 8.83
5/22/2022 6:30:00 PM 19.02 66.236 0.057 7.29 5.13 8.81
5/22/2022 6:45:00 PM 18.92 66.056 0.057 7.25 5.64 8.81
5/22/2022 7:00:00 PM 18.83 65.894 0.057 7.27 5.73 8.79
5/22/2022 7:15:00 PM 18.74 65.732 0.057 7.28 5.45 8.81
5/22/2022 7:30:00 PM 18.63 65.534 0.057 7.26 5.54 8.83
5/22/2022 7:45:00 PM 18.51 65.318 0.058 7.25 6.29 8.81
5/22/2022 8:00:00 PM 18.39 65.102 0.058 7.24 6 8.79
5/22/2022 8:15:00 PM 18.28 64.904 0.058 7.2 5.5 8.77
5/22/2022 8:30:00 PM 18.16 64.688 0.058 7.2 7.1 8.73
5/22/2022 8:45:00 PM 18.02 64.436 0.058 7.13 7.02 8.72
5/22/2022 9:00:00 PM 17.9 64.22 0.058 7.16 6.16 8.7
5/22/2022 9:15:00 PM 17.77 63.986 0.058 7.16 6.21 8.7
5/22/2022 9:30:00 PM 17.64 63.752 0.058 7.15 5.94 8.71
5/22/2022 9:45:00 PM 17.51 63.518 0.059 7.15 6.04 8.72
5/22/2022 10:00:00 PM 17.39 63.302 0.059 7.09 6.24 8.74
5/22/2022 10:15:00 PM 17.25 63.05 0.059 7.13 6.23 8.76
5/22/2022 10:30:00 PM 17.11 62.798 0.059 7.13 6.13 8.78
5/22/2022 10:45:00 PM 16.96 62.528 0.059 7.07 6.23 8.81
5/22/2022 11:00:00 PM 16.82 62.276 0.059 7.12 6.51 8.84
5/22/2022 11:15:00 PM 16.67 62.006 0.059 7.13 6.55 8.88
5/22/2022 11:30:00 PM 16.51 61.718 0.059 7.12 6.67 8.91
5/22/2022 11:45:00 PM 16.37 61.466 0.059 7.12 7.07 8.93
5/23/2022 12:00:00 AM 16.21 61.178 0.059 7.12 6.79 8.97
5/23/2022 12:15:00 AM 16.06 60.908 0.059 7.12 7.57 9
5/23/2022 12:30:00 AM 15.91 60.638 0.059 7.08 7.89 9.05
5/23/2022 12:45:00 AM 15.77 60.386 0.059 7.12 6.98 9.08
5/23/2022 1:00:00 AM 15.63 60.134 0.059 7.13 7.95 9.11
5/23/2022 1:15:00 AM 15.5 59.9 0.059 7.12 8.14 9.14
5/23/2022 1:30:00 AM 15.38 59.684 0.059 7.08 8.41 9.18
5/23/2022 1:45:00 AM 15.26 59.468 0.059 7.13 6.66 9.21
5/23/2022 2:00:00 AM 15.13 59.234 0.059 7.11 7.26 9.24
5/23/2022 2:15:00 AM 15.02 59.036 0.059 7.13 11.55 9.27
5/23/2022 2:30:00 AM 14.9 58.82 0.059 7.13 7.54 9.3
5/23/2022 2:45:00 AM 14.78 58.604 0.059 7.06 8.17 9.33
5/23/2022 3:00:00 AM 14.66 58.388 0.059 7.08 7.18 9.36
5/23/2022 3:15:00 AM 14.54 58.172 0.059 7.12 6.94 9.39
5/23/2022 3:30:00 AM 14.43 57.974 0.059 7.12 6.84 9.42
5/23/2022 3:45:00 AM 14.33 57.794 0.059 7.12 7.11 9.44
5/23/2022 4:00:00 AM 14.23 57.614 0.059 7.06 8.08 9.47
5/23/2022 4:15:00 AM 14.13 57.434 0.059 7.11 7.73 9.49
5/23/2022 4:30:00 AM 14.04 57.272 0.059 7.05 7.78 9.52
5/23/2022 4:45:00 AM 14 57.2 0.059 7.1 8.11 9.52
5/23/2022 5:00:00 AM 13.89 57.002 0.059 7.11 7.91 9.55
5/23/2022 5:15:00 AM 13.79 56.822 0.059 7.13 8.11 9.57
5/23/2022 5:30:00 AM 13.69 56.642 0.059 7.11 7.85 9.59
5/23/2022 5:45:00 AM 13.59 56.462 0.059 7.12 7.99 9.62
5/23/2022 6:00:00 AM 13.5 56.3 0.059 7.1 7.42 9.65
5/23/2022 6:15:00 AM 13.42 56.156 0.059 7.13 8.49 9.68
5/23/2022 6:30:00 AM 13.35 56.03 0.059 7.09 8.5 9.74
5/23/2022 6:45:00 AM 13.28 55.904 0.059 7.12 8.15 9.81
5/23/2022 7:00:00 AM 13.23 55.814 0.059 7.14 8.61 9.88
5/23/2022 7:15:00 AM 13.21 55.778 0.059 7.19 8.25 9.97
5/23/2022 7:30:00 AM 13.12 55.616 0.059 7.14 8.67 10.01
5/23/2022 7:45:00 AM 13.07 55.526 0.059 7.19 8.21 10.06
5/23/2022 8:00:00 AM 13.02 55.436 0.059 7.22 7.72 10.11
5/23/2022 8:15:00 AM 13.14 55.652 0.059 7.29 7.81 10.19
5/23/2022 8:30:00 AM 13.23 55.814 0.059 7.35 8.14 10.25
5/23/2022 8:45:00 AM 13.28 55.904 0.059 7.36 8.13 10.3
5/23/2022 9:00:00 AM 13.32 55.976 0.059 7.35 7.67 10.34
5/23/2022 9:15:00 AM 13.37 56.066 0.058 7.43 7.91 10.37
5/23/2022 9:30:00 AM 13.45 56.21 0.058 7.41 8.57 10.39
5/23/2022 9:45:00 AM 13.58 56.444 0.058 7.51 8.33 10.39
5/23/2022 10:00:00 AM 13.7 56.66 0.058 7.5 7.74 10.39
5/23/2022 10:15:00 AM 13.92 57.056 0.058 7.54 8.64 10.39
5/23/2022 10:30:00 AM 14.09 57.362 0.058 7.59 8.7 10.4
5/23/2022 10:45:00 AM 14.23 57.614 0.058 7.6 10.05 10.4
5/23/2022 11:00:00 AM 14.34 57.812 0.058 7.62 8.26 10.39
5/23/2022 11:15:00 AM 14.47 58.046 0.058 7.67 8.11 10.39
5/23/2022 11:30:00 AM 14.53 58.154 0.058 7.67 8.36 10.37
5/23/2022 11:45:00 AM 14.67 58.406 0.057 7.7 8.84 10.36
5/23/2022 12:00:00 PM 14.8 58.64 0.057 7.7 7.95 10.34
5/23/2022 12:15:00 PM 14.89 58.802 0.057 7.68 8.02 10.33
5/23/2022 12:30:00 PM 15.01 59.018 0.057 7.69 8 10.31
5/23/2022 12:45:00 PM 15.13 59.234 0.057 7.72 8.18 10.29
5/23/2022 1:00:00 PM 15.34 59.612 0.057 7.73 7.42 10.27
5/23/2022 1:15:00 PM 15.44 59.792 0.057 7.7 7.69 10.25
5/23/2022 1:30:00 PM 15.52 59.936 0.057 7.69 8.17 10.22
5/23/2022 1:45:00 PM 15.66 60.188 0.057 7.7 8.69 10.2
5/23/2022 2:00:00 PM 15.74 60.332 0.057 7.69 8.67 10.18
5/23/2022 2:15:00 PM 15.84 60.512 0.057 7.71 8.98 10.14
5/23/2022 2:30:00 PM 15.96 60.728 0.057 7.7 8.61 10.12
5/23/2022 2:45:00 PM 16.09 60.962 0.057 7.64 8.32 10.08
5/23/2022 3:00:00 PM 16.16 61.088 0.057 7.71 9.47 10.05
5/23/2022 3:15:00 PM 16.22 61.196 0.057 7.68 9.8 10.03
5/23/2022 3:30:00 PM 16.26 61.268 0.057 7.7 9 10
5/23/2022 3:45:00 PM 16.27 61.286 0.056 7.68 8.28 9.98
5/23/2022 4:00:00 PM 16.27 61.286 0.056 7.63 8.39 9.95
5/23/2022 4:15:00 PM 16.28 61.304 0.056 7.66 7.89 9.93
5/23/2022 4:30:00 PM 16.3 61.34 0.056 7.66 8.14 9.91
5/23/2022 4:45:00 PM 16.31 61.358 0.056 7.62 7.88 9.88
5/23/2022 5:00:00 PM 16.33 61.394 0.056 7.65 7.53 9.86
5/23/2022 5:15:00 PM 16.34 61.412 0.056 7.62 7.76 9.84
5/23/2022 5:30:00 PM 16.35 61.43 0.056 7.62 7.8 9.82
5/23/2022 5:45:00 PM 16.34 61.412 0.056 7.59 7.6 9.79
5/23/2022 6:00:00 PM 16.31 61.358 0.056 7.56 7.47 9.76
5/23/2022 6:15:00 PM 16.29 61.322 0.056 7.53 7.52 9.73
5/23/2022 6:30:00 PM 16.25 61.25 0.057 7.49 7.6 9.69
5/23/2022 6:45:00 PM 16.2 61.16 0.057 7.45 7.6 9.64
5/23/2022 7:00:00 PM 16.14 61.052 0.057 7.42 7.71 9.59
5/23/2022 7:15:00 PM 16.09 60.962 0.057 7.37 7.53 9.56
5/23/2022 7:30:00 PM 16.03 60.854 0.057 7.34 7.37 9.52
5/23/2022 7:45:00 PM 15.96 60.728 0.057 7.32 7.11 9.47
5/23/2022 8:00:00 PM 15.88 60.584 0.057 7.29 6.76 9.41
5/23/2022 8:15:00 PM 15.8 60.44 0.057 7.21 7.01 9.37
5/23/2022 8:30:00 PM 15.71 60.278 0.057 7.24 7.3 9.33
5/23/2022 8:45:00 PM 15.62 60.116 0.058 7.22 7.28 9.29
5/23/2022 9:00:00 PM 15.53 59.954 0.057 7.2 8.39 9.26
5/23/2022 9:15:00 PM 15.43 59.774 0.058 7.18 7.63 9.25
5/23/2022 9:30:00 PM 15.33 59.594 0.058 7.16 14.86 9.25
5/23/2022 9:45:00 PM 15.24 59.432 0.058 7.12 9.41 9.25
5/23/2022 10:00:00 PM 15.14 59.252 0.058 7.16 68.68 9.25
5/23/2022 10:15:00 PM 15.04 59.072 0.058 7.16 166.42 9.27
5/23/2022 10:30:00 PM 14.95 58.91 0.058 7.07 8.33 9.28
5/23/2022 10:45:00 PM 14.85 58.73 0.059 7.11 8.74 9.3
5/23/2022 11:00:00 PM 14.76 58.568 0.059 7.13 7.8 9.32
5/23/2022 11:15:00 PM 14.66 58.388 0.059 7.06 8.75 9.33
5/23/2022 11:30:00 PM 14.56 58.208 0.059 7.12 8.82 9.35
5/23/2022 11:45:00 PM 14.46 58.028 0.059 7.11 8.91 9.38
5/24/2022 12:00:00 AM 14.37 57.866 0.059 7.1 8.67 9.4
5/24/2022 12:15:00 AM 14.27 57.686 0.059 7.07 8.9 9.43
5/24/2022 12:30:00 AM 14.17 57.506 0.059 7.1 8.23 9.45
5/24/2022 12:45:00 AM 14.07 57.326 0.06 7.1 7.87 9.47
5/24/2022 1:00:00 AM 13.98 57.164 0.06 7.1 8.31 9.5
5/24/2022 1:15:00 AM 13.87 56.966 0.06 7.09 8.05 9.52
5/24/2022 1:30:00 AM 13.77 56.786 0.06 7.03 7.84 9.55
5/24/2022 1:45:00 AM 13.66 56.588 0.06 7.08 7.95 9.57
5/24/2022 2:00:00 AM 13.56 56.408 0.06 7.09 8.54 9.59
5/24/2022 2:15:00 AM 13.45 56.21 0.06 7.02 9.51 9.62
5/24/2022 2:30:00 AM 13.34 56.012 0.06 7.08 8.91 9.64
5/24/2022 2:45:00 AM 13.24 55.832 0.06 7.03 8.62 9.66
5/24/2022 3:00:00 AM 13.15 55.67 0.06 7.09 8.2 9.7
5/24/2022 3:15:00 AM 13.04 55.472 0.06 7.09 8.39 9.72
5/24/2022 3:30:00 AM 12.94 55.292 0.06 7.06 8.04 9.75
5/24/2022 3:45:00 AM 12.83 55.094 0.06 7.05 8.14 9.78
5/24/2022 4:00:00 AM 12.73 54.914 0.06 7.08 7.47 9.8
5/24/2022 4:15:00 AM 12.63 54.734 0.06 7.03 8 9.83
5/24/2022 4:30:00 AM 12.52 54.536 0.06 7.07 14.19 9.85
5/24/2022 4:45:00 AM 12.42 54.356 0.06 7.07 13.14 9.88
5/24/2022 5:00:00 AM 12.34 54.212 0.06 7.08 12.4 9.9
5/24/2022 5:15:00 AM 12.26 54.068 0.06 7.08 13.08 9.93
5/24/2022 5:30:00 AM 12.19 53.942 0.06 7.1 12.98 9.95
5/24/2022 5:45:00 AM 12.1 53.78 0.06 7.07 12.73 9.97
5/24/2022 6:00:00 AM 12.01 53.618 0.06 7.1 12.83 10.01
5/24/2022 6:15:00 AM 11.93 53.474 0.06 7.05 12.78 10.05
5/24/2022 6:30:00 AM 11.85 53.33 0.06 7.09 12.74 10.11
5/24/2022 6:45:00 AM 11.77 53.186 0.06 7.13 12.77 10.16
5/24/2022 7:00:00 AM 11.7 53.06 0.06 7.11 12.69 10.22
5/24/2022 7:15:00 AM 11.68 53.024 0.06 7.15 12.8 10.3
5/24/2022 7:30:00 AM 11.64 52.952 0.06 7.16 12.89 10.36
5/24/2022 7:45:00 AM 11.66 52.988 0.06 7.18 12.57 10.42
5/24/2022 8:00:00 AM 11.67 53.006 0.06 7.18 12.2 10.48
5/24/2022 8:15:00 AM 11.67 53.006 0.059 7.23 12.83 10.53
5/24/2022 8:30:00 AM 11.67 53.006 0.059 7.24 13.45 10.57
5/24/2022 8:45:00 AM 11.69 53.042 0.059 7.27 13.42 10.61
5/24/2022 9:00:00 AM 11.72 53.096 0.059 7.3 13.73 10.66
5/24/2022 9:15:00 AM 11.79 53.222 0.059 7.33 13.97 10.69
5/24/2022 9:30:00 AM 11.87 53.366 0.059 7.34 13.66 10.72
5/24/2022 9:45:00 AM 11.94 53.492 0.059 7.38 15.04 10.74
5/24/2022 10:00:00 AM 12.02 53.636 0.059 7.39 13.19 10.75
5/24/2022 10:15:00 AM 12.08 53.744 0.059 7.39 13.79 10.76
5/24/2022 10:30:00 AM 12.17 53.906 0.058 7.43 13.51 10.75
5/24/2022 10:45:00 AM 12.31 54.158 0.058 7.55 10.93 10.77
5/24/2022 11:00:00 AM 12.5 54.5 0.058 7.6 11.2 10.78
5/24/2022 11:15:00 AM 12.65 54.77 0.058 7.55 10.77 10.77
5/24/2022 11:30:00 AM 12.8 55.04 0.058 7.63 10.5 10.76
5/24/2022 11:45:00 AM 12.94 55.292 0.058 7.59 10.44 10.75
5/24/2022 12:00:00 PM 13.11 55.598 0.058 7.65 10.49 10.73
5/24/2022 12:15:00 PM 13.29 55.922 0.058 7.67 10.62 10.71
5/24/2022 12:30:00 PM 13.46 56.228 0.058 7.67 10.53 10.68
5/24/2022 12:45:00 PM 13.55 56.39 0.058 7.63 10.9 10.64
5/24/2022 1:00:00 PM 13.58 56.444 0.058 7.53 10.77 10.61
5/24/2022 1:15:00 PM 13.62 56.516 0.058 7.6 11.15 10.57
5/24/2022 1:30:00 PM 13.66 56.588 0.058 7.53 11.48 10.54
5/24/2022 1:45:00 PM 13.68 56.624 0.058 7.51 11.19 10.49
5/24/2022 2:00:00 PM 13.71 56.678 0.057 7.5 10.58 10.45
5/24/2022 2:15:00 PM 13.74 56.732 0.058 7.46 10.58 10.41
5/24/2022 2:30:00 PM 13.76 56.768 0.057 7.49 10.06 10.38
5/24/2022 2:45:00 PM 13.78 56.804 0.057 7.49 11.23 10.35
5/24/2022 3:00:00 PM 13.82 56.876 0.057 7.5 11.16 10.33
5/24/2022 3:15:00 PM 13.85 56.93 0.057 7.5 11.78 10.32
5/24/2022 3:30:00 PM 13.88 56.984 0.057 7.44 11.86 10.31
5/24/2022 3:45:00 PM 13.92 57.056 0.057 7.48 11.11 10.3
5/24/2022 4:00:00 PM 13.97 57.146 0.057 7.49 11.24 10.31
5/24/2022 4:15:00 PM 14.04 57.272 0.057 7.5 11.23 10.31
5/24/2022 4:30:00 PM 14.14 57.452 0.057 7.56 11.26 10.32
5/24/2022 4:45:00 PM 14.18 57.524 0.057 7.54 11.1 10.31
5/24/2022 5:00:00 PM 14.2 57.56 0.057 7.47 10.51 10.28
5/24/2022 5:15:00 PM 14.18 57.524 0.057 7.45 11.18 10.23
5/24/2022 5:30:00 PM 14.16 57.488 0.057 7.42 11.16 10.16
5/24/2022 5:45:00 PM 14.14 57.452 0.057 7.41 11.12 10.12
5/24/2022 6:00:00 PM 14.14 57.452 0.057 7.35 10.75 10.1
5/24/2022 6:15:00 PM 14.12 57.416 0.057 7.33 10.92 10.04
5/24/2022 6:30:00 PM 14.11 57.398 0.058 7.32 9.64 9.98
5/24/2022 6:45:00 PM 14.08 57.344 0.058 7.29 9.67 9.93
5/24/2022 7:00:00 PM 14.06 57.308 0.058 7.27 9.67 9.88
5/24/2022 7:15:00 PM 14.04 57.272 0.058 7.25 10.17 9.83
5/24/2022 7:30:00 PM 14.02 57.236 0.058 7.19 10.01 9.8
5/24/2022 7:45:00 PM 13.99 57.182 0.058 7.22 10.16 9.77
5/24/2022 8:00:00 PM 13.97 57.146 0.058 7.16 9.93 9.74
5/24/2022 8:15:00 PM 13.94 57.092 0.058 7.18 9.81 9.72
5/24/2022 8:30:00 PM 13.91 57.038 0.058 7.18 8.08 9.69
5/24/2022 8:45:00 PM 13.88 56.984 0.058 7.15 9.94 9.67
5/24/2022 9:00:00 PM 13.85 56.93 0.058 7.15 10.03 9.65
5/24/2022 9:15:00 PM 13.82 56.876 0.059 7.1 10.08 9.64
5/24/2022 9:30:00 PM 13.79 56.822 0.059 7.13 9.95 9.63
5/24/2022 9:45:00 PM 13.76 56.768 0.059 7.13 10.46 9.63
5/24/2022 10:00:00 PM 13.73 56.714 0.059 7.08 10.43 9.63
5/24/2022 10:15:00 PM 13.7 56.66 0.059 7.13 10.24 9.63
5/24/2022 10:30:00 PM 13.67 56.606 0.059 7.13 10.3 9.63
5/24/2022 10:45:00 PM 13.64 56.552 0.059 7.11 10.07 9.64
5/24/2022 11:00:00 PM 13.61 56.498 0.059 7.09 10.19 9.64
5/24/2022 11:15:00 PM 13.58 56.444 0.059 7.11 10.31 9.64
5/24/2022 11:30:00 PM 13.56 56.408 0.059 7.13 10.06 9.66
5/24/2022 11:45:00 PM 13.53 56.354 0.059 7.09 9.94 9.66
5/25/2022 12:00:00 AM 13.51 56.318 0.059 7.14 10.38 9.67
5/25/2022 12:15:00 AM 13.48 56.264 0.059 7.14 10.29 9.67
5/25/2022 12:30:00 AM 13.46 56.228 0.059 7.08 10.49 9.68
5/25/2022 12:45:00 AM 13.43 56.174 0.06 7.14 10.66 9.68
5/25/2022 1:00:00 AM 13.41 56.138 0.06 7.14 10.09 9.7
5/25/2022 1:15:00 AM 13.38 56.084 0.06 7.06 10.36 9.7
5/25/2022 1:30:00 AM 13.35 56.03 0.06 7.13 10.25 9.71
5/25/2022 1:45:00 AM 13.32 55.976 0.06 7.13 10.34 9.72
5/25/2022 2:00:00 AM 13.3 55.94 0.06 7.13 10.26 9.72
5/25/2022 2:15:00 AM 13.27 55.886 0.06 7.13 10.11 9.73
5/25/2022 2:30:00 AM 13.24 55.832 0.06 7.1 10.51 9.74
5/25/2022 2:45:00 AM 13.21 55.778 0.06 7.13 10.31 9.74
5/25/2022 3:00:00 AM 13.18 55.724 0.06 7.13 10.35 9.75
5/25/2022 3:15:00 AM 13.15 55.67 0.06 7.13 10.05 9.76
5/25/2022 3:30:00 AM 13.12 55.616 0.06 7.13 10.74 9.77
5/25/2022 3:45:00 AM 13.1 55.58 0.06 7.13 10.47 9.78
5/25/2022 4:00:00 AM 13.07 55.526 0.061 7.13 10.98 9.78
5/25/2022 4:15:00 AM 13.03 55.454 0.061 7.13 10.6 9.79
5/25/2022 4:30:00 AM 12.99 55.382 0.061 7.07 10.18 9.8
5/25/2022 4:45:00 AM 12.94 55.292 0.06 7.13 10.38 9.81
5/25/2022 5:00:00 AM 12.89 55.202 0.061 7.11 10.28 9.82
5/25/2022 5:15:00 AM 12.86 55.148 0.06 7.13 10.51 9.82
5/25/2022 5:30:00 AM 12.83 55.094 0.061 7.15 10.46 9.84
5/25/2022 5:45:00 AM 12.8 55.04 0.06 7.15 10.44 9.84
5/25/2022 6:00:00 AM 12.78 55.004 0.06 7.08 10.57 9.86
5/25/2022 6:15:00 AM 12.74 54.932 0.06 7.15 10.47 9.9
5/25/2022 6:30:00 AM 12.71 54.878 0.06 7.16 10.49 9.94
5/25/2022 6:45:00 AM 12.68 54.824 0.06 7.15 10.39 9.99
5/25/2022 7:00:00 AM 12.66 54.788 0.06 7.19 10.38 10.06
5/25/2022 7:15:00 AM 12.66 54.788 0.06 7.21 10.29 10.13
5/25/2022 7:30:00 AM 12.69 54.842 0.06 7.24 9.54 10.19
5/25/2022 7:45:00 AM 12.74 54.932 0.06 7.19 9.97 10.26
5/25/2022 8:00:00 AM 12.83 55.094 0.06 7.3 9.63 10.32
5/25/2022 8:15:00 AM 12.85 55.13 0.06 7.33 9.8 10.37
5/25/2022 8:30:00 AM 12.92 55.256 0.06 7.3 9.77 10.4
5/25/2022 8:45:00 AM 12.97 55.346 0.06 7.34 8.96 10.42
5/25/2022 9:00:00 AM 13.11 55.598 0.059 7.43 8.9 10.45
5/25/2022 9:15:00 AM 13.3 55.94 0.059 7.49 8.88 10.48
5/25/2022 9:30:00 AM 13.36 56.048 0.059 7.49 9.28 10.49
5/25/2022 9:45:00 AM 13.56 56.408 0.059 7.52 9.32 10.49
5/25/2022 10:00:00 AM 13.53 56.354 0.059 7.49 10.06 10.49
5/25/2022 10:15:00 AM 13.53 56.354 0.059 7.48 9.63 10.48
5/25/2022 10:30:00 AM 13.53 56.354 0.059 7.54 9.92 10.49
5/25/2022 10:45:00 AM 13.71 56.678 0.059 7.58 9.62 10.49
5/25/2022 11:00:00 AM 13.75 56.75 0.059 7.57 9.72 10.48
5/25/2022 11:15:00 AM 13.83 56.894 0.059 7.54 9.75 10.48
5/25/2022 11:30:00 AM 14.06 57.308 0.058 7.63 9.36 10.48
5/25/2022 11:45:00 AM 14.39 57.902 0.058 7.69 9.67 10.48
5/25/2022 12:00:00 PM 14.58 58.244 0.058 7.66 8.87 10.46
5/25/2022 12:15:00 PM 14.77 58.586 0.058 7.7 5.89 10.44
5/25/2022 12:30:00 PM 14.94 58.892 0.058 7.73 4.85 10.41
5/25/2022 12:45:00 PM 15.23 59.414 0.058 7.77 4.86 10.39
5/25/2022 1:00:00 PM 15.51 59.918 0.058 7.72 4.67 10.35
5/25/2022 1:15:00 PM 15.86 60.548 0.058 7.73 4.76 10.31
5/25/2022 1:30:00 PM 16.33 61.394 0.058 7.75 4.67 10.25
5/25/2022 1:45:00 PM 16.68 62.024 0.058 7.76 4.65 10.18
5/25/2022 2:00:00 PM 17.03 62.654 0.058 7.76 4.45 10.11
5/25/2022 2:15:00 PM 17.29 63.122 0.058 7.68 4.43 10.04
5/25/2022 2:30:00 PM 17.56 63.608 0.058 7.69 4.43 9.97
5/25/2022 2:45:00 PM 17.87 64.166 0.058 7.68 4.53 9.9
5/25/2022 3:00:00 PM 18.11 64.598 0.058 7.64 4.41 9.82
5/25/2022 3:15:00 PM 18.33 64.994 0.057 7.58 4.51 9.75
5/25/2022 3:30:00 PM 18.48 65.264 0.058 7.55 4.57 9.68
5/25/2022 3:45:00 PM 18.61 65.498 0.058 7.56 4.59 9.64
5/25/2022 4:00:00 PM 18.72 65.696 0.057 7.56 4.39 9.58
5/25/2022 4:15:00 PM 18.8 65.84 0.058 7.53 4.41 9.53
5/25/2022 4:30:00 PM 18.9 66.02 0.057 7.6 4.43 9.5
5/25/2022 4:45:00 PM 18.87 65.966 0.057 7.58 4.42 9.46
5/25/2022 5:00:00 PM 18.95 66.11 0.058 7.55 4.33 9.42
5/25/2022 5:15:00 PM 18.91 66.038 0.058 7.54 4.54 9.38
5/25/2022 5:30:00 PM 18.84 65.912 0.058 7.54 4.61 9.34
5/25/2022 5:45:00 PM 18.81 65.858 0.058 7.49 5.39 9.32
5/25/2022 6:00:00 PM 18.7 65.66 0.058 7.52 6.1 9.29
5/25/2022 6:15:00 PM 18.63 65.534 0.058 7.47 4.84 9.26
5/25/2022 6:30:00 PM 18.51 65.318 0.058 7.45 5.43 9.23
5/25/2022 6:45:00 PM 18.41 65.138 0.058 7.43 5.36 9.18
5/25/2022 7:00:00 PM 18.33 64.994 0.058 7.37 5.32 9.12
5/25/2022 7:15:00 PM 18.21 64.778 0.058 7.36 5.09 9.06
5/25/2022 7:30:00 PM 18.12 64.616 0.058 7.32 5.47 9.02
5/25/2022 7:45:00 PM 18.03 64.454 0.058 7.32 5.35 8.97
5/25/2022 8:00:00 PM 17.94 64.292 0.058 7.3 5.12 8.92
5/25/2022 8:15:00 PM 17.85 64.13 0.058 7.28 4.51 8.88
5/25/2022 8:30:00 PM 17.77 63.986 0.058 7.26 4.12 8.84
5/25/2022 8:45:00 PM 17.69 63.842 0.059 7.21 4.3 8.79
5/25/2022 9:00:00 PM 17.6 63.68 0.059 7.19 4.52 8.75
5/25/2022 9:15:00 PM 17.51 63.518 0.059 7.15 4.7 8.74
5/25/2022 9:30:00 PM 17.43 63.374 0.059 7.18 4.57 8.74
5/25/2022 9:45:00 PM 17.35 63.23 0.059 7.16 4.44 8.72
5/25/2022 10:00:00 PM 17.25 63.05 0.059 7.16 4.43 8.73
5/25/2022 10:15:00 PM 17.16 62.888 0.059 7.14 4.46 8.74
5/25/2022 10:30:00 PM 17.07 62.726 0.06 7.11 4.54 8.75
5/25/2022 10:45:00 PM 16.98 62.564 0.06 7.14 4.48 8.76
5/25/2022 11:00:00 PM 16.88 62.384 0.06 7.09 4.5 8.77
5/25/2022 11:15:00 PM 16.78 62.204 0.06 7.12 4.5 8.8
5/25/2022 11:30:00 PM 16.69 62.042 0.06 7.11 4.4 8.81
5/25/2022 11:45:00 PM 16.6 61.88 0.06 7.11 5.75 8.83
5/26/2022 12:00:00 AM 16.51 61.718 0.06 7.13 5.77 8.85
5/26/2022 12:15:00 AM 16.42 61.556 0.06 7.13 5.6 8.86
5/26/2022 12:30:00 AM 16.34 61.412 0.06 7.11 4.86 8.88
5/26/2022 12:45:00 AM 16.26 61.268 0.061 7.13 4.68 8.9
5/26/2022 1:00:00 AM 16.17 61.106 0.061 7.13 5.38 8.92
5/26/2022 1:15:00 AM 16.09 60.962 0.061 7.13 5.23 8.94
5/26/2022 1:30:00 AM 15.99 60.782 0.061 7.08 4.97 8.96
5/26/2022 1:45:00 AM 15.9 60.62 0.061 7.12 4.84 8.99
5/26/2022 2:00:00 AM 15.81 60.458 0.061 7.13 4.99 9.01
5/26/2022 2:15:00 AM 15.71 60.278 0.061 7.12 4.84 9.03
5/26/2022 2:30:00 AM 15.62 60.116 0.061 7.08 4.54 9.05
5/26/2022 2:45:00 AM 15.53 59.954 0.061 7.13 4.9 9.08
5/26/2022 3:00:00 AM 15.43 59.774 0.061 7.08 5.17 9.1
5/26/2022 3:15:00 AM 15.34 59.612 0.061 7.1 5.29 9.12
5/26/2022 3:30:00 AM 15.24 59.432 0.061 7.13 5.18 9.15
5/26/2022 3:45:00 AM 15.14 59.252 0.061 7.13 5.04 9.17
5/26/2022 4:00:00 AM 15.05 59.09 0.061 7.12 4.67 9.19
5/26/2022 4:15:00 AM 14.97 58.946 0.061 7.13 4.92 9.21
5/26/2022 4:30:00 AM 14.87 58.766 0.061 7.13 5.33 9.23
5/26/2022 4:45:00 AM 14.79 58.622 0.061 7.13 5.4 9.26
5/26/2022 5:00:00 AM 14.7 58.46 0.061 7.12 7.41 9.27
5/26/2022 5:15:00 AM 14.61 58.298 0.061 7.12 4.16 9.29
5/26/2022 5:30:00 AM 14.53 58.154 0.061 7.07 5.54 9.32
5/26/2022 5:45:00 AM 14.45 58.01 0.061 7.12 4.7 9.35
5/26/2022 6:00:00 AM 14.37 57.866 0.061 7.15 3.81 9.37
5/26/2022 6:15:00 AM 14.31 57.758 0.061 7.16 3.92 9.42
5/26/2022 6:30:00 AM 14.24 57.632 0.061 7.17 3.96 9.48
5/26/2022 6:45:00 AM 14.19 57.542 0.061 7.18 6.24 9.55
5/26/2022 7:00:00 AM 14.15 57.47 0.061 7.2 3.84 9.61
5/26/2022 7:15:00 AM 14.13 57.434 0.061 7.21 3.66 9.69
5/26/2022 7:30:00 AM 14.1 57.38 0.061 7.21 3.78 9.75
5/26/2022 7:45:00 AM 14.12 57.416 0.061 7.24 3.71 9.81
5/26/2022 8:00:00 AM 14.14 57.452 0.061 7.28 4.76 9.87
5/26/2022 8:15:00 AM 14.2 57.56 0.061 7.29 5.19 9.92
5/26/2022 8:30:00 AM 14.26 57.668 0.061 7.3 4.91 9.99
5/26/2022 8:45:00 AM 14.33 57.794 0.06 7.42 3.81 10.04
5/26/2022 9:00:00 AM 14.44 57.992 0.06 7.48 4.69 10.09
5/26/2022 9:15:00 AM 14.47 58.046 0.06 7.5 4.27 10.12
5/26/2022 9:30:00 AM 14.57 58.226 0.06 7.56 4.56 10.15
5/26/2022 9:45:00 AM 14.72 58.496 0.06 7.62 3.86 10.17
5/26/2022 10:00:00 AM 14.9 58.82 0.06 7.59 4.54 10.18
5/26/2022 10:15:00 AM 15.07 59.126 0.06 7.67 4.95 10.18
5/26/2022 10:30:00 AM 15.2 59.36 0.06 7.7 4.53 10.18
5/26/2022 10:45:00 AM 15.45 59.81 0.059 7.77 3.61 10.17
5/26/2022 11:00:00 AM 15.77 60.386 0.059 7.79 3.69 10.13
5/26/2022 11:15:00 AM 16.02 60.836 0.059 7.76 3.45 10.14
5/26/2022 11:30:00 AM 16.35 61.43 0.059 7.83 3.71 10.11
5/26/2022 11:45:00 AM 16.71 62.078 0.059 7.83 3.62 10.06
5/26/2022 12:00:00 PM 17.02 62.636 0.059 7.84 3.39 10.03
5/26/2022 12:15:00 PM 17.34 63.212 0.059 7.82 3.36 9.97
5/26/2022 12:30:00 PM 17.65 63.77 0.059 7.82 3.38 9.92
5/26/2022 12:45:00 PM 17.96 64.328 0.059 7.85 3.37 9.86
5/26/2022 1:00:00 PM 18.22 64.796 0.059 7.84 3.34 9.81
5/26/2022 1:15:00 PM 18.43 65.174 0.059 7.84 3.51 9.76
5/26/2022 1:30:00 PM 18.71 65.67799 0.058 7.8 3.54 9.69
5/26/2022 1:45:00 PM 18.67 65.606 0.058 7.73 3.35 9.63
5/26/2022 2:00:00 PM 18.87 65.966 0.058 7.79 3.22 9.6
5/26/2022 2:15:00 PM 19.05 66.29 0.058 7.74 3.23 9.54
5/26/2022 2:30:00 PM 19.36 66.848 0.058 7.77 3.22 9.51
5/26/2022 2:45:00 PM 19.39 66.902 0.058 7.73 3.22 9.48
5/26/2022 3:00:00 PM 19.41 66.938 0.058 7.72 3.27 9.43
5/26/2022 3:15:00 PM 19.51 67.118 0.058 7.68 3.42 9.39
5/26/2022 3:30:00 PM 19.39 66.902 0.058 7.66 3.24 9.32
5/26/2022 3:45:00 PM 19.64 67.352 0.058 7.63 3.13 9.29
5/26/2022 4:00:00 PM 19.76 67.568 0.058 7.59 3.56 9.26
5/26/2022 4:15:00 PM 19.88 67.784 0.058 7.59 3.36 9.23
5/26/2022 4:30:00 PM 19.99 67.982 0.058 7.65 3.71 9.22
5/26/2022 4:45:00 PM 20.05 68.09 0.058 7.62 3.42 9.2
5/26/2022 5:00:00 PM 20.06 68.108 0.058 7.55 3.47 9.15
5/26/2022 5:15:00 PM 19.91 67.838 0.058 7.55 3.2 9.07
5/26/2022 5:30:00 PM 19.89 67.802 0.058 7.54 3.43 9.04
5/26/2022 5:45:00 PM 19.84 67.712 0.058 7.53 3.12 9.01
5/26/2022 6:00:00 PM 19.73 67.514 0.058 7.48 3.4 8.92
5/26/2022 6:15:00 PM 19.67 67.406 0.058 7.46 3.16 8.91
5/26/2022 6:30:00 PM 19.61 67.298 0.058 7.45 3.14 8.87
5/26/2022 6:45:00 PM 19.6 67.28 0.058 7.45 3.13 8.89
5/26/2022 7:00:00 PM 19.54 67.172 0.058 7.43 3.12 8.85
5/26/2022 7:15:00 PM 19.48 67.064 0.058 7.39 3.16 8.8
5/26/2022 7:30:00 PM 19.42 66.956 0.059 7.31 3.11 8.75
5/26/2022 7:45:00 PM 19.35 66.83 0.059 7.31 3.13 8.69
5/26/2022 8:00:00 PM 19.28 66.704 0.059 7.29 3.35 8.61
5/26/2022 8:15:00 PM 19.19 66.542 0.059 7.23 3.37 8.54
5/26/2022 8:30:00 PM 19.13 66.434 0.059 7.24 3.24 8.49
5/26/2022 8:45:00 PM 19.05 66.29 0.059 7.21 3.45 8.44
5/26/2022 9:00:00 PM 18.97 66.146 0.059 7.21 3.37 8.4
5/26/2022 9:15:00 PM 18.89 66.002 0.06 7.19 3.35 8.38
5/26/2022 9:30:00 PM 18.81 65.858 0.06 7.18 3.53 8.38
5/26/2022 9:45:00 PM 18.73 65.714 0.06 7.14 3.55 8.37
5/26/2022 10:00:00 PM 18.66 65.588 0.06 7.17 3.95 8.37
5/26/2022 10:15:00 PM 18.58 65.444 0.06 7.14 3.55 8.37
5/26/2022 10:30:00 PM 18.52 65.336 0.06 7.12 3.53 8.37
5/26/2022 10:45:00 PM 18.45 65.21 0.061 7.15 3.43 8.37
5/26/2022 11:00:00 PM 18.39 65.102 0.061 7.14 3.66 8.38
5/26/2022 11:15:00 PM 18.33 64.994 0.061 7.14 3.65 8.39
5/26/2022 11:30:00 PM 18.27 64.886 0.061 7.08 3.68 8.4
5/26/2022 11:45:00 PM 18.2 64.76 0.061 7.14 3.65 8.42
5/27/2022 12:00:00 AM 18.14 64.652 0.061 7.14 3.79 8.42
5/27/2022 12:15:00 AM 18.08 64.544 0.061 7.14 3.94 8.43
5/27/2022 12:30:00 AM 18.01 64.418 0.061 7.13 3.88 8.44
5/27/2022 12:45:00 AM 17.94 64.292 0.061 7.13 3.99 8.46
5/27/2022 1:00:00 AM 17.88 64.184 0.061 7.06 3.94 8.47
5/27/2022 1:15:00 AM 17.81 64.058 0.061 7.13 4.11 8.49
5/27/2022 1:30:00 AM 17.74 63.932 0.062 7.07 3.94 8.5
5/27/2022 1:45:00 AM 17.68 63.824 0.061 7.13 4.05 8.51
5/27/2022 2:00:00 AM 17.62 63.716 0.061 7.09 4.16 8.53
5/27/2022 2:15:00 AM 17.56 63.608 0.061 7.13 4.11 8.54
5/27/2022 2:30:00 AM 17.5 63.5 0.061 7.13 4.07 8.55
5/27/2022 2:45:00 AM 17.43 63.374 0.062 7.06 3.97 8.57
5/27/2022 3:00:00 AM 17.36 63.248 0.062 7.12 4.07 8.58
5/27/2022 3:15:00 AM 17.29 63.122 0.062 7.09 4.08 8.6
5/27/2022 3:30:00 AM 17.23 63.014 0.062 7.12 4.07 8.62
5/27/2022 3:45:00 AM 17.17 62.906 0.062 7.12 4 8.62
5/27/2022 4:00:00 AM 17.1 62.78 0.062 7.12 4.02 8.64
5/27/2022 4:15:00 AM 17.04 62.672 0.062 7.12 3.98 8.65
5/27/2022 4:30:00 AM 16.98 62.564 0.062 7.11 3.93 8.66
5/27/2022 4:45:00 AM 16.92 62.456 0.062 7.12 4.12 8.67
5/27/2022 5:00:00 AM 16.86 62.348 0.062 7.12 4.04 8.7
5/27/2022 5:15:00 AM 16.8 62.24 0.062 7.12 3.94 8.71
5/27/2022 5:30:00 AM 16.74 62.132 0.062 7.12 4.1 8.71
5/27/2022 5:45:00 AM 16.69 62.042 0.062 7.11 4.23 8.72
5/27/2022 6:00:00 AM 16.64 61.952 0.062 7.12 3.93 8.74
5/27/2022 6:15:00 AM 16.59 61.862 0.062 7.11 4.02 8.77
5/27/2022 6:30:00 AM 16.54 61.772 0.062 7.13 3.99 8.8
5/27/2022 6:45:00 AM 16.5 61.7 0.062 7.13 4.14 8.81
5/27/2022 7:00:00 AM 16.46 61.628 0.062 7.13 3.97 8.84
5/27/2022 7:15:00 AM 16.42 61.556 0.062 7.15 3.95 8.87
5/27/2022 7:30:00 AM 16.38 61.484 0.062 7.16 4.06 8.9
5/27/2022 7:45:00 AM 16.35 61.43 0.062 7.16 3.97 8.93
5/27/2022 8:00:00 AM 16.33 61.394 0.061 7.17 4.07 8.98
5/27/2022 8:15:00 AM 16.32 61.376 0.061 7.2 3.82 9.06
5/27/2022 8:30:00 AM 16.3 61.34 0.061 7.18 3.96 9.09
5/27/2022 8:45:00 AM 16.29 61.322 0.061 7.12 4.01 9.12
5/27/2022 9:00:00 AM 16.3 61.34 0.062 7.21 4.05 9.18
5/27/2022 9:15:00 AM 16.32 61.376 0.062 7.24 3.85 9.27
5/27/2022 9:30:00 AM 16.35 61.43 0.061 7.25 3.81 9.34
5/27/2022 9:45:00 AM 16.34 61.412 0.061 7.22 4.4 9.34
5/27/2022 10:00:00 AM 16.36 61.448 0.069 7.28 5.51 9.36
5/27/2022 10:15:00 AM 16.35 61.43 0.062 7.3 4.15 9.37
5/27/2022 10:30:00 AM 16.35 61.43 0.061 7.28 7.29 9.37
5/27/2022 10:45:00 AM 16.36 61.448 0.061 7.24 7.52 9.41
5/27/2022 11:00:00 AM 16.36 61.448 0.061 7.22 7.43 9.41
5/27/2022 11:15:00 AM 16.36 61.448 0.067 7.27 11.29 9.36
5/27/2022 11:30:00 AM 16.59 61.862 0.069 7.6 123.31 9.27
5/27/2022 11:45:00 AM 16.51 61.718 0.06 7.41 8.7 9.35
5/27/2022 12:00:00 PM 16.68 62.024 0.059 7.43 6.19 9.43
5/27/2022 12:15:00 PM 16.77 62.186 0.059 7.39 7.83 9.5
5/27/2022 12:30:00 PM 16.82 62.276 0.059 7.41 8.34 9.53
5/27/2022 12:45:00 PM 16.92 62.456 0.06 7.43 10.64 9.54
5/27/2022 1:00:00 PM 17.03 62.654 0.059 7.47 1505.62 9.56
5/27/2022 1:15:00 PM 17.15 62.87 0.058 7.47 581.91 9.59
5/27/2022 1:30:00 PM 17.27 63.086 0.058 7.46 48.53 9.61
5/27/2022 1:45:00 PM 17.35 63.23 0.057 7.44 6.16 9.61
5/27/2022 2:00:00 PM 17.43 63.374 0.057 7.49 6.37 9.61
5/27/2022 2:15:00 PM 17.51 63.518 0.058 7.51 7.43 9.59
5/27/2022 2:30:00 PM 17.59 63.662 0.058 7.47 12.15 9.55
5/27/2022 2:45:00 PM 17.65 63.77 0.058 7.44 17.12 9.51
5/27/2022 3:00:00 PM 17.73 63.914 0.057 7.42 16.78 9.49
5/27/2022 3:15:00 PM 17.73 63.914 0.057 7.41 15.51 9.44
5/27/2022 3:30:00 PM 17.74 63.932 0.056 7.38 3545.8 9.38
5/27/2022 3:45:00 PM 17.76 63.968 0.056 7.4 5870.99 9.33
5/27/2022 4:00:00 PM 17.82 64.076 0.056 7.4 6381.92 9.3
5/27/2022 4:15:00 PM 17.87 64.166 0.056 7.32 3041.62 9.28
5/27/2022 4:30:00 PM 17.92 64.256 0.057 7.3 18.67 9.27
5/27/2022 4:45:00 PM 17.88 64.184 0.057 7.32 16.16 9.22
5/27/2022 5:00:00 PM 17.78 64.004 0.058 7.3 15.77 9.13
5/27/2022 5:15:00 PM 17.75 63.95 0.058 7.29 15.76 9.12
5/27/2022 5:30:00 PM 17.77 63.986 0.058 7.28 15.29 9.13
5/27/2022 5:45:00 PM 17.78 64.004 0.058 7.28 15.18 9.12
5/27/2022 6:00:00 PM 17.82 64.076 0.058 7.27 16.15 9.1
5/27/2022 6:15:00 PM 17.81 64.058 0.058 7.26 15.76 9.07
5/27/2022 6:30:00 PM 17.79 64.022 0.058 7.25 14.29 9.04
5/27/2022 6:45:00 PM 17.75 63.95 0.058 7.23 16.31 9.01
5/27/2022 7:00:00 PM 17.68 63.824 0.058 7.23 15.6 8.99
5/27/2022 7:15:00 PM 17.6 63.68 0.058 7.2 15.62 8.94
5/27/2022 7:30:00 PM 17.49 63.482 0.058 7.18 15.11 8.9
5/27/2022 7:45:00 PM 17.39 63.302 0.058 7.16 14.1 8.86
5/27/2022 8:00:00 PM 17.3 63.14 0.058 7.15 13.81 8.83
5/27/2022 8:15:00 PM 17.21 62.978 0.058 7.13 12.16 8.81
5/27/2022 8:30:00 PM 17.12 62.816 0.058 7.09 14.38 8.78
5/27/2022 8:45:00 PM 17.03 62.654 0.058 7.09 11.44 8.76
5/27/2022 9:00:00 PM 16.93 62.474 0.058 7.09 11.46 8.76
5/27/2022 9:15:00 PM 16.83 62.294 0.058 7.08 11.59 8.75
5/27/2022 9:30:00 PM 16.73 62.114 0.058 7.07 11.43 8.75
5/27/2022 9:45:00 PM 16.63 61.934 0.058 7.06 11.71 8.76
5/27/2022 10:00:00 PM 16.56 61.808 0.058 7.06 10.41 8.76
5/27/2022 10:15:00 PM 16.48 61.664 0.058 7.05 10.24 8.78
5/27/2022 10:30:00 PM 16.41 61.538 0.058 7.05 9.91 8.79
5/27/2022 10:45:00 PM 16.33 61.394 0.058 7.05 9.6 8.8
5/27/2022 11:00:00 PM 16.26 61.268 0.059 7.06 9.33 8.81
5/27/2022 11:15:00 PM 16.19 61.142 0.059 7.05 8.91 8.83
5/27/2022 11:30:00 PM 16.12 61.016 0.059 7.05 8.78 8.83
5/27/2022 11:45:00 PM 16.06 60.908 0.059 7.01 8.37 8.86
5/28/2022 12:00:00 AM 15.99 60.782 0.059 7.03 7.91 8.87
5/28/2022 12:15:00 AM 15.93 60.674 0.059 7.04 7.69 8.89
5/28/2022 12:30:00 AM 15.86 60.548 0.059 7.02 7.47 8.91
5/28/2022 12:45:00 AM 15.79 60.422 0.059 7.05 7.19 8.92
5/28/2022 1:00:00 AM 15.73 60.314 0.06 7.06 6.97 8.94
5/28/2022 1:15:00 AM 15.67 60.206 0.06 7.05 6.9 8.95
5/28/2022 1:30:00 AM 15.61 60.098 0.06 7.05 6.88 8.97
5/28/2022 1:45:00 AM 15.55 59.99 0.06 7.06 6.52 8.99
5/28/2022 2:00:00 AM 15.49 59.882 0.06 7.06 6.35 9
5/28/2022 2:15:00 AM 15.44 59.792 0.06 7.06 6.47 9.01
5/28/2022 2:30:00 AM 15.39 59.702 0.06 7.05 6.21 9.02
5/28/2022 2:45:00 AM 15.35 59.63 0.06 7.03 6.13 9.04
5/28/2022 3:00:00 AM 15.3 59.54 0.061 7.05 5.92 9.05
5/28/2022 3:15:00 AM 15.25 59.45 0.06 7.06 5.84 9.06
5/28/2022 3:30:00 AM 15.2 59.36 0.061 7.07 5.68 9.08
5/28/2022 3:45:00 AM 15.16 59.288 0.061 7.07 5.69 9.09
5/28/2022 4:00:00 AM 15.11 59.198 0.061 7.03 5.72 9.1
5/28/2022 4:15:00 AM 15.07 59.126 0.061 7.06 5.57 9.11
5/28/2022 4:30:00 AM 15.03 59.054 0.061 7.06 6.42 9.12
5/28/2022 4:45:00 AM 14.99 58.982 0.061 7.05 5.47 9.13
5/28/2022 5:00:00 AM 14.94 58.892 0.062 7.07 5.33 9.14
5/28/2022 5:15:00 AM 14.91 58.838 0.062 7.08 5.22 9.15
5/28/2022 5:30:00 AM 14.87 58.766 0.062 7.05 5.38 9.16
5/28/2022 5:45:00 AM 14.84 58.712 0.062 7.08 5.08 9.18
5/28/2022 6:00:00 AM 14.81 58.658 0.062 7.04 7.97 9.18
5/28/2022 6:15:00 AM 14.78 58.604 0.062 7.06 6.21 9.2
5/28/2022 6:30:00 AM 14.75 58.55 0.062 7.06 5 9.22
5/28/2022 6:45:00 AM 14.73 58.514 0.062 7.1 4.91 9.26
5/28/2022 7:00:00 AM 14.71 58.478 0.062 7.09 4.8 9.3
5/28/2022 7:15:00 AM 14.72 58.496 0.062 7.11 4.74 9.38
5/28/2022 7:30:00 AM 14.75 58.55 0.062 7.15 4.79 9.47
5/28/2022 7:45:00 AM 14.76 58.568 0.062 7.17 4.72 9.52
5/28/2022 8:00:00 AM 14.76 58.568 0.062 7.17 4.65 9.55
5/28/2022 8:15:00 AM 14.75 58.55 0.062 7.15 4.51 9.56
5/28/2022 8:30:00 AM 14.76 58.568 0.062 7.18 4.46 9.58
5/28/2022 8:45:00 AM 14.79 58.622 0.062 7.21 4.46 9.64
5/28/2022 9:00:00 AM 14.83 58.694 0.062 7.24 4.33 9.69
5/28/2022 9:15:00 AM 14.88 58.784 0.062 7.28 4.03 9.75
5/28/2022 9:30:00 AM 14.94 58.892 0.062 7.32 4.2 9.8
5/28/2022 9:45:00 AM 14.97 58.946 0.062 7.33 4.17 9.82
5/28/2022 10:00:00 AM 14.99 58.982 0.062 7.33 4.1 9.82
5/28/2022 10:15:00 AM 15.02 59.036 0.062 7.35 4.15 9.83
5/28/2022 10:30:00 AM 15.07 59.126 0.061 7.35 4.01 9.85
5/28/2022 10:45:00 AM 15.09 59.162 0.061 7.34 3.98 9.85
5/28/2022 11:00:00 AM 15.13 59.234 0.061 7.36 3.89 9.84
5/28/2022 11:15:00 AM 15.2 59.36 0.061 7.37 3.87 9.87
5/28/2022 11:30:00 AM 15.33 59.594 0.061 7.48 3.84 9.9
5/28/2022 11:45:00 AM 15.6 60.08 0.061 7.55 3.86 9.94
5/28/2022 12:00:00 PM 15.7 60.26 0.061 7.54 3.85 9.96
5/28/2022 12:15:00 PM 15.8 60.44 0.061 7.53 3.86 9.95
5/28/2022 12:30:00 PM 15.87 60.566 0.061 7.54 3.87 9.93
5/28/2022 12:45:00 PM 15.93 60.674 0.061 7.5 3.81 9.91
5/28/2022 1:00:00 PM 15.95 60.71 0.061 7.5 3.82 9.87
5/28/2022 1:15:00 PM 15.94 60.692 0.061 7.43 3.82 9.8
5/28/2022 1:30:00 PM 15.99 60.782 0.061 7.48 3.72 9.78
5/28/2022 1:45:00 PM 16.21 61.178 0.061 7.53 3.67 9.79
5/28/2022 2:00:00 PM 16.27 61.286 0.061 7.51 3.93 9.78
5/28/2022 2:15:00 PM 16.35 61.43 0.061 7.56 3.84 9.79
5/28/2022 2:30:00 PM 16.61 61.898 0.061 7.62 3.78 9.8
5/28/2022 2:45:00 PM 16.88 62.384 0.061 7.58 3.71 9.8
5/28/2022 3:00:00 PM 16.92 62.456 0.061 7.61 3.58 9.79
5/28/2022 3:15:00 PM 16.92 62.456 0.061 7.57 3.81 9.76
5/28/2022 3:30:00 PM 16.89 62.402 0.061 7.59 3.62 9.72
5/28/2022 3:45:00 PM 16.83 62.294 0.061 7.51 3.57 9.67
5/28/2022 4:00:00 PM 16.85 62.33 0.061 7.57 3.62 9.67
5/28/2022 4:15:00 PM 16.81 62.258 0.061 7.53 3.71 9.64
5/28/2022 4:30:00 PM 16.79 62.222 0.061 7.51 3.71 9.6
5/28/2022 4:45:00 PM 16.77 62.186 0.061 7.49 3.54 9.57
5/28/2022 5:00:00 PM 16.79 62.222 0.061 7.51 3.45 9.57
5/28/2022 5:15:00 PM 16.79 62.222 0.061 7.49 3.38 9.57
5/28/2022 5:30:00 PM 16.77 62.186 0.061 7.46 3.39 9.52
5/28/2022 5:45:00 PM 16.79 62.222 0.061 7.46 3.48 9.52
5/28/2022 6:00:00 PM 16.81 62.258 0.061 7.44 3.6 9.52
5/28/2022 6:15:00 PM 16.81 62.258 0.061 7.45 3.53 9.51
5/28/2022 6:30:00 PM 16.81 62.258 0.061 7.4 3.57 9.49
5/28/2022 6:45:00 PM 16.83 62.294 0.061 7.43 3.56 9.47
5/28/2022 7:00:00 PM 16.8 62.24 0.061 7.38 3.45 9.44
5/28/2022 7:15:00 PM 16.79 62.222 0.061 7.39 3.78 9.4
5/28/2022 7:30:00 PM 16.73 62.114 0.061 7.35 3.83 9.33
5/28/2022 7:45:00 PM 16.69 62.042 0.061 7.32 3.67 9.26
5/28/2022 8:00:00 PM 16.63 61.934 0.061 7.28 3.61 9.2
5/28/2022 8:15:00 PM 16.57 61.826 0.061 7.27 3.94 9.14
5/28/2022 8:30:00 PM 16.51 61.718 0.062 7.25 3.73 9.08
5/28/2022 8:45:00 PM 16.45 61.61 0.062 7.22 3.9 9.04
5/28/2022 9:00:00 PM 16.4 61.52 0.062 7.2 3.97 9.01
5/28/2022 9:15:00 PM 16.33 61.394 0.062 7.2 3.68 8.98
5/28/2022 9:30:00 PM 16.27 61.286 0.062 7.15 3.84 8.96
5/28/2022 9:45:00 PM 16.22 61.196 0.062 7.18 3.79 8.95
5/28/2022 10:00:00 PM 16.14 61.052 0.062 7.17 3.64 8.94
5/28/2022 10:15:00 PM 16.07 60.926 0.062 7.14 3.88 8.95
5/28/2022 10:30:00 PM 15.99 60.782 0.062 7.17 3.74 8.96
5/28/2022 10:45:00 PM 15.92 60.656 0.063 7.16 3.72 8.97
5/28/2022 11:00:00 PM 15.85 60.53 0.063 7.15 3.84 8.98
5/28/2022 11:15:00 PM 15.78 60.404 0.063 7.13 3.79 8.99
5/28/2022 11:30:00 PM 15.7 60.26 0.063 7.13 3.84 9
5/28/2022 11:45:00 PM 15.62 60.116 0.063 7.11 3.85 9.02
5/29/2022 12:00:00 AM 15.53 59.954 0.063 7.15 3.75 9.04
5/29/2022 12:15:00 AM 15.44 59.792 0.063 7.1 3.86 9.06
5/29/2022 12:30:00 AM 15.37 59.666 0.063 7.14 3.97 9.08
5/29/2022 12:45:00 AM 15.29 59.522 0.063 7.12 3.81 9.09
5/29/2022 1:00:00 AM 15.22 59.396 0.063 7.13 3.88 9.11
5/29/2022 1:15:00 AM 15.15 59.27 0.063 7.14 4.21 9.13
5/29/2022 1:30:00 AM 15.08 59.144 0.063 7.1 4.31 9.15
5/29/2022 1:45:00 AM 15.01 59.018 0.063 7.12 4.07 9.17
5/29/2022 2:00:00 AM 14.94 58.892 0.063 7.14 5.04 9.19
5/29/2022 2:15:00 AM 14.87 58.766 0.063 7.13 5.34 9.21
5/29/2022 2:30:00 AM 14.8 58.64 0.064 7.14 4.09 9.23
5/29/2022 2:45:00 AM 14.73 58.514 0.063 7.14 4.8 9.24
5/29/2022 3:00:00 AM 14.67 58.406 0.063 7.12 5.7 9.26
5/29/2022 3:15:00 AM 14.6 58.28 0.064 7.15 32.32 9.28
5/29/2022 3:30:00 AM 14.55 58.19 0.064 7.15 3.81 9.29
5/29/2022 3:45:00 AM 14.49 58.082 0.064 7.13 3.81 9.31
5/29/2022 4:00:00 AM 14.44 57.992 0.063 7.12 3.87 9.32
5/29/2022 4:15:00 AM 14.39 57.902 0.064 7.13 3.83 9.34
5/29/2022 4:30:00 AM 14.33 57.794 0.064 7.11 3.86 9.35
5/29/2022 4:45:00 AM 14.27 57.686 0.064 7.12 3.85 9.37
5/29/2022 5:00:00 AM 14.21 57.578 0.064 7.11 3.83 9.38
5/29/2022 5:15:00 AM 14.15 57.47 0.064 7.1 4.03 9.4
5/29/2022 5:30:00 AM 14.1 57.38 0.064 7.12 3.85 9.42
5/29/2022 5:45:00 AM 14.04 57.272 0.064 7.11 3.85 9.44
5/29/2022 6:00:00 AM 14.03 57.254 0.064 7.09 3.7 9.44
5/29/2022 6:15:00 AM 13.98 57.164 0.064 7.11 3.76 9.48
5/29/2022 6:30:00 AM 13.94 57.092 0.064 7.14 3.73 9.52
5/29/2022 6:45:00 AM 13.9 57.02 0.064 7.12 3.79 9.56
5/29/2022 7:00:00 AM 13.86 56.948 0.063 7.14 3.87 9.61
5/29/2022 7:15:00 AM 13.83 56.894 0.064 7.15 3.7 9.66
5/29/2022 7:30:00 AM 13.8 56.84 0.064 7.19 3.75 9.71
5/29/2022 7:45:00 AM 13.79 56.822 0.063 7.19 3.82 9.78
5/29/2022 8:00:00 AM 13.78 56.804 0.063 7.22 4.21 9.86
5/29/2022 8:15:00 AM 13.78 56.804 0.063 7.22 3.88 9.91
5/29/2022 8:30:00 AM 13.79 56.822 0.063 7.27 3.93 9.98
5/29/2022 8:45:00 AM 13.83 56.894 0.063 7.31 3.85 10.05
5/29/2022 9:00:00 AM 13.87 56.966 0.063 7.36 3.67 10.12
5/29/2022 9:15:00 AM 13.91 57.038 0.063 7.37 3.46 10.16
5/29/2022 9:30:00 AM 13.96 57.128 0.062 7.4 3.62 10.2
5/29/2022 9:45:00 AM 13.97 57.146 0.062 7.37 3.56 10.22
5/29/2022 10:00:00 AM 14.14 57.452 0.062 7.52 3.64 10.25
5/29/2022 10:15:00 AM 14.28 57.704 0.062 7.55 3.75 10.29
5/29/2022 10:30:00 AM 14.59 58.262 0.062 7.62 4.26 10.29
5/29/2022 10:45:00 AM 14.88 58.784 0.062 7.63 4.11 10.28
5/29/2022 11:00:00 AM 15.19 59.342 0.062 7.69 4.33 10.26
5/29/2022 11:15:00 AM 15.52 59.936 0.062 7.7 4.63 10.22
5/29/2022 11:30:00 AM 15.83 60.494 0.062 7.73 4.38 10.19
5/29/2022 11:45:00 AM 16.14 61.052 0.062 7.71 4.31 10.15
5/29/2022 12:00:00 PM 16.46 61.628 0.062 7.72 4.32 10.1
5/29/2022 12:15:00 PM 16.8 62.24 0.061 7.75 4.25 10.07
5/29/2022 12:30:00 PM 17.16 62.888 0.061 7.74 4.2 10.01
5/29/2022 12:45:00 PM 17.42 63.356 0.061 7.74 3.98 9.95
5/29/2022 1:00:00 PM 17.58 63.644 0.061 7.68 3.82 9.89
5/29/2022 1:15:00 PM 17.97 64.346 0.061 7.7 3.81 9.83
5/29/2022 1:30:00 PM 18.5 65.3 0.061 7.7 3.97 9.78
5/29/2022 1:45:00 PM 18.89 66.002 0.061 7.68 4.02 9.72
5/29/2022 2:00:00 PM 19.22 66.596 0.061 7.67 3.88 9.67
5/29/2022 2:15:00 PM 19.48 67.064 0.061 7.69 3.82 9.61
5/29/2022 2:30:00 PM 19.77 67.586 0.061 7.72 3.86 9.56
5/29/2022 2:45:00 PM 19.94 67.892 0.061 7.7 4.02 9.51
5/29/2022 3:00:00 PM 20.13 68.234 0.061 7.63 3.95 9.46
5/29/2022 3:15:00 PM 20.03 68.054 0.061 7.66 3.95 9.4
5/29/2022 3:30:00 PM 20.11 68.198 0.061 7.66 3.99 9.37
5/29/2022 3:45:00 PM 20.07 68.126 0.061 7.63 3.97 9.35
5/29/2022 4:00:00 PM 20.34 68.612 0.061 7.63 3.87 9.34
5/29/2022 4:15:00 PM 20.43 68.774 0.061 7.66 3.95 9.31
5/29/2022 4:30:00 PM 20.47 68.846 0.06 7.61 4.01 9.26
5/29/2022 4:45:00 PM 20.53 68.954 0.06 7.61 3.95 9.21
5/29/2022 5:00:00 PM 20.55 68.99 0.06 7.59 4.01 9.15
5/29/2022 5:15:00 PM 20.58 69.044 0.06 7.54 4.05 9.1
5/29/2022 5:30:00 PM 20.57 69.026 0.061 7.55 3.77 9.04
5/29/2022 5:45:00 PM 20.51 68.918 0.06 7.5 3.85 8.98
5/29/2022 6:00:00 PM 20.47 68.846 0.061 7.48 3.94 8.91
5/29/2022 6:15:00 PM 20.41 68.738 0.061 7.45 4.37 8.85
5/29/2022 6:30:00 PM 20.33 68.594 0.061 7.42 4.38 8.8
5/29/2022 6:45:00 PM 20.24 68.432 0.061 7.39 4.59 8.75
5/29/2022 7:00:00 PM 20.19 68.342 0.061 7.4 4.55 8.73
5/29/2022 7:15:00 PM 20.1 68.18 0.061 7.37 4.59 8.69
5/29/2022 7:30:00 PM 20 68 0.061 7.31 4.48 8.64
5/29/2022 7:45:00 PM 19.88 67.784 0.061 7.29 4.53 8.57
5/29/2022 8:00:00 PM 19.75 67.55 0.061 7.24 4.42 8.52
5/29/2022 8:15:00 PM 19.62 67.316 0.062 7.24 4.64 8.47
5/29/2022 8:30:00 PM 19.49 67.082 0.063 7.22 4.7 8.42
5/29/2022 8:45:00 PM 19.37 66.866 0.063 7.18 4.91 8.38
5/29/2022 9:00:00 PM 19.25 66.65 0.062 7.16 4.61 8.35
5/29/2022 9:15:00 PM 19.14 66.452 0.062 7.16 4.75 8.32
5/29/2022 9:30:00 PM 19.02 66.236 0.062 7.12 4.99 8.33
5/29/2022 9:45:00 PM 18.9 66.02 0.063 7.11 4.57 8.31
5/29/2022 10:00:00 PM 18.77 65.786 0.063 7.09 4.84 8.32
5/29/2022 10:15:00 PM 18.65 65.57 0.063 7.09 4.84 8.34
5/29/2022 10:30:00 PM 18.52 65.336 0.063 7.1 4.62 8.35
5/29/2022 10:45:00 PM 18.39 65.102 0.063 7.08 4.7 8.38
5/29/2022 11:00:00 PM 18.27 64.886 0.063 7.06 4.96 8.4
5/29/2022 11:15:00 PM 18.14 64.652 0.063 7.09 4.74 8.42
5/29/2022 11:30:00 PM 18.01 64.418 0.063 7.07 4.95 8.45
5/29/2022 11:45:00 PM 17.88 64.184 0.063 7.02 4.86 8.47
5/30/2022 12:00:00 AM 17.75 63.95 0.063 7.07 4.86 8.51
5/30/2022 12:15:00 AM 17.62 63.716 0.064 7.06 4.83 8.53
5/30/2022 12:30:00 AM 17.5 63.5 0.064 7.06 5.02 8.55
5/30/2022 12:45:00 AM 17.38 63.284 0.063 7.06 5.09 8.58
5/30/2022 1:00:00 AM 17.25 63.05 0.064 7.07 4.82 8.61
5/30/2022 1:15:00 AM 17.14 62.852 0.064 7.01 4.92 8.64
5/30/2022 1:30:00 AM 17.03 62.654 0.064 7.06 4.76 8.66
5/30/2022 1:45:00 AM 16.93 62.474 0.064 7.04 4.92 8.69
5/30/2022 2:00:00 AM 16.82 62.276 0.064 7.06 4.85 8.72
5/30/2022 2:15:00 AM 16.71 62.078 0.064 7.04 4.97 8.74
5/30/2022 2:30:00 AM 16.61 61.898 0.064 7.04 4.85 8.77
5/30/2022 2:45:00 AM 16.52 61.736 0.064 7.06 4.73 8.79
5/30/2022 3:00:00 AM 16.44 61.592 0.064 7.05 4.74 8.81
5/30/2022 3:15:00 AM 16.34 61.412 0.064 7.05 4.69 8.83
5/30/2022 3:30:00 AM 16.25 61.25 0.064 7.04 4.72 8.86
5/30/2022 3:45:00 AM 16.16 61.088 0.064 7.07 4.57 8.88
5/30/2022 4:00:00 AM 16.07 60.926 0.064 7.05 4.61 8.9
5/30/2022 4:15:00 AM 15.98 60.764 0.064 7.07 4.71 8.93
5/30/2022 4:30:00 AM 15.89 60.602 0.064 7.08 4.66 8.96
5/30/2022 4:45:00 AM 15.8 60.44 0.064 7.06 4.63 8.98
5/30/2022 5:00:00 AM 15.72 60.296 0.064 7.08 4.83 9
5/30/2022 5:15:00 AM 15.64 60.152 0.064 7.06 4.04 9.02
5/30/2022 5:30:00 AM 15.56 60.008 0.064 7.07 4.54 9.04
5/30/2022 5:45:00 AM 15.48 59.864 0.064 7.07 4.62 9.06
5/30/2022 6:00:00 AM 15.41 59.738 0.064 7.07 4.59 9.1
5/30/2022 6:15:00 AM 15.34 59.612 0.064 7.05 4.7 9.14
5/30/2022 6:30:00 AM 15.28 59.504 0.064 7.09 4.48 9.18
5/30/2022 6:45:00 AM 15.22 59.396 0.064 7.1 4.32 9.23
5/30/2022 7:00:00 AM 15.16 59.288 0.065 7.12 4.57 9.3
5/30/2022 7:15:00 AM 15.13 59.234 0.064 7.13 4.46 9.38
5/30/2022 7:30:00 AM 15.09 59.162 0.064 7.17 4.6 9.46
5/30/2022 7:45:00 AM 15.07 59.126 0.064 7.19 4.57 9.55
5/30/2022 8:00:00 AM 15.09 59.162 0.064 7.25 4.56 9.66
5/30/2022 8:15:00 AM 15.08 59.144 0.064 7.28 4.46 9.73
5/30/2022 8:30:00 AM 15.11 59.198 0.064 7.32 4.51 9.8
5/30/2022 8:45:00 AM 15.14 59.252 0.064 7.33 4.69 9.86
5/30/2022 9:00:00 AM 15.18 59.324 0.063 7.37 4.78 9.93
5/30/2022 9:15:00 AM 15.26 59.468 0.063 7.44 4.67 9.99
5/30/2022 9:30:00 AM 15.5 59.9 0.063 7.47 4.95 10.02
5/30/2022 9:45:00 AM 15.67 60.206 0.063 7.54 4.73 10.04
5/30/2022 10:00:00 AM 15.86 60.548 0.063 7.56 4.75 10.03
5/30/2022 10:15:00 AM 16.09 60.962 0.063 7.55 4.87 10.02
5/30/2022 10:30:00 AM 16.34 61.412 0.063 7.62 4.81 10
5/30/2022 10:45:00 AM 16.61 61.898 0.063 7.65 4.78 9.99
5/30/2022 11:00:00 AM 16.9 62.42 0.063 7.71 4.6 9.98
5/30/2022 11:15:00 AM 17.18 62.924 0.062 7.73 4.63 9.96
5/30/2022 11:30:00 AM 17.49 63.482 0.062 7.76 4.71 9.93
5/30/2022 11:45:00 AM 17.8 64.04 0.062 7.78 4.68 9.9
5/30/2022 12:00:00 PM 18.15 64.67 0.062 7.78 4.48 9.87
5/30/2022 12:15:00 PM 18.38 65.084 0.062 7.81 4.37 9.83
5/30/2022 12:30:00 PM 18.75 65.75 0.062 7.8 4.32 9.79
5/30/2022 12:45:00 PM 19.15 66.47 0.062 7.83 4.47 9.73
5/30/2022 1:00:00 PM 19.52 67.136 0.062 7.81 4.45 9.67
5/30/2022 1:15:00 PM 19.87 67.766 0.062 7.77 4.51 9.61
5/30/2022 1:30:00 PM 20.24 68.432 0.062 7.76 4.34 9.56
5/30/2022 1:45:00 PM 20.38 68.684 0.062 7.7 4.26 9.47
5/30/2022 2:00:00 PM 20.77 69.386 0.062 7.73 4.3 9.43
5/30/2022 2:15:00 PM 21.03 69.854 0.061 7.72 4.29 9.37
5/30/2022 2:30:00 PM 21.3 70.34 0.061 7.73 4.03 9.32
5/30/2022 2:45:00 PM 21.54 70.772 0.061 7.73 4.27 9.28
5/30/2022 3:00:00 PM 21.77 71.186 0.061 7.68 4.32 9.21
5/30/2022 3:15:00 PM 21.96 71.528 0.061 7.64 4.13 9.16
5/30/2022 3:30:00 PM 22.12 71.816 0.061 7.65 4.23 9.11
5/30/2022 3:45:00 PM 22.21 71.978 0.061 7.57 3.62 9.06
5/30/2022 4:00:00 PM 22.32 72.176 0.061 7.63 4.21 9.01
5/30/2022 4:15:00 PM 22.38 72.284 0.061 7.61 4.27 8.96
5/30/2022 4:30:00 PM 22.43 72.374 0.061 7.59 4.07 8.91
5/30/2022 4:45:00 PM 22.48 72.464 0.061 7.56 4.08 8.86
5/30/2022 5:00:00 PM 22.48 72.464 0.06 7.56 4.52 8.8
5/30/2022 5:15:00 PM 22.46 72.42799 0.061 7.56 4.39 8.75
5/30/2022 5:30:00 PM 22.44 72.392 0.061 7.43 4.17 8.7
5/30/2022 5:45:00 PM 22.39 72.302 0.061 7.48 4.04 8.64
5/30/2022 6:00:00 PM 22.35 72.23 0.061 7.46 4.07 8.57
5/30/2022 6:15:00 PM 22.31 72.158 0.061 7.39 8.33 8.52
5/30/2022 6:30:00 PM 22.25 72.05 0.061 7.32 4.77 8.46
5/30/2022 6:45:00 PM 22.2 71.96 0.061 7.37 4.07 8.42
5/30/2022 7:00:00 PM 22.13 71.834 0.062 7.35 4.52 8.36
5/30/2022 7:15:00 PM 22.05 71.69 0.064 7.29 4.82 8.3
5/30/2022 7:30:00 PM 21.96 71.528 0.063 7.3 6.94 8.24
5/30/2022 7:45:00 PM 21.86 71.348 0.061 7.26 5.86 8.18
5/30/2022 8:00:00 PM 21.75 71.15 0.062 7.21 5.51 8.12
5/30/2022 8:15:00 PM 21.64 70.952 0.06 7.12 37.24 8.06
5/30/2022 8:30:00 PM 21.52 70.736 0.057 7.16 64.27 8
5/30/2022 8:45:00 PM 21.41 70.538 0.057 7.1 9.89 7.95
5/30/2022 9:00:00 PM 21.3 70.34 0.061 7.08 31.99 7.91
5/30/2022 9:15:00 PM 21.19 70.142 0.061 7.06 14.23 7.89
5/30/2022 9:30:00 PM 21.08 69.944 0.061 7.06 81.31 7.87
5/30/2022 9:45:00 PM 20.97 69.746 0.062 7.02 25.13 7.87
5/30/2022 10:00:00 PM 20.85 69.53 0.061 6.98 38.86 7.87
5/30/2022 10:15:00 PM 20.73 69.314 0.064 7.03 31.71 7.88
5/30/2022 10:30:00 PM 20.61 69.098 0.061 7 36.7 7.89
5/30/2022 10:45:00 PM 20.49 68.882 0.061 6.98 20.76 7.91
5/30/2022 11:00:00 PM 20.36 68.648 0.061 7 9.06 7.93
5/30/2022 11:15:00 PM 20.23 68.414 0.059 7.03 33.16 7.95
5/30/2022 11:30:00 PM 20.11 68.198 0.06 7.02 57.34 7.97
5/30/2022 11:45:00 PM 19.98 67.964 0.054 6.99 78.32 8
5/31/2022 12:00:00 AM 19.85 67.73 0.065 7.01 5.01 8.02
5/31/2022 12:15:00 AM 19.72 67.496 0.062 7.01 36.37 8.04
5/31/2022 12:30:00 AM 19.59 67.262 0.063 6.99 5.21 8.07
5/31/2022 12:45:00 AM 19.47 67.046 0.065 7 5.55 8.1
5/31/2022 1:00:00 AM 19.35 66.83 0.065 6.99 5.51 8.12
5/31/2022 1:15:00 AM 19.23 66.614 0.065 7 5.12 8.15
5/31/2022 1:30:00 AM 19.1 66.38 0.065 7 5.67 8.17
5/31/2022 1:45:00 AM 19 66.2 0.062 6.98 11.72 8.2
5/31/2022 2:00:00 AM 18.89 66.002 0.065 7.01 4.88 8.22
5/31/2022 2:15:00 AM 18.79 65.82201 0.065 6.96 36.72 8.25
5/31/2022 2:30:00 AM 18.69 65.642 0.064 6.97 5.42 8.27
5/31/2022 2:45:00 AM 18.59 65.462 0.065 6.96 7.18 8.29
5/31/2022 3:00:00 AM 18.5 65.3 0.065 6.99 12.69 8.32
5/31/2022 3:15:00 AM 18.41 65.138 0.064 6.99 5.75 8.34
5/31/2022 3:30:00 AM 18.32 64.976 0.065 7 5.75 8.36
5/31/2022 3:45:00 AM 18.23 64.814 0.066 7 6.64 8.38
5/31/2022 4:00:00 AM 18.14 64.652 0.066 7.01 4.22 8.41
5/31/2022 4:15:00 AM 18.05 64.49 0.068 6.99 26.1 8.43
5/31/2022 4:30:00 AM 17.96 64.328 0.066 7.01 5.48 8.46
5/31/2022 4:45:00 AM 17.88 64.184 0.067 7.04 4.62 8.47
5/31/2022 5:00:00 AM 17.79 64.022 0.066 7 5.11 8.49
5/31/2022 5:15:00 AM 17.7 63.86 0.065 6.97 7.36 8.52
5/31/2022 5:30:00 AM 17.62 63.716 0.066 6.97 5.37 8.54
5/31/2022 5:45:00 AM 17.54 63.572 0.067 7.02 4.88 8.56
5/31/2022 6:00:00 AM 17.46 63.428 0.066 6.98 4.99 8.59
5/31/2022 6:15:00 AM 17.39 63.302 0.066 7.05 5.21 8.63
5/31/2022 6:30:00 AM 17.32 63.176 0.066 7.01 7.18 8.68
5/31/2022 6:45:00 AM 17.25 63.05 0.066 7.05 8.74 8.74
5/31/2022 7:00:00 AM 17.21 62.978 0.063 7.07 11.66 8.8
5/31/2022 7:15:00 AM 17.17 62.906 0.063 7.1 10.18 8.9
5/31/2022 7:30:00 AM 17.14 62.852 0.066 7.11 6.65 8.97
5/31/2022 7:45:00 AM 17.11 62.798 0.065 7.12 4.92 9.05
5/31/2022 8:00:00 AM 17.09 62.762 0.064 7.14 6.24 9.13
5/31/2022 8:15:00 AM 17.08 62.744 0.065 7.19 5.47 9.22
5/31/2022 8:30:00 AM 17.11 62.798 0.062 7.17 6.3 9.32
5/31/2022 8:45:00 AM 17.18 62.924 0.065 7.27 6.7 9.39
5/31/2022 9:00:00 AM 17.36 63.248 0.065 7.3 6.59 9.46
5/31/2022 9:15:00 AM 17.53 63.554 0.065 7.33 6.64 9.48
5/31/2022 9:30:00 AM 17.68 63.824 0.065 7.37 6.32 9.49
5/31/2022 9:45:00 AM 17.86 64.148 0.064 7.42 6.54 9.51
5/31/2022 10:00:00 AM 18.05 64.49 0.065 7.44 6.52 9.53
5/31/2022 10:15:00 AM 18.27 64.886 0.064 7.45 6.57 9.54
5/31/2022 10:30:00 AM 18.5 65.3 0.064 7.48 6.48 9.55
5/31/2022 10:45:00 AM 18.76 65.768 0.064 7.56 48.25 9.55
5/31/2022 11:00:00 AM 19.07 66.326 0.064 7.64 6.32 9.56
5/31/2022 11:15:00 AM 19.33 66.794 0.064 7.6 6.35 9.54
5/31/2022 11:30:00 AM 19.44 66.992 0.064 7.7 5.67 9.51
5/31/2022 11:45:00 AM 19.43 66.974 0.064 7.57 5.32 9.46
5/31/2022 12:00:00 PM 19.82 67.676 0.063 7.73 5.54 9.47
5/31/2022 12:15:00 PM 19.86 67.748 0.063 7.69 5.13 9.44
5/31/2022 12:30:00 PM 20.28 68.504 0.063 7.76 4.78 9.42
5/31/2022 12:45:00 PM 20.76 69.368 0.063 7.76 9.01 9.4
5/31/2022 1:00:00 PM 20.87 69.566 0.063 7.62 5.79 9.31
5/31/2022 1:15:00 PM 20.88 69.584 0.063 7.65 7.06 9.26
5/31/2022 1:30:00 PM 20.94 69.692 0.06 7.61 23.36 9.21
5/31/2022 1:45:00 PM 20.95 69.71 0.06 7.61 11.09 9.16
5/31/2022 2:00:00 PM 21.04 69.872 0.063 7.62 6.58 9.13
5/31/2022 2:15:00 PM 20.94 69.692 0.062 7.5 6.42 9.03
5/31/2022 2:30:00 PM 20.92 69.656 0.06 7.53 9.38 9
5/31/2022 2:45:00 PM 21 69.8 0.063 7.43 6.62 9.03
5/31/2022 3:00:00 PM 21.52 70.736 0.06 7.48 4.29 9.05
5/31/2022 3:15:00 PM 21.83 71.294 0.06 7.52 47.48 9.05
5/31/2022 3:30:00 PM 22.06 71.708 0.063 7.61 6.17 9.04
5/31/2022 3:45:00 PM 22.18 71.924 0.062 7.53 7.2 9
5/31/2022 4:00:00 PM 22.07 71.726 0.059 7.53 14.62 8.94
5/31/2022 4:15:00 PM 22.2 71.96 0.062 7.59 8.74 8.88
5/31/2022 4:30:00 PM 22.32 72.176 0.06 7.63 38.08 8.87
5/31/2022 4:45:00 PM 22.35 72.23 0.062 7.51 32.35 8.84
5/31/2022 5:00:00 PM 22.39 72.302 0.06 7.54 42.3 8.83
5/31/2022 5:15:00 PM 22.45 72.41 0.059 7.57 5.81 8.79
5/31/2022 5:30:00 PM 22.43 72.374 0.059 7.55 9.8 8.74
5/31/2022 5:45:00 PM 22.42 72.356 0.059 7.45 15.22 8.67
5/31/2022 6:00:00 PM 22.37 72.266 0.058 7.45 28.7 8.6
5/31/2022 6:15:00 PM 22.32 72.176 0.059 7.44 7.49 8.54
5/31/2022 6:30:00 PM 22.27 72.086 0.059 7.45 7.63 8.5
5/31/2022 6:45:00 PM 22.24 72.032 0.06 7.41 9.28 8.45
5/31/2022 7:00:00 PM 22.2 71.96 0.056 7.38 20.59 8.38
5/31/2022 7:15:00 PM 22.16 71.888 0.06 7.34 18.09 8.32
5/31/2022 7:30:00 PM 22.11 71.798 0.059 7.29 11.98 8.25
5/31/2022 7:45:00 PM 22.04 71.672 0.06 7.23 16.71 8.18
5/31/2022 8:00:00 PM 21.95 71.51 0.061 7.26 21.95 8.11
5/31/2022 8:15:00 PM 21.86 71.348 0.061 7.18 17.4 8.05
5/31/2022 8:30:00 PM 21.76 71.168 0.061 7.16 24.37 7.98
5/31/2022 8:45:00 PM 21.65 70.97 0.063 7.15 7.87 7.93
5/31/2022 9:00:00 PM 21.54 70.772 0.059 7.12 33.08 7.88
5/31/2022 9:15:00 PM 21.44 70.592 0.061 7.11 8.38 7.84
5/31/2022 9:30:00 PM 21.35 70.43 0.061 7.1 7.34 7.81
5/31/2022 9:45:00 PM 21.25 70.25 0.062 7.09 19.45 7.79
5/31/2022 10:00:00 PM 21.15 70.07 0.064 7.06 24.11 7.79
5/31/2022 10:15:00 PM 21.05 69.89 0.064 7.03 10.45 7.79
5/31/2022 10:30:00 PM 20.95 69.71 0.065 7.07 7.64 7.8
5/31/2022 10:45:00 PM 20.85 69.53 0.062 7.05 11.43 7.8
5/31/2022 11:00:00 PM 20.74 69.332 0.059 7.03 29.29 7.82
5/31/2022 11:15:00 PM 20.63 69.134 0.063 7.06 31.81 7.83
5/31/2022 11:30:00 PM 20.52 68.936 0.061 7.07 46.04 7.85
5/31/2022 11:45:00 PM 20.4 68.72 0.059 7.06 31.51 7.87
6/1/2022 12:00:00 AM 20.29 68.522 0.062 7.05 13.04 7.89
6/1/2022 12:15:00 AM 20.18 68.324 0.062 7 14.05 7.92
6/1/2022 12:30:00 AM 20.08 68.144 0.063 7.02 44.7 7.94
6/1/2022 12:45:00 AM 19.98 67.964 0.061 7 21.96 7.96
6/1/2022 1:00:00 AM 19.89 67.802 0.064 7.01 39.89 7.98
6/1/2022 1:15:00 AM 19.79 67.622 0.064 7 26.78 8
6/1/2022 1:30:00 AM 19.69 67.442 0.066 7.02 19.78 8.02
6/1/2022 1:45:00 AM 19.61 67.298 0.066 7.06 7.43 8.04
6/1/2022 2:00:00 AM 19.51 67.118 0.063 6.97 13.59 8.06
6/1/2022 2:15:00 AM 19.42 66.956 0.066 7.03 47.88 8.08
6/1/2022 2:30:00 AM 19.33 66.794 0.065 7.04 10.19 8.09
6/1/2022 2:45:00 AM 19.24 66.632 0.065 7 28.75 8.11
6/1/2022 3:00:00 AM 19.15 66.47 0.062 7.04 61.33 8.14
6/1/2022 3:15:00 AM 19.06 66.308 0.065 7 6.47 8.15
6/1/2022 3:30:00 AM 18.97 66.146 0.067 7.01 13.71 8.17
6/1/2022 3:45:00 AM 18.89 66.002 0.067 6.95 7.29 8.18
6/1/2022 4:00:00 AM 18.8 65.84 0.067 6.99 12.35 8.2
6/1/2022 4:15:00 AM 18.71 65.67799 0.067 7.02 12.55 8.22
6/1/2022 4:30:00 AM 18.62 65.516 0.064 7.03 45.85 8.24
6/1/2022 4:45:00 AM 18.55 65.39 0.06 7.03 35.37 8.26
6/1/2022 5:00:00 AM 18.48 65.264 0.064 7.03 12.01 8.28
6/1/2022 5:15:00 AM 18.4 65.12 0.064 7.03 16.96 8.3
6/1/2022 5:30:00 AM 18.34 65.012 0.059 7.04 44.92 8.32
6/1/2022 5:45:00 AM 18.27 64.886 0.067 6.99 7.71 8.34
6/1/2022 6:00:00 AM 18.2 64.76 0.064 7.03 14.63 8.36
6/1/2022 6:15:00 AM 18.13 64.634 0.067 7.03 6.88 8.39
6/1/2022 6:30:00 AM 18.07 64.526 0.067 7.02 5.92 8.44
6/1/2022 6:45:00 AM 18.03 64.454 0.064 7 13.1 8.49
6/1/2022 7:00:00 AM 17.98 64.364 0.067 7.08 9.5 8.56
6/1/2022 7:15:00 AM 17.96 64.328 0.067 7.08 12.13 8.64
6/1/2022 7:30:00 AM 17.93 64.274 0.063 7.08 16.75 8.72
6/1/2022 7:45:00 AM 17.96 64.328 0.063 7.11 11.65 8.87
6/1/2022 8:00:00 AM 18.03 64.454 0.064 7.15 30.95 8.98
6/1/2022 8:15:00 AM 18.09 64.562 0.061 7.18 39.54 9.05
6/1/2022 8:30:00 AM 18.15 64.67 0.064 7.22 14.8 9.11
6/1/2022 8:45:00 AM 18.24 64.832 0.066 7.22 11.55 9.16
6/1/2022 9:00:00 AM 18.34 65.012 0.063 7.21 66.7 9.2
6/1/2022 9:15:00 AM 18.48 65.264 0.066 7.26 9.55 9.24
6/1/2022 9:30:00 AM 18.64 65.552 0.063 7.25 29.16 9.28
6/1/2022 9:45:00 AM 18.79 65.82201 0.062 7.34 14.82 9.32
6/1/2022 10:00:00 AM 18.96 66.128 0.061 7.42 12.85 9.35
6/1/2022 10:15:00 AM 19.13 66.434 0.061 7.49 54.76 9.38
6/1/2022 10:30:00 AM 19.29 66.722 0.062 7.58 35.22 9.39
6/1/2022 10:45:00 AM 19.57 67.226 0.063 7.62 78.04 9.41
6/1/2022 11:00:00 AM 19.85 67.73 0.065 7.67 19.78 9.43
6/1/2022 11:15:00 AM 20.04 68.07201 0.064 7.7 19.6 9.42
6/1/2022 11:30:00 AM 20.19 68.342 0.061 7.63 30.4 9.39
6/1/2022 11:45:00 AM 20.23 68.414 0.065 7.68 42.62 9.36
6/1/2022 12:00:00 PM 20.1 68.18 0.065 7.51 10.47 9.25
6/1/2022 12:15:00 PM 20.15 68.27 0.064 7.63 10.92 9.26
6/1/2022 12:30:00 PM 20.41 68.738 0.064 7.55 4.84 9.22
6/1/2022 12:45:00 PM 20.7 69.26 0.064 7.65 9.54 9.22
6/1/2022 1:00:00 PM 20.84 69.512 0.064 7.7 8.93 9.21
6/1/2022 1:15:00 PM 21.17 70.106 0.064 7.72 6.86 9.22
6/1/2022 1:30:00 PM 21.6 70.88 0.059 7.75 48.91 9.23
6/1/2022 1:45:00 PM 21.84 71.312 0.06 7.8 8.14 9.22
6/1/2022 2:00:00 PM 22.03 71.654 0.062 7.67 13.61 9.18
6/1/2022 2:15:00 PM 22.38 72.284 0.062 7.81 18.82 9.15
6/1/2022 2:30:00 PM 22.61 72.698 0.062 7.81 28.24 9.11
6/1/2022 2:45:00 PM 22.82 73.076 0.057 7.88 8.37 9.06
6/1/2022 3:00:00 PM 22.89 73.202 0.056 7.87 29.68 9.02
6/1/2022 3:15:00 PM 22.98 73.364 0.059 7.87 32.55 8.98
6/1/2022 3:30:00 PM 22.99 73.382 0.061 7.79 32.17 8.93
6/1/2022 3:45:00 PM 22.76 72.968 0.057 7.66 12.69 8.78
6/1/2022 4:00:00 PM 22.76 72.968 0.061 7.68 18.14 8.79
6/1/2022 4:15:00 PM 22.82 73.076 0.058 7.69 54.81 8.79
6/1/2022 4:30:00 PM 22.68 72.824 0.059 7.63 51.95 8.72
6/1/2022 4:45:00 PM 22.53 72.554 0.063 7.55 28.69 8.59
6/1/2022 5:00:00 PM 22.54 72.57201 0.06 7.62 13.29 8.61
6/1/2022 5:15:00 PM 22.58 72.644 0.06 7.57 8.85 8.63
6/1/2022 5:30:00 PM 22.55 72.59 0.06 7.58 39.13 8.62
6/1/2022 5:45:00 PM 22.55 72.59 0.055 7.6 16.2 8.6
6/1/2022 6:00:00 PM 22.51 72.518 0.052 7.51 32.41 8.56
6/1/2022 6:15:00 PM 22.49 72.482 0.059 7.39 10.93 8.52
6/1/2022 6:30:00 PM 22.45 72.41 0.061 7.47 13.51 8.45
6/1/2022 6:45:00 PM 22.39 72.302 0.061 7.42 22.81 8.36
6/1/2022 7:00:00 PM 22.36 72.248 0.061 7.42 26.3 8.38
6/1/2022 7:15:00 PM 22.27 72.086 0.061 7.39 20.67 8.31
6/1/2022 7:30:00 PM 22.18 71.924 0.061 7.33 12 8.24
6/1/2022 7:45:00 PM 22.09 71.762 0.06 7.32 31.17 8.14
6/1/2022 8:00:00 PM 22 71.6 0.061 7.24 46.6 8.06
6/1/2022 8:15:00 PM 21.9 71.42 0.058 7.21 76.67 7.98
6/1/2022 8:30:00 PM 21.8 71.24 0.064 7.21 8.01 7.89
6/1/2022 8:45:00 PM 21.63 70.934 0.058 7.2 50.79 7.87
6/1/2022 9:00:00 PM 21.61 70.898 0.06 7.18 43.75 7.78
6/1/2022 9:15:00 PM 21.52 70.736 0.078 7.12 10.81 7.73
6/1/2022 9:30:00 PM 21.44 70.592 0.07 7.08 25.82 7.7
6/1/2022 9:45:00 PM 21.37 70.466 0.077 7.09 34.5 7.66
6/1/2022 10:00:00 PM 21.29 70.32201 0.066 7.07 47.61 7.62
6/1/2022 10:15:00 PM 21.19 70.142 0.063 7.04 30.1 7.61
6/1/2022 10:30:00 PM 21.1 69.98 0.062 7.04 30.01 7.62
6/1/2022 10:45:00 PM 21.01 69.818 0.06 7.09 9.68 7.63
6/1/2022 11:00:00 PM 20.92 69.656 0.061 7.08 31.5 7.64
6/1/2022 11:15:00 PM 20.83 69.494 0.063 7.05 42.09 7.66
6/1/2022 11:30:00 PM 20.74 69.332 0.063 7.02 7 7.67
6/1/2022 11:45:00 PM 20.65 69.17 0.063 6.9 27.88 7.69
6/2/2022 12:00:00 AM 20.57 69.026 0.064 7.05 17.96 7.7
6/2/2022 12:15:00 AM 20.49 68.882 0.064 7.04 24.52 7.73
6/2/2022 12:30:00 AM 20.41 68.738 0.065 7.03 10.92 7.75
6/2/2022 12:45:00 AM 20.34 68.612 0.065 7.03 7.12 7.77
6/2/2022 1:00:00 AM 20.26 68.468 0.062 7.03 31.36 7.79
6/2/2022 1:15:00 AM 20.19 68.342 0.064 7.02 25.22 7.8
6/2/2022 1:30:00 AM 20.11 68.198 0.064 7.04 25.06 7.81
6/2/2022 1:45:00 AM 20.02 68.036 0.064 7.05 26.52 7.82
6/2/2022 2:00:00 AM 19.94 67.892 0.066 7.05 14.49 7.84
6/2/2022 2:15:00 AM 19.87 67.766 0.064 7.04 35.16 7.86
6/2/2022 2:30:00 AM 19.8 67.64 0.064 7.04 14.5 7.87
6/2/2022 2:45:00 AM 19.72 67.496 0.061 6.99 7.75 7.9
6/2/2022 3:00:00 AM 19.65 67.37 0.056 7.04 29.73 7.92
6/2/2022 3:15:00 AM 19.58 67.244 0.066 7.01 9.01 7.94
6/2/2022 3:30:00 AM 19.52 67.136 0.063 7.02 8.34 7.95
6/2/2022 3:45:00 AM 19.45 67.01 0.064 7.02 7.13 7.97
6/2/2022 4:00:00 AM 19.38 66.884 0.064 7.03 25.6 7.99
6/2/2022 4:15:00 AM 19.31 66.758 0.065 7.04 9.57 8.01
6/2/2022 4:30:00 AM 19.24 66.632 0.06 7.04 13.91 8.03
6/2/2022 4:45:00 AM 19.18 66.524 0.067 7.06 7.21 8.04
6/2/2022 5:00:00 AM 19.11 66.398 0.067 7.06 6.78 8.06
6/2/2022 5:15:00 AM 19.05 66.29 0.067 7.02 12.04 8.07
6/2/2022 5:30:00 AM 18.98 66.164 0.067 7.04 41.5 8.09
6/2/2022 5:45:00 AM 18.91 66.038 0.067 7.02 9.58 8.12
6/2/2022 6:00:00 AM 18.85 65.93 0.064 7.01 17.2 8.15
6/2/2022 6:15:00 AM 18.8 65.84 0.061 7.05 7.25 8.18
6/2/2022 6:30:00 AM 18.75 65.75 0.067 7.04 4.26 8.23
6/2/2022 6:45:00 AM 18.71 65.67799 0.064 7.04 12.27 8.28
6/2/2022 7:00:00 AM 18.67 65.606 0.063 7.04 5.14 8.3
6/2/2022 7:15:00 AM 18.63 65.534 0.066 7.07 7.71 8.35
6/2/2022 7:30:00 AM 18.59 65.462 0.067 7.07 5.32 8.41
6/2/2022 7:45:00 AM 18.56 65.408 0.065 7.12 8.36 8.45
6/2/2022 8:00:00 AM 18.53 65.354 0.061 7.12 6.02 8.5
6/2/2022 8:15:00 AM 18.52 65.336 0.067 7.16 4.06 8.59
6/2/2022 8:30:00 AM 18.52 65.336 0.064 7.14 5.91 8.71
6/2/2022 8:45:00 AM 18.53 65.354 0.065 7.14 16.84 8.8
6/2/2022 9:00:00 AM 18.53 65.354 0.067 7.21 6.13 8.88
6/2/2022 9:15:00 AM 18.55 65.39 0.066 7.22 6.42 8.95
6/2/2022 9:30:00 AM 18.57 65.426 0.065 7.3 10.47 9
6/2/2022 9:45:00 AM 18.59 65.462 0.066 7.32 10.88 9.07
6/2/2022 10:00:00 AM 18.65 65.57 0.065 7.36 9.95 9.15
6/2/2022 10:15:00 AM 18.7 65.66 0.06 7.39 13.49 9.21
6/2/2022 10:30:00 AM 18.77 65.786 0.062 7.44 18.48 9.27
6/2/2022 10:45:00 AM 18.86 65.948 0.063 7.38 12.17 9.3
6/2/2022 11:00:00 AM 18.91 66.038 0.062 7.46 7.72 9.33
6/2/2022 11:15:00 AM 18.94 66.092 0.062 7.54 21.94 9.34
6/2/2022 11:30:00 AM 18.96 66.128 0.062 7.56 38.55 9.32
6/2/2022 11:45:00 AM 19.01 66.218 0.059 7.59 14.57 9.33
6/2/2022 12:00:00 PM 19.06 66.308 0.062 7.61 10.81 9.35
6/2/2022 12:15:00 PM 19.05 66.29 0.062 7.49 9.25 9.28
6/2/2022 12:30:00 PM 19 66.2 0.06 7.45 10.32 9.18
6/2/2022 12:45:00 PM 18.94 66.092 0.065 7.35 6.56 9.02
6/2/2022 1:00:00 PM 18.92 66.056 0.062 7.16 5.95 8.99
6/2/2022 1:15:00 PM 18.91 66.038 0.06 7.34 13.23 8.97
6/2/2022 1:30:00 PM 19 66.2 0.062 7.46 9.15 9.05
6/2/2022 1:45:00 PM 19.13 66.434 0.064 7.63 3.93 9.17
6/2/2022 2:00:00 PM 19.41 66.938 0.062 7.67 14.23 9.26
6/2/2022 2:15:00 PM 19.52 67.136 0.061 7.65 8.35 9.31
6/2/2022 2:30:00 PM 20.06 68.108 0.058 7.71 37.99 9.33
6/2/2022 2:45:00 PM 20.55 68.99 0.064 7.69 4.87 9.33
6/2/2022 3:00:00 PM 20.63 69.134 0.064 7.68 4.36 9.31
6/2/2022 3:15:00 PM 20.71 69.278 0.064 7.64 6.68 9.29
6/2/2022 3:30:00 PM 20.77 69.386 0.063 7.74 4.25 9.27
6/2/2022 3:45:00 PM 21.08 69.944 0.06 7.76 6.81 9.24
6/2/2022 4:00:00 PM 20.97 69.746 0.063 7.74 5.5 9.2
6/2/2022 4:15:00 PM 21.08 69.944 0.062 7.7 5.85 9.17
6/2/2022 4:30:00 PM 21.12 70.016 0.063 7.74 5.52 9.14
6/2/2022 4:45:00 PM 21.19 70.142 0.057 7.78 9.37 9.1
6/2/2022 5:00:00 PM 21.16 70.088 0.057 7.79 23.85 9.07
6/2/2022 5:15:00 PM 21.12 70.016 0.06 7.77 51.14 8.99
6/2/2022 5:30:00 PM 21.07 69.926 0.063 7.64 4.51 8.91
6/2/2022 5:45:00 PM 20.99 69.782 0.063 7.57 4.31 8.79
6/2/2022 6:00:00 PM 20.92 69.656 0.063 7.53 4.88 8.74
6/2/2022 6:15:00 PM 20.83 69.494 0.063 7.51 19.9 8.67
6/2/2022 6:30:00 PM 20.76 69.368 0.063 7.47 4.34 8.65
6/2/2022 6:45:00 PM 20.74 69.332 0.063 7.45 6.13 8.62
6/2/2022 7:00:00 PM 20.69 69.242 0.063 7.35 4.71 8.56
6/2/2022 7:15:00 PM 20.63 69.134 0.063 7.35 4.19 8.45
6/2/2022 7:30:00 PM 20.57 69.026 0.062 7.32 7.59 8.35
6/2/2022 7:45:00 PM 20.5 68.9 0.064 7.24 5.26 8.27
6/2/2022 8:00:00 PM 20.44 68.792 0.061 7.25 6.39 8.21
6/2/2022 8:15:00 PM 20.34 68.612 0.063 7.19 7.15 8.15
6/2/2022 8:30:00 PM 20.26 68.468 0.06 7.22 13.14 8.11
6/2/2022 8:45:00 PM 20.17 68.306 0.065 7.22 5.55 8.07
6/2/2022 9:00:00 PM 20.09 68.162 0.065 7.19 5.15 8.03
6/2/2022 9:15:00 PM 19.96 67.92799 0.064 7.11 5.57 8.03
6/2/2022 9:30:00 PM 19.85 67.73 0.065 7.16 4.83 8
6/2/2022 9:45:00 PM 19.76 67.568 0.065 7.13 5.37 7.98
6/2/2022 10:00:00 PM 19.64 67.352 0.066 7.15 5.11 7.99
6/2/2022 10:15:00 PM 19.54 67.172 0.063 7.12 12.97 7.99
6/2/2022 10:30:00 PM 19.43 66.974 0.066 7.15 4.88 8
6/2/2022 10:45:00 PM 19.33 66.794 0.063 7.09 8.56 8.02
6/2/2022 11:00:00 PM 19.23 66.614 0.063 7.13 15.11 8.04
6/2/2022 11:15:00 PM 19.14 66.452 0.064 7.11 14.28 8.06
6/2/2022 11:30:00 PM 19.04 66.272 0.061 7.11 14.49 8.07
6/2/2022 11:45:00 PM 18.95 66.11 0.064 7.1 34.46 8.09
6/3/2022 12:00:00 AM 18.86 65.948 0.062 7.09 8.45 8.11
6/3/2022 12:15:00 AM 18.78 65.804 0.067 7.05 5.48 8.13
6/3/2022 12:30:00 AM 18.69 65.642 0.067 7.11 4.65 8.14
6/3/2022 12:45:00 AM 18.6 65.48 0.066 7.11 14.53 8.17
6/3/2022 1:00:00 AM 18.52 65.336 0.064 7.12 13.09 8.19
6/3/2022 1:15:00 AM 18.42 65.156 0.061 7.11 8.67 8.21
6/3/2022 1:30:00 AM 18.3 64.94 0.066 7.1 9.03 8.22
6/3/2022 1:45:00 AM 18.19 64.742 0.065 7.06 5.42 8.24
6/3/2022 2:00:00 AM 18.07 64.526 0.064 7.09 39.74 8.27
6/3/2022 2:15:00 AM 17.95 64.31 0.06 7.09 8.31 8.3
6/3/2022 2:30:00 AM 17.83 64.094 0.064 7.11 20 8.32
6/3/2022 2:45:00 AM 17.71 63.878 0.062 7.11 52.29 8.35
6/3/2022 3:00:00 AM 17.59 63.662 0.065 7.11 19.42 8.37
6/3/2022 3:15:00 AM 17.47 63.446 0.066 7.12 6.77 8.39
6/3/2022 3:30:00 AM 17.35 63.23 0.066 7.11 7.2 8.42
6/3/2022 3:45:00 AM 17.23 63.014 0.067 7.09 5.33 8.45
6/3/2022 4:00:00 AM 17.11 62.798 0.063 7.1 40.8 8.48
6/3/2022 4:15:00 AM 16.99 62.582 0.066 7.04 10.22 8.5
6/3/2022 4:30:00 AM 16.88 62.384 0.062 7.09 15.28 8.53
6/3/2022 4:45:00 AM 16.77 62.186 0.067 7.1 5.71 8.56
6/3/2022 5:00:00 AM 16.67 62.006 0.067 7.1 4.8 8.59
6/3/2022 5:15:00 AM 16.57 61.826 0.067 6.99 12.13 8.61
6/3/2022 5:30:00 AM 16.46 61.628 0.067 7.1 4.49 8.64
6/3/2022 5:45:00 AM 16.36 61.448 0.067 7.11 8.96 8.68
6/3/2022 6:00:00 AM 16.26 61.268 0.063 7.11 9.45 8.72
6/3/2022 6:15:00 AM 16.16 61.088 0.067 7.13 5.16 8.77
6/3/2022 6:30:00 AM 16.07 60.926 0.067 7.15 5.07 8.83
6/3/2022 6:45:00 AM 16 60.8 0.067 7.16 4.87 8.92
6/3/2022 7:00:00 AM 15.94 60.692 0.067 7.18 4.97 9.04
6/3/2022 7:15:00 AM 15.86 60.548 0.067 7.15 4.33 9.11
6/3/2022 7:30:00 AM 15.79 60.422 0.067 7.16 9.29 9.2
6/3/2022 7:45:00 AM 15.79 60.422 0.066 7.18 4.82 9.3
6/3/2022 8:00:00 AM 15.83 60.494 0.066 7.21 6.99 9.39
6/3/2022 8:15:00 AM 15.85 60.53 0.066 7.25 5.06 9.44
6/3/2022 8:30:00 AM 15.9 60.62 0.066 7.29 5.69 9.48
6/3/2022 8:45:00 AM 15.98 60.764 0.066 7.31 5.93 9.53
6/3/2022 9:00:00 AM 16.08 60.944 0.062 7.34 78.31 9.56
6/3/2022 9:15:00 AM 16.21 61.178 0.066 7.36 6.73 9.61
6/3/2022 9:30:00 AM 16.36 61.448 0.066 7.36 5.97 9.64
6/3/2022 9:45:00 AM 16.54 61.772 0.066 7.44 6.99 9.66
6/3/2022 10:00:00 AM 16.73 62.114 0.066 7.46 6.18 9.68
6/3/2022 10:15:00 AM 16.96 62.528 0.066 7.48 7.49 9.69
6/3/2022 10:30:00 AM 17.18 62.924 0.066 7.54 5.73 9.7
6/3/2022 10:45:00 AM 17.45 63.41 0.065 7.53 5.33 9.69
6/3/2022 11:00:00 AM 17.73 63.914 0.065 7.6 5.59 9.69
6/3/2022 11:15:00 AM 18 64.4 0.065 7.67 5.84 9.68
6/3/2022 11:30:00 AM 18.3 64.94 0.065 7.74 126.28 9.67
6/3/2022 11:45:00 AM 18.59 65.462 0.065 7.77 5.87 9.66
6/3/2022 12:00:00 PM 18.72 65.696 0.065 7.64 5.92 9.59
6/3/2022 12:15:00 PM 18.98 66.164 0.065 7.73 6.05 9.57
6/3/2022 12:30:00 PM 18.93 66.074 0.065 7.69 6.56 9.53
6/3/2022 12:45:00 PM 19.23 66.614 0.064 7.7 6.37 9.52
6/3/2022 1:00:00 PM 19.24 66.632 0.064 7.69 57.15 9.47
6/3/2022 1:15:00 PM 19.65 67.37 0.064 7.72 5.54 9.46
6/3/2022 1:30:00 PM 19.87 67.766 0.064 7.69 6.56 9.43
6/3/2022 1:45:00 PM 20.02 68.036 0.064 7.63 49.26 9.37
6/3/2022 2:00:00 PM 20.42 68.756 0.064 7.72 6.89 9.36
6/3/2022 2:15:00 PM 20.64 69.152 0.064 7.72 6.09 9.32
6/3/2022 2:30:00 PM 20.62 69.116 0.064 7.72 5.94 9.25
6/3/2022 2:45:00 PM 20.97 69.746 0.064 7.75 6.12 9.23
6/3/2022 3:00:00 PM 21.12 70.016 0.064 7.72 5.89 9.21
6/3/2022 3:15:00 PM 21.25 70.25 0.064 7.71 6.3 9.16
6/3/2022 3:30:00 PM 21.23 70.214 0.064 7.67 5.76 9.1
6/3/2022 3:45:00 PM 21.25 70.25 0.064 7.67 5.84 9.05
6/3/2022 4:00:00 PM 21.39 70.502 0.064 7.67 5.93 9.02
6/3/2022 4:15:00 PM 21.43 70.574 0.064 7.66 6.24 9.01
6/3/2022 4:30:00 PM 21.48 70.664 0.064 7.59 5.32 8.98
6/3/2022 4:45:00 PM 21.46 70.628 0.064 7.59 5.62 8.94
6/3/2022 5:00:00 PM 21.41 70.538 0.064 7.61 6.1 8.89
6/3/2022 5:15:00 PM 21.34 70.412 0.064 7.59 5.21 8.85
6/3/2022 5:30:00 PM 21.22 70.196 0.063 7.56 6.08 8.79
6/3/2022 5:45:00 PM 21.09 69.962 0.064 7.54 5.82 8.73
6/3/2022 6:00:00 PM 20.98 69.764 0.064 7.48 5.31 8.67
6/3/2022 6:15:00 PM 20.88 69.584 0.064 7.45 5.38 8.62
6/3/2022 6:30:00 PM 20.78 69.404 0.064 7.44 5.25 8.56
6/3/2022 6:45:00 PM 20.72 69.296 0.064 7.42 6.32 8.53
6/3/2022 7:00:00 PM 20.6 69.08 0.064 7.4 5.34 8.48
6/3/2022 7:15:00 PM 20.48 68.864 0.064 7.37 6.04 8.43
6/3/2022 7:30:00 PM 20.37 68.666 0.064 7.36 4.63 8.39
6/3/2022 7:45:00 PM 20.24 68.432 0.064 7.32 6.35 8.34
6/3/2022 8:00:00 PM 20.11 68.198 0.064 7.21 6.35 8.29
6/3/2022 8:15:00 PM 19.96 67.92799 0.064 7.28 4.95 8.24
6/3/2022 8:30:00 PM 19.8 67.64 0.065 7.25 5.3 8.19
6/3/2022 8:45:00 PM 19.65 67.37 0.065 7.25 7.16 8.15
6/3/2022 9:00:00 PM 19.5 67.1 0.065 7.21 6.53 8.12
6/3/2022 9:15:00 PM 19.36 66.848 0.065 7.18 5.77 8.09
6/3/2022 9:30:00 PM 19.23 66.614 0.065 7.07 7.01 8.08
6/3/2022 9:45:00 PM 19.11 66.398 0.065 7.16 6.17 8.07
6/3/2022 10:00:00 PM 18.98 66.164 0.065 7.15 5.78 8.08
6/3/2022 10:15:00 PM 18.85 65.93 0.065 7.12 6.28 8.08
6/3/2022 10:30:00 PM 18.72 65.696 0.065 7.14 6.28 8.11
6/3/2022 10:45:00 PM 18.59 65.462 0.065 7.12 7.53 8.12
6/3/2022 11:00:00 PM 18.45 65.21 0.066 7.12 7.07 8.15
6/3/2022 11:15:00 PM 18.3 64.94 0.066 7.12 6.97 8.17
6/3/2022 11:30:00 PM 18.15 64.67 0.066 7.01 6.17 8.2
6/3/2022 11:45:00 PM 18.01 64.418 0.066 7.12 6 8.23
6/4/2022 12:00:00 AM 17.87 64.166 0.066 7.13 6.2 8.26
6/4/2022 12:15:00 AM 17.73 63.914 0.066 7.1 5.99 8.29
6/4/2022 12:30:00 AM 17.6 63.68 0.066 7.13 37.96 8.31
6/4/2022 12:45:00 AM 17.46 63.428 0.066 7.14 26.7 8.34
6/4/2022 1:00:00 AM 17.32 63.176 0.066 7.15 8.68 8.38
6/4/2022 1:15:00 AM 17.2 62.96 0.066 7.11 13.37 8.41
6/4/2022 1:30:00 AM 17.07 62.726 0.066 7.13 14.04 8.44
6/4/2022 1:45:00 AM 16.95 62.51 0.067 7.11 11.85 8.47
6/4/2022 2:00:00 AM 16.82 62.276 0.067 7.1 19.61 8.5
6/4/2022 2:15:00 AM 16.69 62.042 0.067 7.05 13.78 8.53
6/4/2022 2:30:00 AM 16.57 61.826 0.067 7.1 11.04 8.56
6/4/2022 2:45:00 AM 16.44 61.592 0.067 7.11 10.96 8.59
6/4/2022 3:00:00 AM 16.32 61.376 0.067 7.04 10.55 8.62
6/4/2022 3:15:00 AM 16.19 61.142 0.064 7.1 49.22 8.65
6/4/2022 3:30:00 AM 16.07 60.926 0.067 7.06 7.91 8.68
6/4/2022 3:45:00 AM 15.95 60.71 0.067 7.06 6.97 8.71
6/4/2022 4:00:00 AM 15.82 60.476 0.064 7.08 57.79 8.74
6/4/2022 4:15:00 AM 15.7 60.26 0.066 7.08 58.66 8.77
6/4/2022 4:30:00 AM 15.58 60.044 0.067 7.09 13.7 8.8
6/4/2022 4:45:00 AM 15.47 59.846 0.066 7.06 14.35 8.83
6/4/2022 5:00:00 AM 15.36 59.648 0.06 7.05 87.7 8.86
6/4/2022 5:15:00 AM 15.25 59.45 0.067 7.03 12.17 8.9
6/4/2022 5:30:00 AM 15.15 59.27 0.064 7 81 8.92
6/4/2022 5:45:00 AM 15.05 59.09 0.066 6.96 9.24 8.96
6/4/2022 6:00:00 AM 14.96 58.928 0.066 7.03 14.45 9.01
6/4/2022 6:15:00 AM 14.86 58.748 0.064 7.09 81.57 9.06
6/4/2022 6:30:00 AM 14.8 58.64 0.067 6.99 72.72 9.12
6/4/2022 6:45:00 AM 14.73 58.514 0.067 7.13 13.31 9.2
6/4/2022 7:00:00 AM 14.68 58.424 0.067 7.08 15.92 9.31
6/4/2022 7:15:00 AM 14.63 58.334 0.067 7.18 15.57 9.41
6/4/2022 7:30:00 AM 14.64 58.352 0.067 7.21 13.38 9.53
6/4/2022 7:45:00 AM 14.65 58.37 0.067 7.22 11.56 9.62
6/4/2022 8:00:00 AM 14.66 58.388 0.067 7.21 15.38 9.69
6/4/2022 8:15:00 AM 14.68 58.424 0.067 7.27 14.56 9.73
6/4/2022 8:30:00 AM 14.75 58.55 0.064 7.29 96.46 9.77
6/4/2022 8:45:00 AM 14.84 58.712 0.065 7.32 110.32 9.82
6/4/2022 9:00:00 AM 14.98 58.964 0.066 7.31 129.7 9.86
6/4/2022 9:15:00 AM 15.15 59.27 0.064 7.34 118.06 9.89
6/4/2022 9:30:00 AM 15.34 59.612 0.066 7.28 8.3 9.92
6/4/2022 9:45:00 AM 15.55 59.99 0.066 7.5 22.91 9.94
6/4/2022 10:00:00 AM 15.78 60.404 0.063 7.43 33.91 9.96
6/4/2022 10:15:00 AM 16.01 60.818 0.063 7.37 95.42 9.96
6/4/2022 10:30:00 AM 16.23 61.214 0.059 7.55 100.12 9.95
6/4/2022 10:45:00 AM 16.54 61.772 0.059 7.43 89.87 9.95
6/4/2022 11:00:00 AM 16.82 62.276 0.066 7.6 24.24 9.94
6/4/2022 11:15:00 AM 17.13 62.834 0.063 7.46 36.1 9.93
6/4/2022 11:30:00 AM 17.42 63.356 0.064 7.69 12.09 9.91
6/4/2022 11:45:00 AM 17.73 63.914 0.06 7.55 107.91 9.88
6/4/2022 12:00:00 PM 18.04 64.472 0.062 7.67 38.21 9.85
6/4/2022 12:15:00 PM 18.32 64.976 0.064 7.84 26.76 9.83
6/4/2022 12:30:00 PM 18.62 65.516 0.065 7.75 18.47 9.78
6/4/2022 12:45:00 PM 18.91 66.038 0.065 7.72 70.12 9.75
6/4/2022 1:00:00 PM 19.28 66.704 0.065 7.63 24.2 9.7
6/4/2022 1:15:00 PM 19.57 67.226 0.065 7.75 21.32 9.65
6/4/2022 1:30:00 PM 19.88 67.784 0.065 7.72 25.84 9.6
6/4/2022 1:45:00 PM 20.17 68.306 0.064 7.69 57.22 9.54
6/4/2022 2:00:00 PM 20.46 68.828 0.064 7.61 3.97 9.49
6/4/2022 2:15:00 PM 20.7 69.26 0.064 7.72 4.02 9.43
6/4/2022 2:30:00 PM 20.9 69.62 0.063 7.71 5.59 9.38
6/4/2022 2:45:00 PM 21.1 69.98 0.064 7.72 3.92 9.32
6/4/2022 3:00:00 PM 21.23 70.214 0.062 7.67 4.93 9.28
6/4/2022 3:15:00 PM 21.37 70.466 0.064 7.64 3.76 9.22
6/4/2022 3:30:00 PM 21.42 70.556 0.064 7.65 3.34 9.17
6/4/2022 3:45:00 PM 21.48 70.664 0.064 7.62 3.8 9.12
6/4/2022 4:00:00 PM 21.46 70.628 0.064 7.6 3.52 9.09
6/4/2022 4:15:00 PM 21.46 70.628 0.064 7.6 3.45 9.04
6/4/2022 4:30:00 PM 21.42 70.556 0.064 7.6 3.87 8.99
6/4/2022 4:45:00 PM 21.28 70.304 0.061 7.58 4.8 8.95
6/4/2022 5:00:00 PM 21.16 70.088 0.064 7.58 3.56 8.91
6/4/2022 5:15:00 PM 21.03 69.854 0.064 7.54 3.35 8.86
6/4/2022 5:30:00 PM 20.88 69.584 0.064 7.54 3.43 8.82
6/4/2022 5:45:00 PM 20.74 69.332 0.064 7.54 3.24 8.77
6/4/2022 6:00:00 PM 20.52 68.936 0.064 7.48 3.51 8.72
6/4/2022 6:15:00 PM 20.37 68.666 0.064 7.33 3.29 8.67
6/4/2022 6:30:00 PM 20.26 68.468 0.064 7.42 3.46 8.63
6/4/2022 6:45:00 PM 20.13 68.234 0.064 7.41 2.93 8.6
6/4/2022 7:00:00 PM 19.99 67.982 0.065 7.4 2.63 8.55
6/4/2022 7:15:00 PM 19.83 67.694 0.065 7.37 51.63 8.52
6/4/2022 7:30:00 PM 19.66 67.388 0.065 7.34 2.58 8.49
6/4/2022 7:45:00 PM 19.49 67.082 0.06 7.34 6.36 8.45
6/4/2022 8:00:00 PM 19.31 66.758 0.065 7.31 2.66 8.42
6/4/2022 8:15:00 PM 19.11 66.398 0.065 7.27 2.61 8.37
6/4/2022 8:30:00 PM 18.91 66.038 0.065 7.28 2.54 8.33
6/4/2022 8:45:00 PM 18.72 65.696 0.065 7.29 2.59 8.3
6/4/2022 9:00:00 PM 18.54 65.372 0.065 7.22 3 8.29
6/4/2022 9:15:00 PM 18.37 65.066 0.066 7.24 2.67 8.27
6/4/2022 9:30:00 PM 18.22 64.796 0.066 7.21 3.22 8.26
6/4/2022 9:45:00 PM 18.07 64.526 0.066 7.2 2.9 8.26
6/4/2022 10:00:00 PM 17.93 64.274 0.066 7.2 2.73 8.26
6/4/2022 10:15:00 PM 17.79 64.022 0.063 7.16 3.5 8.28
6/4/2022 10:30:00 PM 17.65 63.77 0.063 7.09 3.19 8.29
6/4/2022 10:45:00 PM 17.5 63.5 0.066 7.2 2.86 8.32
6/4/2022 11:00:00 PM 17.36 63.248 0.065 7.2 2.86 8.34
6/4/2022 11:15:00 PM 17.25 63.05 0.066 7.16 3.24 8.37
6/4/2022 11:30:00 PM 17.1 62.78 0.066 7.12 2.81 8.4
6/4/2022 11:45:00 PM 16.96 62.528 0.066 7.15 3.41 8.44
6/5/2022 12:00:00 AM 16.82 62.276 0.066 7.17 3.05 8.47
6/5/2022 12:15:00 AM 16.67 62.006 0.067 7.18 509.74 8.5
6/5/2022 12:30:00 AM 16.52 61.736 0.067 7.1 2.88 8.54
6/5/2022 12:45:00 AM 16.37 61.466 0.067 7.14 2.93 8.58
6/5/2022 1:00:00 AM 16.22 61.196 0.067 7.15 2.89 8.61
6/5/2022 1:15:00 AM 16.06 60.908 0.067 7.12 2.91 8.65
6/5/2022 1:30:00 AM 15.91 60.638 0.066 7.14 3.33 8.69
6/5/2022 1:45:00 AM 15.75 60.35 0.064 7.14 4.5 8.72
6/5/2022 2:00:00 AM 15.6 60.08 0.064 7.08 4.1 8.76
6/5/2022 2:15:00 AM 15.45 59.81 0.067 7.17 2.96 8.8
6/5/2022 2:30:00 AM 15.3 59.54 0.064 7.11 4.07 8.83
6/5/2022 2:45:00 AM 15.16 59.288 0.064 7.14 3.43 8.87
6/5/2022 3:00:00 AM 15.02 59.036 0.067 7.14 2.84 8.91
6/5/2022 3:15:00 AM 14.88 58.784 0.064 7.02 3.71 8.94
6/5/2022 3:30:00 AM 14.75 58.55 0.067 7.15 2.94 8.98
6/5/2022 3:45:00 AM 14.62 58.316 0.067 7.17 2.92 9.01
6/5/2022 4:00:00 AM 14.51 58.118 0.067 7.18 3 9.04
6/5/2022 4:15:00 AM 14.39 57.902 0.067 7.17 2.96 9.07
6/5/2022 4:30:00 AM 14.28 57.704 0.067 6.96 3.01 9.1
6/5/2022 4:45:00 AM 14.16 57.488 0.065 7.15 3.42 9.14
6/5/2022 5:00:00 AM 14.05 57.29 0.067 7.13 3.02 9.17
6/5/2022 5:15:00 AM 13.98 57.164 0.067 7.13 2.96 9.19
6/5/2022 5:30:00 AM 13.87 56.966 0.067 7.11 2.91 9.22
6/5/2022 5:45:00 AM 13.76 56.768 0.068 7.09 2.87 9.25
6/5/2022 6:00:00 AM 13.66 56.588 0.065 6.94 3.45 9.3
6/5/2022 6:15:00 AM 13.55 56.39 0.067 7.14 2.9 9.36
6/5/2022 6:30:00 AM 13.46 56.228 0.065 7.13 3.27 9.42
6/5/2022 6:45:00 AM 13.37 56.066 0.066 7.09 4.12 9.49
6/5/2022 7:00:00 AM 13.29 55.922 0.063 7.15 3.27 9.56
6/5/2022 7:15:00 AM 13.26 55.868 0.067 7.18 3.24 9.68
6/5/2022 7:30:00 AM 13.24 55.832 0.067 7.17 2.92 9.77
6/5/2022 7:45:00 AM 13.26 55.868 0.067 7.2 2.82 9.87
6/5/2022 8:00:00 AM 13.3 55.94 0.067 7.27 2.83 9.96
6/5/2022 8:15:00 AM 13.39 56.102 0.067 7.25 2.87 10.04
6/5/2022 8:30:00 AM 13.44 56.192 0.067 7.33 2.8 10.1
6/5/2022 8:45:00 AM 13.55 56.39 0.066 7.35 3.94 10.16
6/5/2022 9:00:00 AM 13.66 56.588 0.067 7.42 2.98 10.23
6/5/2022 9:15:00 AM 13.65 56.57 0.067 7.46 2.99 10.27
6/5/2022 9:30:00 AM 13.71 56.678 0.066 7.49 3 10.33
6/5/2022 9:45:00 AM 13.81 56.858 0.066 7.56 2.94 10.38
6/5/2022 10:00:00 AM 13.94 57.092 0.066 7.59 3.03 10.42
6/5/2022 10:15:00 AM 14.06 57.308 0.066 7.63 4.19 10.46
6/5/2022 10:30:00 AM 14.29 57.722 0.066 7.68 3.05 10.48
6/5/2022 10:45:00 AM 14.5 58.1 0.062 7.72 3.28 10.5
6/5/2022 11:00:00 AM 14.67 58.406 0.065 7.76 2.99 10.5
6/5/2022 11:15:00 AM 14.92 58.856 0.065 7.83 2.92 10.48
6/5/2022 11:30:00 AM 15.25 59.45 0.065 7.84 2.78 10.46
6/5/2022 11:45:00 AM 15.56 60.008 0.065 7.9 2.88 10.43
6/5/2022 12:00:00 PM 15.92 60.656 0.065 7.72 2.78 10.4
6/5/2022 12:15:00 PM 16.25 61.25 0.062 7.92 3.1 10.36
6/5/2022 12:30:00 PM 16.72 62.096 0.065 7.91 2.83 10.3
6/5/2022 12:45:00 PM 17.06 62.708 0.062 7.92 3.44 10.24
6/5/2022 1:00:00 PM 17.43 63.374 0.064 7.9 2.9 10.18
6/5/2022 1:15:00 PM 17.58 63.644 0.064 7.92 3.12 10.15
6/5/2022 1:30:00 PM 17.86 64.148 0.064 7.91 2.85 10.08
6/5/2022 1:45:00 PM 18.28 64.904 0.064 7.83 2.82 10.01
6/5/2022 2:00:00 PM 18.54 65.372 0.064 7.88 2.89 9.95
6/5/2022 2:15:00 PM 18.92 66.056 0.064 7.85 2.73 9.87
6/5/2022 2:30:00 PM 19.19 66.542 0.064 7.88 2.6 9.81
6/5/2022 2:45:00 PM 19.5 67.1 0.064 7.83 2.62 9.74
6/5/2022 3:00:00 PM 19.73 67.514 0.064 7.78 2.65 9.67
6/5/2022 3:15:00 PM 19.93 67.874 0.064 7.73 3.37 9.6
6/5/2022 3:30:00 PM 20.05 68.09 0.064 7.74 2.59 9.51
6/5/2022 3:45:00 PM 20.15 68.27 0.064 7.74 2.65 9.45
6/5/2022 4:00:00 PM 20.01 68.018 0.065 7.76 3.18 9.41
6/5/2022 4:15:00 PM 20.14 68.252 0.064 7.73 2.69 9.36
6/5/2022 4:30:00 PM 20.19 68.342 0.064 7.74 2.71 9.33
6/5/2022 4:45:00 PM 20 68 0.061 7.74 3.13 9.32
6/5/2022 5:00:00 PM 20.01 68.018 0.062 7.69 3.08 9.26
6/5/2022 5:15:00 PM 19.95 67.91 0.064 7.67 2.71 9.2
6/5/2022 5:30:00 PM 19.9 67.82 0.064 7.64 2.61 9.14
6/5/2022 5:45:00 PM 19.78 67.604 0.061 7.4 3.74 9.06
6/5/2022 6:00:00 PM 19.67 67.406 0.063 7.54 3.14 8.99
6/5/2022 6:15:00 PM 19.57 67.226 0.064 7.52 2.79 8.91
6/5/2022 6:30:00 PM 19.46 67.028 0.06 7.5 3.15 8.86
6/5/2022 6:45:00 PM 19.41 66.938 0.064 7.48 2.55 8.87
6/5/2022 7:00:00 PM 19.38 66.884 0.064 7.44 2.71 8.86
6/5/2022 7:15:00 PM 19.28 66.704 0.064 7.46 19.67 8.82
6/5/2022 7:30:00 PM 19.17 66.506 0.064 7.41 2.69 8.76
6/5/2022 7:45:00 PM 19.05 66.29 0.064 7.4 2.7 8.7
6/5/2022 8:00:00 PM 18.94 66.092 0.064 7.37 2.73 8.63
6/5/2022 8:15:00 PM 18.81 65.858 0.065 7.33 2.73 8.55
6/5/2022 8:30:00 PM 18.68 65.624 0.065 7.18 2.76 8.49
6/5/2022 8:45:00 PM 18.54 65.372 0.064 7.3 3.25 8.43
6/5/2022 9:00:00 PM 18.4 65.12 0.065 7.26 2.82 8.37
6/5/2022 9:15:00 PM 18.27 64.886 0.065 7.23 2.77 8.34
6/5/2022 9:30:00 PM 18.16 64.688 0.066 7.22 3.14 8.31
6/5/2022 9:45:00 PM 18.06 64.508 0.066 7.2 2.79 8.3
6/5/2022 10:00:00 PM 17.97 64.346 0.066 7.19 2.8 8.29
6/5/2022 10:15:00 PM 17.86 64.148 0.066 7.19 2.88 8.28
6/5/2022 10:30:00 PM 17.75 63.95 0.066 7.17 3.4 8.29
6/5/2022 10:45:00 PM 17.64 63.752 0.066 7.16 3.02 8.3
6/5/2022 11:00:00 PM 17.53 63.554 0.066 7.08 2.92 8.32
6/5/2022 11:15:00 PM 17.41 63.338 0.066 7.16 3.03 8.33
6/5/2022 11:30:00 PM 17.3 63.14 0.066 7.12 2.93 8.35
6/5/2022 11:45:00 PM 17.19 62.942 0.066 7.14 2.93 8.37
6/6/2022 12:00:00 AM 17.08 62.744 0.066 7.1 2.91 8.39
6/6/2022 12:15:00 AM 16.96 62.528 0.066 7.12 3.05 8.42
6/6/2022 12:30:00 AM 16.84 62.312 0.067 7.12 2.87 8.45
6/6/2022 12:45:00 AM 16.72 62.096 0.067 7.11 2.98 8.47
6/6/2022 1:00:00 AM 16.59 61.862 0.067 7.1 2.9 8.5
6/6/2022 1:15:00 AM 16.47 61.646 0.067 7.11 2.89 8.53
6/6/2022 1:30:00 AM 16.35 61.43 0.067 7.09 3.02 8.55
6/6/2022 1:45:00 AM 16.23 61.214 0.067 7.13 2.92 8.59
6/6/2022 2:00:00 AM 16.11 60.998 0.067 7.03 2.96 8.62
6/6/2022 2:15:00 AM 15.99 60.782 0.067 7.06 3.04 8.64
6/6/2022 2:30:00 AM 15.86 60.548 0.067 7.09 2.91 8.68
6/6/2022 2:45:00 AM 15.74 60.332 0.067 7.11 2.81 8.71
6/6/2022 3:00:00 AM 15.62 60.116 0.067 7.1 2.92 8.74
6/6/2022 3:15:00 AM 15.5 59.9 0.067 7.11 2.92 8.77
6/6/2022 3:30:00 AM 15.39 59.702 0.067 7.1 2.85 8.8
6/6/2022 3:45:00 AM 15.27 59.486 0.067 7.1 2.9 8.83
6/6/2022 4:00:00 AM 15.16 59.288 0.068 7.11 3.01 8.86
6/6/2022 4:15:00 AM 15.04 59.072 0.068 7.12 2.86 8.89
6/6/2022 4:30:00 AM 14.93 58.874 0.069 7.12 2.88 8.92
6/6/2022 4:45:00 AM 14.82 58.676 0.069 7.12 2.87 8.95
6/6/2022 5:00:00 AM 14.71 58.478 0.068 7.12 2.84 8.98
6/6/2022 5:15:00 AM 14.59 58.262 0.068 7.12 2.76 9
6/6/2022 5:30:00 AM 14.49 58.082 0.068 7.04 2.87 9.04
6/6/2022 5:45:00 AM 14.39 57.902 0.068 7.12 2.84 9.08
6/6/2022 6:00:00 AM 14.29 57.722 0.068 7.13 2.75 9.13
6/6/2022 6:15:00 AM 14.2 57.56 0.068 7.04 2.84 9.19
6/6/2022 6:30:00 AM 14.11 57.398 0.068 7.15 2.69 9.25
6/6/2022 6:45:00 AM 14.03 57.254 0.067 7.16 2.82 9.32
6/6/2022 7:00:00 AM 14.01 57.218 0.067 7.13 2.74 9.37
6/6/2022 7:15:00 AM 13.97 57.146 0.067 7.2 2.82 9.48
6/6/2022 7:30:00 AM 13.97 57.146 0.067 7.21 2.77 9.57
6/6/2022 7:45:00 AM 14.02 57.236 0.067 7.23 2.81 9.67
6/6/2022 8:00:00 AM 14.08 57.344 0.067 7.25 2.79 9.76
6/6/2022 8:15:00 AM 14.14 57.452 0.067 7.29 2.81 9.83
6/6/2022 8:30:00 AM 14.25 57.65 0.064 7.32 3.37 9.89
6/6/2022 8:45:00 AM 14.38 57.884 0.067 7.35 2.91 9.95
6/6/2022 9:00:00 AM 14.54 58.172 0.067 7.32 2.98 9.99
6/6/2022 9:15:00 AM 14.69 58.442 0.067 7.46 3.03 10.04
6/6/2022 9:30:00 AM 14.82 58.676 0.067 7.48 2.88 10.07
6/6/2022 9:45:00 AM 14.96 58.928 0.066 7.44 2.96 10.11
6/6/2022 10:00:00 AM 15.22 59.396 0.066 7.57 2.9 10.13
6/6/2022 10:15:00 AM 15.5 59.9 0.066 7.6 2.86 10.14
6/6/2022 10:30:00 AM 15.87 60.566 0.066 7.63 2.78 10.15
6/6/2022 10:45:00 AM 16.21 61.178 0.066 7.65 2.98 10.14
6/6/2022 11:00:00 AM 16.58 61.844 0.066 7.69 3.03 10.12
6/6/2022 11:15:00 AM 16.94 62.492 0.066 7.75 3.07 10.1
6/6/2022 11:30:00 AM 17.37 63.266 0.066 7.84 3.09 10.08
6/6/2022 11:45:00 AM 17.51 63.518 0.065 7.82 3.16 10.02
6/6/2022 12:00:00 PM 17.97 64.346 0.065 7.83 2.92 9.99
6/6/2022 12:15:00 PM 18.31 64.958 0.065 7.77 2.83 9.95
6/6/2022 12:30:00 PM 18.71 65.67799 0.065 7.88 2.93 9.9
6/6/2022 12:45:00 PM 19.07 66.326 0.065 7.88 2.96 9.87
6/6/2022 1:00:00 PM 19.42 66.956 0.065 7.86 3.01 9.81
6/6/2022 1:15:00 PM 19.78 67.604 0.065 7.76 3.02 9.77
6/6/2022 1:30:00 PM 20.09 68.162 0.065 7.89 3.91 9.7
6/6/2022 1:45:00 PM 20.15 68.27 0.064 7.72 2.95 9.65
6/6/2022 2:00:00 PM 19.89 67.802 0.064 7.63 2.9 9.54
6/6/2022 2:15:00 PM 20.31 68.558 0.064 7.83 2.91 9.53
6/6/2022 2:30:00 PM 20.44 68.792 0.064 7.83 3.02 9.47
6/6/2022 2:45:00 PM 20.77 69.386 0.064 7.88 2.95 9.42
6/6/2022 3:00:00 PM 20.9 69.62 0.064 7.85 2.87 9.38
6/6/2022 3:15:00 PM 20.98 69.764 0.064 7.88 2.82 9.35
6/6/2022 3:30:00 PM 20.74 69.332 0.064 7.8 2.93 9.29
6/6/2022 3:45:00 PM 20.83 69.494 0.064 7.87 2.98 9.28
6/6/2022 4:00:00 PM 20.99 69.782 0.064 7.82 2.89 9.23
6/6/2022 4:15:00 PM 21.06 69.908 0.064 7.81 4.75 9.2
6/6/2022 4:30:00 PM 21.01 69.818 0.065 7.8 2.9 9.15
6/6/2022 4:45:00 PM 20.89 69.602 0.065 7.77 3 9.05
6/6/2022 5:00:00 PM 20.73 69.314 0.065 7.64 2.85 8.89
6/6/2022 5:15:00 PM 20.71 69.278 0.065 7.68 2.95 8.94
6/6/2022 5:30:00 PM 20.65 69.17 0.065 7.66 2.91 8.88
6/6/2022 5:45:00 PM 20.53 68.954 0.065 7.58 2.81 8.79
6/6/2022 6:00:00 PM 20.45 68.81 0.065 7.58 2.65 8.77
6/6/2022 6:15:00 PM 20.34 68.612 0.065 7.52 2.83 8.67
6/6/2022 6:30:00 PM 20.27 68.486 0.065 7.51 2.78 8.71
6/6/2022 6:45:00 PM 20.21 68.378 0.065 7.51 2.72 8.71
6/6/2022 7:00:00 PM 20.16 68.288 0.065 7.5 2.47 8.69
6/6/2022 7:15:00 PM 20.04 68.07201 0.065 7.28 2.73 8.6
6/6/2022 7:30:00 PM 19.94 67.892 0.065 7.4 2.67 8.51
6/6/2022 7:45:00 PM 19.86 67.748 0.065 7.34 2.78 8.45
6/6/2022 8:00:00 PM 19.77 67.586 0.064 7.36 3.3 8.39
6/6/2022 8:15:00 PM 19.7 67.46 0.065 7.29 2.78 8.32
6/6/2022 8:30:00 PM 19.62 67.316 0.065 7.3 2.92 8.24
6/6/2022 8:45:00 PM 19.54 67.172 0.066 7.27 2.97 8.16
6/6/2022 9:00:00 PM 19.46 67.028 0.066 7.21 2.96 8.1
6/6/2022 9:15:00 PM 19.37 66.866 0.066 7.22 3.05 8.05
6/6/2022 9:30:00 PM 19.31 66.758 0.066 7.11 3.08 8.02
6/6/2022 9:45:00 PM 19.24 66.632 0.066 7.19 2.91 7.99
6/6/2022 10:00:00 PM 19.17 66.506 0.066 7.1 5.29 7.97
6/6/2022 10:15:00 PM 19.11 66.398 0.066 7.16 4.19 7.95
6/6/2022 10:30:00 PM 19.05 66.29 0.066 7.15 3.48 7.96
6/6/2022 10:45:00 PM 18.98 66.164 0.067 7.12 3.03 7.96
6/6/2022 11:00:00 PM 18.92 66.056 0.067 7.13 3.07 7.96
6/6/2022 11:15:00 PM 18.86 65.948 0.067 7.13 3.02 7.97
6/6/2022 11:30:00 PM 18.8 65.84 0.067 7.06 3.04 7.98
6/6/2022 11:45:00 PM 18.73 65.714 0.067 7.13 3.04 7.99
6/7/2022 12:00:00 AM 18.65 65.57 0.067 7.14 3.31 8
6/7/2022 12:15:00 AM 18.58 65.444 0.067 7.15 3.21 8.01
6/7/2022 12:30:00 AM 18.51 65.318 0.067 7.13 3.09 8.01
6/7/2022 12:45:00 AM 18.44 65.192 0.067 7.12 3.32 8.03
6/7/2022 1:00:00 AM 18.37 65.066 0.067 7.13 3.26 8.05
6/7/2022 1:15:00 AM 18.3 64.94 0.068 7.1 3.03 8.07
6/7/2022 1:30:00 AM 18.24 64.832 0.068 7.14 3.08 8.08
6/7/2022 1:45:00 AM 18.18 64.724 0.067 7.12 3.48 8.1
6/7/2022 2:00:00 AM 18.11 64.598 0.068 7.12 3.08 8.11
6/7/2022 2:15:00 AM 18.05 64.49 0.068 7.13 3.07 8.13
6/7/2022 2:30:00 AM 17.99 64.382 0.068 7.13 2.99 8.15
6/7/2022 2:45:00 AM 17.92 64.256 0.068 7.13 2.99 8.16
6/7/2022 3:00:00 AM 17.85 64.13 0.068 7.13 3.08 8.18
6/7/2022 3:15:00 AM 17.78 64.004 0.068 7.12 2.95 8.19
6/7/2022 3:30:00 AM 17.72 63.896 0.068 7.11 3.04 8.21
6/7/2022 3:45:00 AM 17.65 63.77 0.068 7.09 6.33 8.22
6/7/2022 4:00:00 AM 17.58 63.644 0.068 7.1 2.88 8.23
6/7/2022 4:15:00 AM 17.51 63.518 0.068 7.12 2.98 8.25
6/7/2022 4:30:00 AM 17.45 63.41 0.068 7.12 3.02 8.27
6/7/2022 4:45:00 AM 17.39 63.302 0.068 7.11 3.08 8.29
6/7/2022 5:00:00 AM 17.33 63.194 0.068 7.1 2.92 8.3
6/7/2022 5:15:00 AM 17.27 63.086 0.068 7 3.01 8.32
6/7/2022 5:30:00 AM 17.21 62.978 0.068 7.12 2.93 8.34
6/7/2022 5:45:00 AM 17.17 62.906 0.064 7.13 3.01 8.35
6/7/2022 6:00:00 AM 17.11 62.798 0.068 7.11 2.82 8.38
6/7/2022 6:15:00 AM 17.07 62.726 0.066 7.14 4.28 8.43
6/7/2022 6:30:00 AM 17.03 62.654 0.068 7.14 2.81 8.49
6/7/2022 6:45:00 AM 17.01 62.618 0.068 7.18 2.95 8.55
6/7/2022 7:00:00 AM 17 62.6 0.068 7.15 2.86 8.61
6/7/2022 7:15:00 AM 16.98 62.564 0.068 7.15 2.84 8.66
6/7/2022 7:30:00 AM 16.95 62.51 0.068 7.16 2.74 8.62
6/7/2022 7:45:00 AM 16.93 62.474 0.068 7.16 5.31 8.65
6/7/2022 8:00:00 AM 16.91 62.438 0.068 7.19 2.97 8.71
6/7/2022 8:15:00 AM 16.9 62.42 0.068 7.13 2.8 8.76
6/7/2022 8:30:00 AM 16.89 62.402 0.068 7.18 2.98 8.81
6/7/2022 8:45:00 AM 16.87 62.366 0.068 7.19 2.9 8.82
6/7/2022 9:00:00 AM 16.86 62.348 0.068 7.16 2.85 8.89
6/7/2022 9:15:00 AM 16.83 62.294 0.068 7.2 3.07 8.96
6/7/2022 9:30:00 AM 16.84 62.312 0.067 7.24 3.14 9.05
6/7/2022 9:45:00 AM 16.84 62.312 0.067 7.26 3.02 9.07
6/7/2022 10:00:00 AM 16.87 62.366 0.067 7.32 3.12 9.19
6/7/2022 10:15:00 AM 16.9 62.42 0.067 7.33 2.7 9.23
6/7/2022 10:30:00 AM 16.89 62.402 0.067 7.28 4.62 9.26
6/7/2022 10:45:00 AM 16.9 62.42 0.067 7.33 2.81 9.3
6/7/2022 11:00:00 AM 16.85 62.33 0.065 7.28 4.78 9.25
6/7/2022 11:15:00 AM 16.81 62.258 0.066 7.16 3.37 9.21
6/7/2022 11:30:00 AM 16.8 62.24 0.101 7.3 9.48 9.22
6/7/2022 11:45:00 AM 16.78 62.204 0.09 7.34 9.24 9.24
6/7/2022 12:00:00 PM 16.76 62.168 0.101 7.22 17.42 9.22
6/7/2022 12:15:00 PM 16.74 62.132 0.078 7.34 7.54 9.24
6/7/2022 12:30:00 PM 16.73 62.114 0.071 7.32 4.36 9.26
6/7/2022 12:45:00 PM 16.72 62.096 0.063 7.34 5.11 9.29
6/7/2022 1:00:00 PM 16.74 62.132 0.068 7.39 4.11 9.32
6/7/2022 1:15:00 PM 16.79 62.222 0.07 7.4 3.69 9.39
6/7/2022 1:30:00 PM 16.78 62.204 0.069 7.39 3.52 9.34
6/7/2022 1:45:00 PM 16.78 62.204 0.068 7.34 3.33 9.35
6/7/2022 2:00:00 PM 16.79 62.222 0.067 7.38 4.18 9.36
6/7/2022 2:15:00 PM 16.8 62.24 0.067 7.36 3.52 9.36
6/7/2022 2:30:00 PM 16.8 62.24 0.065 7.4 3.89 9.35
6/7/2022 2:45:00 PM 16.82 62.276 0.066 7.24 3.46 9.37
6/7/2022 3:00:00 PM 16.82 62.276 0.065 7.32 3.8 9.36
6/7/2022 3:15:00 PM 16.82 62.276 0.065 7.35 3.91 9.33
6/7/2022 3:30:00 PM 16.81 62.258 0.065 7.39 3.94 9.31
6/7/2022 3:45:00 PM 16.82 62.276 0.065 7.4 3.92 9.31
6/7/2022 4:00:00 PM 16.86 62.348 0.058 7.43 4.23 9.34
6/7/2022 4:15:00 PM 16.84 62.312 0.064 7.39 5.66 9.28
6/7/2022 4:30:00 PM 16.85 62.33 0.064 7.18 5.62 9.3
6/7/2022 4:45:00 PM 16.92 62.456 0.064 7.39 8.96 9.35
6/7/2022 5:00:00 PM 16.93 62.474 0.061 7.39 4.04 9.34
6/7/2022 5:15:00 PM 16.92 62.456 0.064 7.42 5.04 9.29
6/7/2022 5:30:00 PM 16.9 62.42 0.064 7.41 4.42 9.23
6/7/2022 5:45:00 PM 16.87 62.366 0.064 7.29 3.67 9.17
6/7/2022 6:00:00 PM 16.84 62.312 0.065 7.38 4.28 9.11
6/7/2022 6:15:00 PM 16.8 62.24 0.061 7.35 4.42 9.06
6/7/2022 6:30:00 PM 16.76 62.168 0.065 7.33 3.63 9.02
6/7/2022 6:45:00 PM 16.72 62.096 0.065 7.29 4.49 9
6/7/2022 7:00:00 PM 16.68 62.024 0.064 7.22 4.19 8.96
6/7/2022 7:15:00 PM 16.63 61.934 0.06 7.23 4.56 8.94
6/7/2022 7:30:00 PM 16.59 61.862 0.064 7.2 3.81 8.91
6/7/2022 7:45:00 PM 16.54 61.772 0.065 7.22 4.19 8.91
6/7/2022 8:00:00 PM 16.5 61.7 0.06 7.15 4.53 8.91
6/7/2022 8:15:00 PM 16.45 61.61 0.066 7.21 4.4 8.9
6/7/2022 8:30:00 PM 16.39 61.502 0.063 7.13 5 8.89
6/7/2022 8:45:00 PM 16.34 61.412 0.066 7.09 4.44 8.86
6/7/2022 9:00:00 PM 16.28 61.304 0.066 7.09 4.06 8.84
6/7/2022 9:15:00 PM 16.23 61.214 0.063 7.1 4.69 8.83
6/7/2022 9:30:00 PM 16.18 61.124 0.065 7.12 4.48 8.83
6/7/2022 9:45:00 PM 16.14 61.052 0.065 7.17 4.68 8.83
6/7/2022 10:00:00 PM 16.09 60.962 0.064 7.11 5.04 8.83
6/7/2022 10:15:00 PM 16.04 60.872 0.063 7.02 5.2 8.84
6/7/2022 10:30:00 PM 15.99 60.782 0.063 7.06 5.4 8.84
6/7/2022 10:45:00 PM 15.96 60.728 0.065 7.1 4.55 8.84
6/7/2022 11:00:00 PM 15.93 60.674 0.065 7.13 4.7 8.85
6/7/2022 11:15:00 PM 15.9 60.62 0.065 7.07 4.68 8.85
6/7/2022 11:30:00 PM 15.88 60.584 0.065 7.08 4.3 8.85
6/7/2022 11:45:00 PM 15.85 60.53 0.059 7 5.42 8.86
6/8/2022 12:00:00 AM 15.82 60.476 0.065 7.07 4.51 8.87
6/8/2022 12:15:00 AM 15.79 60.422 0.065 7.09 6.73 8.87
6/8/2022 12:30:00 AM 15.75 60.35 0.066 7.14 4.63 8.88
6/8/2022 12:45:00 AM 15.7 60.26 0.066 7.07 4.73 8.89
6/8/2022 1:00:00 AM 15.66 60.188 0.066 7.09 4.56 8.9
6/8/2022 1:15:00 AM 15.6 60.08 0.066 7.05 4.63 8.91
6/8/2022 1:30:00 AM 15.54 59.972 0.066 7.11 4.45 8.92
6/8/2022 1:45:00 AM 15.47 59.846 0.066 7 4.67 8.93
6/8/2022 2:00:00 AM 15.41 59.738 0.066 7.13 4.59 8.94
6/8/2022 2:15:00 AM 15.34 59.612 0.066 7.16 4.52 8.96
6/8/2022 2:30:00 AM 15.28 59.504 0.066 7.14 4.64 8.98
6/8/2022 2:45:00 AM 15.22 59.396 0.066 7.16 4.62 8.99
6/8/2022 3:00:00 AM 15.17 59.306 0.066 7.14 4.55 9.01
6/8/2022 3:15:00 AM 15.12 59.216 0.066 7.15 4.79 9.02
6/8/2022 3:30:00 AM 15.07 59.126 0.066 7.13 4.56 9.04
6/8/2022 3:45:00 AM 15.02 59.036 0.066 7.16 4.22 9.05
6/8/2022 4:00:00 AM 14.97 58.946 0.066 7.12 4.25 9.07
6/8/2022 4:15:00 AM 14.92 58.856 0.066 7.18 4.28 9.08
6/8/2022 4:30:00 AM 14.87 58.766 0.066 7.1 4.35 9.1
6/8/2022 4:45:00 AM 14.81 58.658 0.066 7.1 4.4 9.11
6/8/2022 5:00:00 AM 14.76 58.568 0.066 7.17 5.55 9.12
6/8/2022 5:15:00 AM 14.71 58.478 0.066 7.17 4.38 9.14
6/8/2022 5:30:00 AM 14.66 58.388 0.066 7.13 5.75 9.16
6/8/2022 5:45:00 AM 14.61 58.298 0.066 7.15 4.13 9.17
6/8/2022 6:00:00 AM 14.56 58.208 0.063 7.12 5.29 9.2
6/8/2022 6:15:00 AM 14.52 58.136 0.065 7.16 4.08 9.23
6/8/2022 6:30:00 AM 14.46 58.028 0.063 7.15 4.58 9.27
6/8/2022 6:45:00 AM 14.42 57.956 0.065 7.17 5.3 9.34
6/8/2022 7:00:00 AM 14.41 57.938 0.065 7.12 3.88 9.39
6/8/2022 7:15:00 AM 14.39 57.902 0.065 7.23 6.53 9.45
6/8/2022 7:30:00 AM 14.39 57.902 0.065 7.27 4.91 9.53
6/8/2022 7:45:00 AM 14.4 57.92 0.065 7.23 3.79 9.6
6/8/2022 8:00:00 AM 14.44 57.992 0.065 7.27 3.57 9.66
6/8/2022 8:15:00 AM 14.53 58.154 0.065 7.26 3.58 9.73
6/8/2022 8:30:00 AM 14.62 58.316 0.063 7.26 4.83 9.78
6/8/2022 8:45:00 AM 14.73 58.514 0.065 7.33 3.84 9.81
6/8/2022 9:00:00 AM 14.83 58.694 0.065 7.27 3.83 9.85
6/8/2022 9:15:00 AM 14.91 58.838 0.063 7.37 4.02 9.88
6/8/2022 9:30:00 AM 14.98 58.964 0.064 7.31 3.78 9.91
6/8/2022 9:45:00 AM 14.93 58.874 0.064 7.47 3.57 9.91
6/8/2022 10:00:00 AM 15.02 59.036 0.062 7.47 6.24 9.96
6/8/2022 10:15:00 AM 15.14 59.252 0.061 7.54 4.8 9.99
6/8/2022 10:30:00 AM 15.32 59.576 0.064 7.39 3.29 10.03
6/8/2022 10:45:00 AM 15.35 59.63 0.064 7.61 3.25 10.04
6/8/2022 11:00:00 AM 15.43 59.774 0.061 7.48 4.6 10.05
6/8/2022 11:15:00 AM 15.67 60.206 0.064 7.46 3.18 10.06
6/8/2022 11:30:00 AM 16.19 61.142 0.057 7.76 3.99 10.04
6/8/2022 11:45:00 AM 16.37 61.466 0.063 7.61 3.21 10.02
6/8/2022 12:00:00 PM 16.83 62.294 0.06 7.8 6.61 9.99
6/8/2022 12:15:00 PM 16.83 62.294 0.063 7.72 3.18 9.94
6/8/2022 12:30:00 PM 17.39 63.302 0.059 7.84 3.76 9.91
6/8/2022 12:45:00 PM 17.57 63.626 0.062 7.83 3.59 9.88
6/8/2022 1:00:00 PM 18.03 64.454 0.063 7.84 5.1 9.83
6/8/2022 1:15:00 PM 18.25 64.85 0.063 7.62 3.02 9.76
6/8/2022 1:30:00 PM 18.51 65.318 0.063 7.81 3.02 9.73
6/8/2022 1:45:00 PM 18.33 64.994 0.06 7.74 4.13 9.66
6/8/2022 2:00:00 PM 18.72 65.696 0.063 7.65 2.89 9.64
6/8/2022 2:15:00 PM 19.09 66.362 0.063 7.62 2.89 9.59
6/8/2022 2:30:00 PM 19.74 67.532 0.063 7.73 3.21 9.53
6/8/2022 2:45:00 PM 20.06 68.108 0.063 7.79 2.81 9.47
6/8/2022 3:00:00 PM 20.37 68.666 0.063 7.76 2.79 9.39
6/8/2022 3:15:00 PM 20.57 69.026 0.063 7.66 2.79 9.32
6/8/2022 3:30:00 PM 20.7 69.26 0.063 7.65 3.5 9.25
6/8/2022 3:45:00 PM 20.65 69.17 0.063 7.67 2.75 9.18
6/8/2022 4:00:00 PM 20.65 69.17 0.063 7.63 2.76 9.12
6/8/2022 4:15:00 PM 20.54 68.972 0.063 7.6 2.75 9.05
6/8/2022 4:30:00 PM 20.63 69.134 0.062 7.62 2.87 9.01
6/8/2022 4:45:00 PM 20.67 69.206 0.063 7.61 2.75 8.97
6/8/2022 5:00:00 PM 20.64 69.152 0.063 7.54 2.74 8.92
6/8/2022 5:15:00 PM 20.64 69.152 0.063 7.56 2.74 8.86
6/8/2022 5:30:00 PM 20.64 69.152 0.061 7.57 6.5 8.8
6/8/2022 5:45:00 PM 20.66 69.188 0.061 7.57 4 8.79
6/8/2022 6:00:00 PM 20.65 69.17 0.062 7.54 2.75 8.76
6/8/2022 6:15:00 PM 20.6 69.08 0.063 7.51 2.75 8.69
6/8/2022 6:30:00 PM 20.6 69.08 0.06 7.49 3.33 8.65
6/8/2022 6:45:00 PM 20.53 68.954 0.063 7.43 2.77 8.57
6/8/2022 7:00:00 PM 20.49 68.882 0.057 7.45 3.36 8.53
6/8/2022 7:15:00 PM 20.43 68.774 0.063 7.37 2.8 8.47
6/8/2022 7:30:00 PM 20.35 68.63 0.061 7.41 3.33 8.41
6/8/2022 7:45:00 PM 20.24 68.432 0.064 7.37 6.25 8.33
6/8/2022 8:00:00 PM 20.13 68.234 0.064 7.28 2.72 8.27
6/8/2022 8:15:00 PM 20.01 68.018 0.064 7.32 2.8 8.2
6/8/2022 8:30:00 PM 19.9 67.82 0.062 7.29 3.48 8.15
6/8/2022 8:45:00 PM 19.79 67.622 0.064 7.22 2.95 8.09
6/8/2022 9:00:00 PM 19.69 67.442 0.063 7.25 3.51 8.04
6/8/2022 9:15:00 PM 19.58 67.244 0.064 7.19 4.25 8.01
6/8/2022 9:30:00 PM 19.48 67.064 0.06 7.19 4.68 7.98
6/8/2022 9:45:00 PM 19.39 66.902 0.066 7.16 3.97 7.96
6/8/2022 10:00:00 PM 19.3 66.74 0.066 7.16 2.96 7.96
6/8/2022 10:15:00 PM 19.22 66.596 0.065 7.17 3.41 7.95
6/8/2022 10:30:00 PM 19.16 66.488 0.059 7.15 3.59 7.96
6/8/2022 10:45:00 PM 19.08 66.344 0.066 7.14 3.35 7.96
6/8/2022 11:00:00 PM 19 66.2 0.066 7.14 3.04 7.97
6/8/2022 11:15:00 PM 18.92 66.056 0.066 7.14 3.2 7.98
6/8/2022 11:30:00 PM 18.83 65.894 0.066 7.11 3.39 7.99
6/8/2022 11:45:00 PM 18.75 65.75 0.066 7.13 3.43 8
6/9/2022 12:00:00 AM 18.66 65.588 0.065 7.09 3.96 8.04
6/9/2022 12:15:00 AM 18.53 65.354 0.065 7.13 3.69 8.09
6/9/2022 12:30:00 AM 18.42 65.156 0.1 7.25 48.3 8.15
6/9/2022 12:45:00 AM 18.36 65.048 0.072 7.12 6.02 8.1
6/9/2022 1:00:00 AM 18.24 64.832 0.071 7.08 6.06 8.12
6/9/2022 1:15:00 AM 18.12 64.616 0.076 7.19 35.39 8.2
6/9/2022 1:30:00 AM 18.04 64.472 0.071 7.13 13.22 8.19
6/9/2022 1:45:00 AM 17.97 64.346 0.068 7.06 7.61 8.15
6/9/2022 2:00:00 AM 17.91 64.238 0.065 7.08 4.85 8.14
6/9/2022 2:15:00 AM 17.85 64.13 0.066 7 4.16 8.13
6/9/2022 2:30:00 AM 17.78 64.004 0.066 7.05 4.07 8.13
6/9/2022 2:45:00 AM 17.72 63.896 0.066 7.06 7.89 8.15
6/9/2022 3:00:00 AM 17.65 63.77 0.06 7.09 5.15 8.16
6/9/2022 3:15:00 AM 17.58 63.644 0.062 7.08 6.17 8.17
6/9/2022 3:30:00 AM 17.51 63.518 0.065 7.07 5.26 8.19
6/9/2022 3:45:00 AM 17.44 63.392 0.066 7.1 8.85 8.22
6/9/2022 4:00:00 AM 17.37 63.266 0.066 7.09 4.38 8.25
6/9/2022 4:15:00 AM 17.3 63.14 0.066 7.09 4.41 8.29
6/9/2022 4:30:00 AM 17.23 63.014 0.064 7.08 5.54 8.32
6/9/2022 4:45:00 AM 17.14 62.852 0.066 7.09 5.86 8.35
6/9/2022 5:00:00 AM 17.05 62.69 0.062 7.01 8.12 8.38
6/9/2022 5:15:00 AM 16.95 62.51 0.067 7.04 9.35 8.42
6/9/2022 5:30:00 AM 16.86 62.348 0.067 7.04 11.35 8.47
6/9/2022 5:45:00 AM 16.77 62.186 0.064 7.08 12.68 8.51
6/9/2022 6:00:00 AM 16.68 62.024 0.065 7.02 12.61 8.57
6/9/2022 6:15:00 AM 16.6 61.88 0.061 7 12.99 8.62
6/9/2022 6:30:00 AM 16.51 61.718 0.065 7.14 13.51 8.67
6/9/2022 6:45:00 AM 16.41 61.538 0.065 7.12 12.49 8.72
6/9/2022 7:00:00 AM 16.3 61.34 0.065 7.1 17.14 8.78
6/9/2022 7:15:00 AM 16.18 61.124 0.077 7.07 19.22 8.84
6/9/2022 7:30:00 AM 16.06 60.908 0.065 7.17 18.95 8.9
6/9/2022 7:45:00 AM 15.94 60.692 0.065 7.22 15.52 8.96
6/9/2022 8:00:00 AM 15.84 60.512 0.064 7.16 17.27 9
6/9/2022 8:15:00 AM 15.77 60.386 0.063 7.17 15.62 9.04
6/9/2022 8:30:00 AM 15.72 60.296 0.065 7.19 17.79 9.09
6/9/2022 8:45:00 AM 15.7 60.26 0.065 7.22 15.19 9.15
6/9/2022 9:00:00 AM 15.69 60.242 0.065 7.18 14.26 9.19
6/9/2022 9:15:00 AM 15.72 60.296 0.064 7.22 14.41 9.25
6/9/2022 9:30:00 AM 15.74 60.332 0.064 7.23 15.47 9.3
6/9/2022 9:45:00 AM 15.8 60.44 0.064 7.18 16.21 9.33
6/9/2022 10:00:00 AM 15.88 60.584 0.058 7.23 16.1 9.37
6/9/2022 10:15:00 AM 15.95 60.71 0.064 7.31 15.63 9.42
6/9/2022 10:30:00 AM 15.96 60.728 0.063 7.28 15.08 9.42
6/9/2022 10:45:00 AM 15.97 60.746 0.064 7.32 13.99 9.42
6/9/2022 11:00:00 AM 15.96 60.728 0.064 7.3 13.41 9.4
6/9/2022 11:15:00 AM 16.01 60.818 0.064 7.33 12.82 9.42
6/9/2022 11:30:00 AM 16.07 60.926 0.064 7.32 11.97 9.44
6/9/2022 11:45:00 AM 16.24 61.232 0.064 7.35 11.7 9.51
6/9/2022 12:00:00 PM 16.25 61.25 0.064 7.32 11.95 9.5
6/9/2022 12:15:00 PM 16.24 61.232 0.064 7.31 10.95 9.5
6/9/2022 12:30:00 PM 16.22 61.196 0.063 7.42 10.84 9.46
6/9/2022 12:45:00 PM 16.21 61.178 0.063 7.39 1979.56 9.45
6/9/2022 1:00:00 PM 16.21 61.178 0.061 7.37 10.61 9.44
6/9/2022 1:15:00 PM 16.26 61.268 0.063 7.36 9.63 9.46
6/9/2022 1:30:00 PM 16.37 61.466 0.057 7.44 11.26 9.5
6/9/2022 1:45:00 PM 16.45 61.61 0.062 7.35 8.91 9.55
6/9/2022 2:00:00 PM 16.54 61.772 0.062 7.34 8.73 9.56
6/9/2022 2:15:00 PM 16.58 61.844 0.062 7.33 8.26 9.56
6/9/2022 2:30:00 PM 16.6 61.88 0.062 7.46 8.03 9.54
6/9/2022 2:45:00 PM 16.66 61.988 0.062 7.49 8.1 9.55
6/9/2022 3:00:00 PM 16.76 62.168 0.061 7.49 7.47 9.56
6/9/2022 3:15:00 PM 16.77 62.186 0.061 7.48 7.27 9.52
6/9/2022 3:30:00 PM 16.83 62.294 0.061 7.38 7.33 9.52
6/9/2022 3:45:00 PM 16.82 62.276 0.058 7.47 7.41 9.48
6/9/2022 4:00:00 PM 16.81 62.258 0.061 7.47 6.28 9.42
6/9/2022 4:15:00 PM 16.76 62.168 0.061 7.43 6.5 9.34
6/9/2022 4:30:00 PM 16.78 62.204 0.061 7.41 6.38 9.34
6/9/2022 4:45:00 PM 16.82 62.276 0.061 7.42 6.02 9.35
6/9/2022 5:00:00 PM 16.84 62.312 0.061 7.41 5.87 9.36
6/9/2022 5:15:00 PM 16.91 62.438 0.061 7.44 6.07 9.39
6/9/2022 5:30:00 PM 16.99 62.582 0.061 7.42 5.63 9.38
6/9/2022 5:45:00 PM 17.01 62.618 0.061 7.41 5.52 9.35
6/9/2022 6:00:00 PM 17.06 62.708 0.062 7.37 5.38 9.32
6/9/2022 6:15:00 PM 17.09 62.762 0.061 7.41 5.78 9.27
6/9/2022 6:30:00 PM 17.09 62.762 0.061 7.39 5.68 9.22
6/9/2022 6:45:00 PM 17.06 62.708 0.059 7.38 6.08 9.19
6/9/2022 7:00:00 PM 17 62.6 0.061 7.35 5.36 9.14
6/9/2022 7:15:00 PM 16.94 62.492 0.062 7.34 5.13 9.1
6/9/2022 7:30:00 PM 16.88 62.384 0.062 7.34 4.98 9.08
6/9/2022 7:45:00 PM 16.83 62.294 0.062 7.31 4.89 9.05
6/9/2022 8:00:00 PM 16.77 62.186 0.062 7.32 4.99 9.01
6/9/2022 8:15:00 PM 16.69 62.042 0.062 7.29 4.92 8.97
6/9/2022 8:30:00 PM 16.62 61.916 0.062 7.26 4.88 8.93
6/9/2022 8:45:00 PM 16.54 61.772 0.063 7.25 4.87 8.89
6/9/2022 9:00:00 PM 16.47 61.646 0.063 7.24 4.9 8.86
6/9/2022 9:15:00 PM 16.38 61.484 0.062 7.17 5.4 8.83
6/9/2022 9:30:00 PM 16.29 61.322 0.063 7.19 4.97 8.83
6/9/2022 9:45:00 PM 16.2 61.16 0.063 7.2 4.95 8.82
6/9/2022 10:00:00 PM 16.11 60.998 0.064 7.2 4.81 8.83
6/9/2022 10:15:00 PM 16 60.8 0.064 7.2 4.96 8.83
6/9/2022 10:30:00 PM 15.9 60.62 0.064 7.19 5.02 8.85
6/9/2022 10:45:00 PM 15.8 60.44 0.064 7.17 4.8 8.87
6/9/2022 11:00:00 PM 15.7 60.26 0.064 7.1 4.69 8.88
6/9/2022 11:15:00 PM 15.6 60.08 0.064 7.15 4.77 8.9
6/9/2022 11:30:00 PM 15.5 59.9 0.064 7.16 4.81 8.92
6/9/2022 11:45:00 PM 15.4 59.72 0.065 7.17 4.67 8.95
6/10/2022 12:00:00 AM 15.31 59.558 0.065 7.18 4.68 8.97
6/10/2022 12:15:00 AM 15.24 59.432 0.065 7.17 4.64 8.98
6/10/2022 12:30:00 AM 15.16 59.288 0.065 7.17 4.52 9
6/10/2022 12:45:00 AM 15.08 59.144 0.065 7.16 4.5 9.02
6/10/2022 1:00:00 AM 15.01 59.018 0.065 7.02 4.5 9.04
6/10/2022 1:15:00 AM 14.95 58.91 0.065 7.16 4.42 9.06
6/10/2022 1:30:00 AM 14.88 58.784 0.065 7.19 4.33 9.07
6/10/2022 1:45:00 AM 14.82 58.676 0.066 7.15 4.26 9.1
6/10/2022 2:00:00 AM 14.76 58.568 0.064 7.18 5.72 9.1
6/10/2022 2:15:00 AM 14.7 58.46 0.066 7.23 4.27 9.12
6/10/2022 2:30:00 AM 14.64 58.352 0.066 7.2 4.33 9.14
6/10/2022 2:45:00 AM 14.58 58.244 0.066 7.12 4.26 9.15
6/10/2022 3:00:00 AM 14.51 58.118 0.066 7.2 4.2 9.17
6/10/2022 3:15:00 AM 14.45 58.01 0.066 7.16 13.74 9.19
6/10/2022 3:30:00 AM 14.39 57.902 0.065 7.14 5.15 9.21
6/10/2022 3:45:00 AM 14.33 57.794 0.065 7.15 4.66 9.22
6/10/2022 4:00:00 AM 14.27 57.686 0.065 7.17 22.91 9.23
6/10/2022 4:15:00 AM 14.21 57.578 0.067 7.16 14.46 9.25
6/10/2022 4:30:00 AM 14.15 57.47 0.067 7.15 22.81 9.26
6/10/2022 4:45:00 AM 14.09 57.362 0.067 7.16 18.87 9.28
6/10/2022 5:00:00 AM 14.03 57.254 0.067 7.16 5.22 9.3
6/10/2022 5:15:00 AM 14.02 57.236 0.067 7.17 23.95 9.3
6/10/2022 5:30:00 AM 13.96 57.128 0.067 7.18 20.85 9.31
6/10/2022 5:45:00 AM 13.91 57.038 0.067 7.18 18.48 9.33
6/10/2022 6:00:00 AM 13.86 56.948 0.067 7.14 22.44 9.36
6/10/2022 6:15:00 AM 13.82 56.876 0.067 7.18 26.75 9.39
6/10/2022 6:30:00 AM 13.78 56.804 0.066 7.13 13.37 9.44
6/10/2022 6:45:00 AM 13.75 56.75 0.067 7.11 16.63 9.48
6/10/2022 7:00:00 AM 13.72 56.696 0.067 7.2 16.35 9.54
6/10/2022 7:15:00 AM 13.7 56.66 0.067 7.24 18.39 9.6
6/10/2022 7:30:00 AM 13.69 56.642 0.067 7.24 16.72 9.67
6/10/2022 7:45:00 AM 13.7 56.66 0.067 7.27 17.08 9.76
6/10/2022 8:00:00 AM 13.72 56.696 0.067 7.3 16.57 9.85
6/10/2022 8:15:00 AM 13.75 56.75 0.066 7.33 20.24 9.91
6/10/2022 8:30:00 AM 13.88 56.984 0.066 7.29 14.86 9.95
6/10/2022 8:45:00 AM 13.99 57.182 0.066 7.28 15.75 9.97
6/10/2022 9:00:00 AM 14.09 57.362 0.066 7.34 22.66 9.97
6/10/2022 9:15:00 AM 14.24 57.632 0.063 7.36 21.73 9.99
6/10/2022 9:30:00 AM 14.4 57.92 0.066 7.44 9.13 9.99
6/10/2022 9:45:00 AM 14.57 58.226 0.066 7.47 24.78 10.01
6/10/2022 10:00:00 AM 14.77 58.586 0.066 7.42 23.62 10.01
6/10/2022 10:15:00 AM 15.01 59.018 0.066 7.47 8.67 10.02